<?xml version="1.0" encoding="UTF-8" standalone="no" ?>
<gpx xmlns="http://www.topografix.com/GPX/1/1" xmlns:xsi="http://www.w3.org/2001/XMLSchema-instance" xsi:schemaLocation="http://www.topografix.com/GPX/1/1 http://www.topografix.com/GPX/1/1/gpx.xsd" version="1.1" creator="VisuGPX - https://www.visugpx.com">
  <metadata>
    <name>GR65 de Limogne en Quercy à Lalbenque</name>
    <desc><![CDATA[GR65 de Limogne en Quercy à Lalbenque]]></desc>
  </metadata>
  <trk>
    <name><![CDATA[ACTIVE LOG085755]]></name>
    <trkseg>
      <trkpt lat="44.39906" lon="1.7703">
        <ele>295.452</ele>
        <time>2013-06-29T06:57:53Z</time>
      </trkpt>
      <trkpt lat="44.39906" lon="1.77031">
        <ele>295.452</ele>
        <time>2013-06-29T06:57:55Z</time>
      </trkpt>
      <trkpt lat="44.39906" lon="1.77031">
        <ele>298.487</ele>
        <time>2013-06-29T06:57:59Z</time>
      </trkpt>
      <trkpt lat="44.39903" lon="1.77033">
        <ele>301.679</ele>
        <time>2013-06-29T06:58:09Z</time>
      </trkpt>
    </trkseg>
  </trk>
  <trk>
    <name><![CDATA[ACTIVE LOG085811]]></name>
    <trkseg>
      <trkpt lat="44.39902" lon="1.77032">
        <ele>302.253</ele>
        <time>2013-06-29T06:58:11Z</time>
      </trkpt>
      <trkpt lat="44.399" lon="1.7703">
        <ele>303.092</ele>
        <time>2013-06-29T06:58:54Z</time>
      </trkpt>
      <trkpt lat="44.39901" lon="1.77028">
        <ele>302.934</ele>
        <time>2013-06-29T06:59:23Z</time>
      </trkpt>
      <trkpt lat="44.39906" lon="1.77023">
        <ele>303.359</ele>
        <time>2013-06-29T06:59:39Z</time>
      </trkpt>
      <trkpt lat="44.39915" lon="1.77008">
        <ele>305.305</ele>
        <time>2013-06-29T06:59:59Z</time>
      </trkpt>
      <trkpt lat="44.39892" lon="1.77013">
        <ele>305.289</ele>
        <time>2013-06-29T07:00:23Z</time>
      </trkpt>
      <trkpt lat="44.3988" lon="1.77018">
        <ele>305.434</ele>
        <time>2013-06-29T07:00:35Z</time>
      </trkpt>
      <trkpt lat="44.39864" lon="1.77022">
        <ele>305.62</ele>
        <time>2013-06-29T07:00:52Z</time>
      </trkpt>
      <trkpt lat="44.39839" lon="1.77035">
        <ele>305.985</ele>
        <time>2013-06-29T07:01:18Z</time>
      </trkpt>
      <trkpt lat="44.39834" lon="1.77038">
        <ele>306.477</ele>
        <time>2013-06-29T07:01:26Z</time>
      </trkpt>
      <trkpt lat="44.39829" lon="1.77039">
        <ele>306.78</ele>
        <time>2013-06-29T07:01:30Z</time>
      </trkpt>
      <trkpt lat="44.39803" lon="1.77043">
        <ele>307.02</ele>
        <time>2013-06-29T07:01:50Z</time>
      </trkpt>
      <trkpt lat="44.39795" lon="1.77037">
        <ele>307.544</ele>
        <time>2013-06-29T07:02:07Z</time>
      </trkpt>
      <trkpt lat="44.39791" lon="1.77032">
        <ele>308.566</ele>
        <time>2013-06-29T07:02:16Z</time>
      </trkpt>
      <trkpt lat="44.39808" lon="1.77021">
        <ele>308.608</ele>
        <time>2013-06-29T07:02:34Z</time>
      </trkpt>
      <trkpt lat="44.39816" lon="1.77026">
        <ele>308.183</ele>
        <time>2013-06-29T07:02:52Z</time>
      </trkpt>
      <trkpt lat="44.39813" lon="1.77025">
        <ele>308.1</ele>
        <time>2013-06-29T07:03:05Z</time>
      </trkpt>
      <trkpt lat="44.39819" lon="1.77025">
        <ele>308.121</ele>
        <time>2013-06-29T07:03:21Z</time>
      </trkpt>
      <trkpt lat="44.39818" lon="1.7702">
        <ele>308.334</ele>
        <time>2013-06-29T07:03:43Z</time>
      </trkpt>
      <trkpt lat="44.39822" lon="1.77019">
        <ele>308.107</ele>
        <time>2013-06-29T07:03:59Z</time>
      </trkpt>
      <trkpt lat="44.39815" lon="1.77008">
        <ele>308.247</ele>
        <time>2013-06-29T07:04:16Z</time>
      </trkpt>
      <trkpt lat="44.39803" lon="1.77018">
        <ele>306.735</ele>
        <time>2013-06-29T07:04:31Z</time>
      </trkpt>
      <trkpt lat="44.39782" lon="1.77032">
        <ele>306.611</ele>
        <time>2013-06-29T07:04:51Z</time>
      </trkpt>
      <trkpt lat="44.3976" lon="1.77041">
        <ele>305.899</ele>
        <time>2013-06-29T07:05:11Z</time>
      </trkpt>
      <trkpt lat="44.39751" lon="1.77044">
        <ele>304.801</ele>
        <time>2013-06-29T07:05:20Z</time>
      </trkpt>
      <trkpt lat="44.39739" lon="1.77048">
        <ele>305.313</ele>
        <time>2013-06-29T07:05:36Z</time>
      </trkpt>
      <trkpt lat="44.39732" lon="1.77044">
        <ele>305.238</ele>
        <time>2013-06-29T07:05:56Z</time>
      </trkpt>
      <trkpt lat="44.39724" lon="1.77037">
        <ele>306.451</ele>
        <time>2013-06-29T07:06:06Z</time>
      </trkpt>
      <trkpt lat="44.3971" lon="1.77016">
        <ele>306.615</ele>
        <time>2013-06-29T07:06:25Z</time>
      </trkpt>
      <trkpt lat="44.39708" lon="1.7701">
        <ele>307.135</ele>
        <time>2013-06-29T07:06:29Z</time>
      </trkpt>
      <trkpt lat="44.39707" lon="1.77006">
        <ele>307.265</ele>
        <time>2013-06-29T07:06:32Z</time>
      </trkpt>
      <trkpt lat="44.39694" lon="1.76977">
        <ele>308.249</ele>
        <time>2013-06-29T07:06:56Z</time>
      </trkpt>
      <trkpt lat="44.39679" lon="1.76947">
        <ele>309.745</ele>
        <time>2013-06-29T07:07:20Z</time>
      </trkpt>
      <trkpt lat="44.39662" lon="1.76913">
        <ele>311.847</ele>
        <time>2013-06-29T07:07:46Z</time>
      </trkpt>
      <trkpt lat="44.39644" lon="1.76885">
        <ele>312.46</ele>
        <time>2013-06-29T07:08:11Z</time>
      </trkpt>
      <trkpt lat="44.3963" lon="1.76864">
        <ele>313.36</ele>
        <time>2013-06-29T07:08:30Z</time>
      </trkpt>
      <trkpt lat="44.39616" lon="1.7684">
        <ele>314.186</ele>
        <time>2013-06-29T07:08:53Z</time>
      </trkpt>
      <trkpt lat="44.39601" lon="1.76813">
        <ele>315.564</ele>
        <time>2013-06-29T07:09:17Z</time>
      </trkpt>
      <trkpt lat="44.39594" lon="1.76811">
        <ele>315.422</ele>
        <time>2013-06-29T07:09:24Z</time>
      </trkpt>
      <trkpt lat="44.39567" lon="1.76797">
        <ele>315.905</ele>
        <time>2013-06-29T07:09:51Z</time>
      </trkpt>
      <trkpt lat="44.39535" lon="1.76776">
        <ele>316.262</ele>
        <time>2013-06-29T07:10:23Z</time>
      </trkpt>
      <trkpt lat="44.39501" lon="1.76753">
        <ele>316.595</ele>
        <time>2013-06-29T07:10:57Z</time>
      </trkpt>
      <trkpt lat="44.39477" lon="1.76736">
        <ele>317.506</ele>
        <time>2013-06-29T07:11:22Z</time>
      </trkpt>
      <trkpt lat="44.3947" lon="1.76729">
        <ele>317.385</ele>
        <time>2013-06-29T07:11:41Z</time>
      </trkpt>
      <trkpt lat="44.3949" lon="1.76706">
        <ele>317.7</ele>
        <time>2013-06-29T07:12:05Z</time>
      </trkpt>
      <trkpt lat="44.3949" lon="1.76695">
        <ele>317.819</ele>
        <time>2013-06-29T07:12:23Z</time>
      </trkpt>
      <trkpt lat="44.39488" lon="1.76691">
        <ele>318.253</ele>
        <time>2013-06-29T07:12:40Z</time>
      </trkpt>
      <trkpt lat="44.39487" lon="1.76696">
        <ele>318.295</ele>
        <time>2013-06-29T07:12:54Z</time>
      </trkpt>
      <trkpt lat="44.39489" lon="1.76694">
        <ele>318.609</ele>
        <time>2013-06-29T07:13:11Z</time>
      </trkpt>
      <trkpt lat="44.3949" lon="1.76678">
        <ele>317.66</ele>
        <time>2013-06-29T07:13:41Z</time>
      </trkpt>
      <trkpt lat="44.3949" lon="1.76682">
        <ele>323.414</ele>
        <time>2013-06-29T07:13:50Z</time>
      </trkpt>
      <trkpt lat="44.39491" lon="1.76681">
        <ele>319.022</ele>
        <time>2013-06-29T07:13:51Z</time>
      </trkpt>
      <trkpt lat="44.39486" lon="1.76685">
        <ele>318.448</ele>
        <time>2013-06-29T07:14:07Z</time>
      </trkpt>
      <trkpt lat="44.39488" lon="1.76677">
        <ele>318.011</ele>
        <time>2013-06-29T07:14:55Z</time>
      </trkpt>
      <trkpt lat="44.39488" lon="1.76677">
        <ele>318.367</ele>
        <time>2013-06-29T07:15:17Z</time>
      </trkpt>
      <trkpt lat="44.39491" lon="1.76693">
        <ele>318.126</ele>
        <time>2013-06-29T07:15:33Z</time>
      </trkpt>
      <trkpt lat="44.3948" lon="1.76717">
        <ele>317.808</ele>
        <time>2013-06-29T07:15:54Z</time>
      </trkpt>
      <trkpt lat="44.39459" lon="1.76725">
        <ele>318.442</ele>
        <time>2013-06-29T07:16:16Z</time>
      </trkpt>
      <trkpt lat="44.39427" lon="1.76716">
        <ele>319.686</ele>
        <time>2013-06-29T07:16:46Z</time>
      </trkpt>
      <trkpt lat="44.39404" lon="1.7671">
        <ele>321.902</ele>
        <time>2013-06-29T07:17:08Z</time>
      </trkpt>
      <trkpt lat="44.39383" lon="1.76698">
        <ele>324.925</ele>
        <time>2013-06-29T07:17:32Z</time>
      </trkpt>
      <trkpt lat="44.3938" lon="1.76692">
        <ele>324.896</ele>
        <time>2013-06-29T07:17:37Z</time>
      </trkpt>
      <trkpt lat="44.39375" lon="1.76657">
        <ele>325.287</ele>
        <time>2013-06-29T07:18:03Z</time>
      </trkpt>
      <trkpt lat="44.39371" lon="1.76632">
        <ele>326.681</ele>
        <time>2013-06-29T07:18:22Z</time>
      </trkpt>
      <trkpt lat="44.39365" lon="1.76609">
        <ele>329.652</ele>
        <time>2013-06-29T07:18:44Z</time>
      </trkpt>
      <trkpt lat="44.39357" lon="1.76571">
        <ele>330.041</ele>
        <time>2013-06-29T07:19:12Z</time>
      </trkpt>
      <trkpt lat="44.39352" lon="1.76547">
        <ele>329.952</ele>
        <time>2013-06-29T07:19:31Z</time>
      </trkpt>
      <trkpt lat="44.39341" lon="1.76516">
        <ele>328.941</ele>
        <time>2013-06-29T07:19:53Z</time>
      </trkpt>
      <trkpt lat="44.39324" lon="1.76489">
        <ele>327.143</ele>
        <time>2013-06-29T07:20:17Z</time>
      </trkpt>
      <trkpt lat="44.39314" lon="1.76474">
        <ele>326.056</ele>
        <time>2013-06-29T07:20:34Z</time>
      </trkpt>
      <trkpt lat="44.39303" lon="1.76459">
        <ele>325.737</ele>
        <time>2013-06-29T07:20:49Z</time>
      </trkpt>
      <trkpt lat="44.39302" lon="1.76455">
        <ele>325.502</ele>
        <time>2013-06-29T07:20:52Z</time>
      </trkpt>
      <trkpt lat="44.39287" lon="1.76427">
        <ele>324.228</ele>
        <time>2013-06-29T07:21:14Z</time>
      </trkpt>
      <trkpt lat="44.39274" lon="1.76403">
        <ele>323.716</ele>
        <time>2013-06-29T07:21:33Z</time>
      </trkpt>
      <trkpt lat="44.3926" lon="1.76376">
        <ele>321.701</ele>
        <time>2013-06-29T07:21:56Z</time>
      </trkpt>
      <trkpt lat="44.39248" lon="1.76352">
        <ele>321.989</ele>
        <time>2013-06-29T07:22:15Z</time>
      </trkpt>
      <trkpt lat="44.39243" lon="1.76333">
        <ele>321.919</ele>
        <time>2013-06-29T07:22:28Z</time>
      </trkpt>
      <trkpt lat="44.3924" lon="1.76322">
        <ele>321.585</ele>
        <time>2013-06-29T07:22:35Z</time>
      </trkpt>
      <trkpt lat="44.39233" lon="1.76288">
        <ele>322.814</ele>
        <time>2013-06-29T07:22:56Z</time>
      </trkpt>
      <trkpt lat="44.39229" lon="1.76262">
        <ele>324.009</ele>
        <time>2013-06-29T07:23:13Z</time>
      </trkpt>
      <trkpt lat="44.39226" lon="1.76232">
        <ele>323.895</ele>
        <time>2013-06-29T07:23:33Z</time>
      </trkpt>
      <trkpt lat="44.39227" lon="1.76211">
        <ele>323.362</ele>
        <time>2013-06-29T07:23:47Z</time>
      </trkpt>
      <trkpt lat="44.39227" lon="1.76184">
        <ele>323.276</ele>
        <time>2013-06-29T07:24:03Z</time>
      </trkpt>
      <trkpt lat="44.39228" lon="1.7616">
        <ele>323.861</ele>
        <time>2013-06-29T07:24:19Z</time>
      </trkpt>
      <trkpt lat="44.39229" lon="1.76133">
        <ele>323.644</ele>
        <time>2013-06-29T07:24:36Z</time>
      </trkpt>
      <trkpt lat="44.39226" lon="1.76104">
        <ele>325.431</ele>
        <time>2013-06-29T07:24:55Z</time>
      </trkpt>
      <trkpt lat="44.39225" lon="1.76075">
        <ele>326.448</ele>
        <time>2013-06-29T07:25:15Z</time>
      </trkpt>
      <trkpt lat="44.39223" lon="1.76046">
        <ele>327.501</ele>
        <time>2013-06-29T07:25:35Z</time>
      </trkpt>
      <trkpt lat="44.39221" lon="1.76016">
        <ele>327.73</ele>
        <time>2013-06-29T07:25:56Z</time>
      </trkpt>
      <trkpt lat="44.39217" lon="1.75991">
        <ele>328.396</ele>
        <time>2013-06-29T07:26:13Z</time>
      </trkpt>
      <trkpt lat="44.39215" lon="1.75967">
        <ele>328.009</ele>
        <time>2013-06-29T07:26:30Z</time>
      </trkpt>
      <trkpt lat="44.39212" lon="1.75936">
        <ele>327.39</ele>
        <time>2013-06-29T07:26:48Z</time>
      </trkpt>
      <trkpt lat="44.39204" lon="1.75906">
        <ele>326.546</ele>
        <time>2013-06-29T07:27:09Z</time>
      </trkpt>
      <trkpt lat="44.39193" lon="1.75875">
        <ele>325.356</ele>
        <time>2013-06-29T07:27:31Z</time>
      </trkpt>
      <trkpt lat="44.3918" lon="1.75853">
        <ele>324.782</ele>
        <time>2013-06-29T07:27:49Z</time>
      </trkpt>
      <trkpt lat="44.39165" lon="1.75824">
        <ele>325.398</ele>
        <time>2013-06-29T07:28:12Z</time>
      </trkpt>
      <trkpt lat="44.39147" lon="1.75802">
        <ele>328.699</ele>
        <time>2013-06-29T07:28:36Z</time>
      </trkpt>
      <trkpt lat="44.39132" lon="1.75785">
        <ele>329.523</ele>
        <time>2013-06-29T07:28:55Z</time>
      </trkpt>
      <trkpt lat="44.39128" lon="1.75782">
        <ele>329.485</ele>
        <time>2013-06-29T07:28:59Z</time>
      </trkpt>
      <trkpt lat="44.39125" lon="1.75779">
        <ele>329.489</ele>
        <time>2013-06-29T07:29:02Z</time>
      </trkpt>
      <trkpt lat="44.39109" lon="1.75754">
        <ele>329.849</ele>
        <time>2013-06-29T07:29:25Z</time>
      </trkpt>
      <trkpt lat="44.39092" lon="1.75727">
        <ele>329.889</ele>
        <time>2013-06-29T07:29:50Z</time>
      </trkpt>
      <trkpt lat="44.3908" lon="1.75701">
        <ele>328.185</ele>
        <time>2013-06-29T07:30:10Z</time>
      </trkpt>
      <trkpt lat="44.3907" lon="1.75676">
        <ele>326.095</ele>
        <time>2013-06-29T07:30:29Z</time>
      </trkpt>
      <trkpt lat="44.3906" lon="1.75651">
        <ele>324.724</ele>
        <time>2013-06-29T07:30:47Z</time>
      </trkpt>
      <trkpt lat="44.39054" lon="1.75639">
        <ele>324.718</ele>
        <time>2013-06-29T07:30:58Z</time>
      </trkpt>
      <trkpt lat="44.39043" lon="1.75615">
        <ele>323.122</ele>
        <time>2013-06-29T07:31:18Z</time>
      </trkpt>
      <trkpt lat="44.3903" lon="1.75587">
        <ele>320.49</ele>
        <time>2013-06-29T07:31:41Z</time>
      </trkpt>
      <trkpt lat="44.3902" lon="1.75561">
        <ele>319.25</ele>
        <time>2013-06-29T07:32:01Z</time>
      </trkpt>
      <trkpt lat="44.39006" lon="1.75529">
        <ele>316.159</ele>
        <time>2013-06-29T07:32:25Z</time>
      </trkpt>
      <trkpt lat="44.38995" lon="1.75504">
        <ele>316.522</ele>
        <time>2013-06-29T07:32:44Z</time>
      </trkpt>
      <trkpt lat="44.38985" lon="1.75476">
        <ele>316.239</ele>
        <time>2013-06-29T07:33:04Z</time>
      </trkpt>
      <trkpt lat="44.38973" lon="1.75451">
        <ele>315.187</ele>
        <time>2013-06-29T07:33:23Z</time>
      </trkpt>
      <trkpt lat="44.38962" lon="1.75433">
        <ele>314.793</ele>
        <time>2013-06-29T07:33:39Z</time>
      </trkpt>
      <trkpt lat="44.3895" lon="1.75408">
        <ele>313.562</ele>
        <time>2013-06-29T07:33:59Z</time>
      </trkpt>
      <trkpt lat="44.38937" lon="1.75385">
        <ele>312.956</ele>
        <time>2013-06-29T07:34:19Z</time>
      </trkpt>
      <trkpt lat="44.38924" lon="1.75355">
        <ele>311.351</ele>
        <time>2013-06-29T07:34:42Z</time>
      </trkpt>
      <trkpt lat="44.3891" lon="1.75332">
        <ele>309.935</ele>
        <time>2013-06-29T07:35:03Z</time>
      </trkpt>
      <trkpt lat="44.38896" lon="1.75305">
        <ele>308.098</ele>
        <time>2013-06-29T07:35:25Z</time>
      </trkpt>
      <trkpt lat="44.38883" lon="1.7527">
        <ele>305.632</ele>
        <time>2013-06-29T07:35:50Z</time>
      </trkpt>
      <trkpt lat="44.38873" lon="1.7524">
        <ele>302.977</ele>
        <time>2013-06-29T07:36:12Z</time>
      </trkpt>
      <trkpt lat="44.38864" lon="1.75208">
        <ele>301.283</ele>
        <time>2013-06-29T07:36:35Z</time>
      </trkpt>
      <trkpt lat="44.38857" lon="1.75176">
        <ele>298.727</ele>
        <time>2013-06-29T07:36:57Z</time>
      </trkpt>
      <trkpt lat="44.38849" lon="1.75145">
        <ele>296.952</ele>
        <time>2013-06-29T07:37:19Z</time>
      </trkpt>
      <trkpt lat="44.38845" lon="1.75133">
        <ele>296.111</ele>
        <time>2013-06-29T07:37:31Z</time>
      </trkpt>
      <trkpt lat="44.38836" lon="1.75101">
        <ele>293.39</ele>
        <time>2013-06-29T07:37:54Z</time>
      </trkpt>
      <trkpt lat="44.38825" lon="1.75064">
        <ele>291.808</ele>
        <time>2013-06-29T07:38:18Z</time>
      </trkpt>
      <trkpt lat="44.3881" lon="1.75032">
        <ele>291.047</ele>
        <time>2013-06-29T07:38:43Z</time>
      </trkpt>
      <trkpt lat="44.38789" lon="1.75012">
        <ele>290.409</ele>
        <time>2013-06-29T07:39:07Z</time>
      </trkpt>
      <trkpt lat="44.38766" lon="1.74999">
        <ele>288.456</ele>
        <time>2013-06-29T07:39:30Z</time>
      </trkpt>
      <trkpt lat="44.3874" lon="1.74977">
        <ele>287.148</ele>
        <time>2013-06-29T07:39:57Z</time>
      </trkpt>
      <trkpt lat="44.3872" lon="1.74952">
        <ele>286.432</ele>
        <time>2013-06-29T07:40:21Z</time>
      </trkpt>
      <trkpt lat="44.38709" lon="1.74924">
        <ele>283.858</ele>
        <time>2013-06-29T07:40:42Z</time>
      </trkpt>
      <trkpt lat="44.38697" lon="1.7489">
        <ele>281.878</ele>
        <time>2013-06-29T07:41:06Z</time>
      </trkpt>
      <trkpt lat="44.38697" lon="1.74858">
        <ele>279.112</ele>
        <time>2013-06-29T07:41:26Z</time>
      </trkpt>
      <trkpt lat="44.38705" lon="1.74828">
        <ele>277.379</ele>
        <time>2013-06-29T07:41:48Z</time>
      </trkpt>
      <trkpt lat="44.38707" lon="1.74801">
        <ele>276.674</ele>
        <time>2013-06-29T07:42:06Z</time>
      </trkpt>
      <trkpt lat="44.38697" lon="1.74773">
        <ele>276.802</ele>
        <time>2013-06-29T07:42:28Z</time>
      </trkpt>
      <trkpt lat="44.38688" lon="1.74759">
        <ele>277.368</ele>
        <time>2013-06-29T07:42:46Z</time>
      </trkpt>
      <trkpt lat="44.38676" lon="1.7473">
        <ele>278.139</ele>
        <time>2013-06-29T07:43:10Z</time>
      </trkpt>
      <trkpt lat="44.38665" lon="1.74706">
        <ele>278.963</ele>
        <time>2013-06-29T07:43:30Z</time>
      </trkpt>
      <trkpt lat="44.38654" lon="1.74678">
        <ele>279.295</ele>
        <time>2013-06-29T07:43:52Z</time>
      </trkpt>
      <trkpt lat="44.38641" lon="1.74652">
        <ele>279.117</ele>
        <time>2013-06-29T07:44:13Z</time>
      </trkpt>
      <trkpt lat="44.38632" lon="1.74622">
        <ele>277.87</ele>
        <time>2013-06-29T07:44:35Z</time>
      </trkpt>
      <trkpt lat="44.38631" lon="1.74616">
        <ele>277.527</ele>
        <time>2013-06-29T07:44:40Z</time>
      </trkpt>
      <trkpt lat="44.38635" lon="1.74569">
        <ele>276.594</ele>
        <time>2013-06-29T07:45:09Z</time>
      </trkpt>
      <trkpt lat="44.38632" lon="1.74521">
        <ele>277.88</ele>
        <time>2013-06-29T07:45:41Z</time>
      </trkpt>
      <trkpt lat="44.38618" lon="1.74484">
        <ele>280.587</ele>
        <time>2013-06-29T07:46:11Z</time>
      </trkpt>
      <trkpt lat="44.38604" lon="1.74454">
        <ele>281.914</ele>
        <time>2013-06-29T07:46:37Z</time>
      </trkpt>
      <trkpt lat="44.38596" lon="1.74419">
        <ele>284.143</ele>
        <time>2013-06-29T07:47:05Z</time>
      </trkpt>
      <trkpt lat="44.38591" lon="1.74394">
        <ele>285.288</ele>
        <time>2013-06-29T07:47:26Z</time>
      </trkpt>
      <trkpt lat="44.38584" lon="1.74369">
        <ele>286.054</ele>
        <time>2013-06-29T07:47:45Z</time>
      </trkpt>
      <trkpt lat="44.38578" lon="1.74339">
        <ele>287.375</ele>
        <time>2013-06-29T07:48:06Z</time>
      </trkpt>
      <trkpt lat="44.38568" lon="1.74305">
        <ele>288.478</ele>
        <time>2013-06-29T07:48:31Z</time>
      </trkpt>
      <trkpt lat="44.38565" lon="1.74296">
        <ele>289.55</ele>
        <time>2013-06-29T07:48:38Z</time>
      </trkpt>
      <trkpt lat="44.38558" lon="1.74269">
        <ele>290.818</ele>
        <time>2013-06-29T07:49:00Z</time>
      </trkpt>
      <trkpt lat="44.38549" lon="1.74238">
        <ele>292.543</ele>
        <time>2013-06-29T07:49:23Z</time>
      </trkpt>
      <trkpt lat="44.38541" lon="1.74221">
        <ele>294.365</ele>
        <time>2013-06-29T07:49:37Z</time>
      </trkpt>
      <trkpt lat="44.38527" lon="1.74206">
        <ele>295.612</ele>
        <time>2013-06-29T07:49:55Z</time>
      </trkpt>
      <trkpt lat="44.38509" lon="1.74192">
        <ele>295.806</ele>
        <time>2013-06-29T07:50:12Z</time>
      </trkpt>
      <trkpt lat="44.38488" lon="1.74172">
        <ele>297.215</ele>
        <time>2013-06-29T07:50:35Z</time>
      </trkpt>
      <trkpt lat="44.38468" lon="1.7415">
        <ele>298.475</ele>
        <time>2013-06-29T07:50:59Z</time>
      </trkpt>
      <trkpt lat="44.38454" lon="1.74131">
        <ele>298.179</ele>
        <time>2013-06-29T07:51:17Z</time>
      </trkpt>
      <trkpt lat="44.38435" lon="1.74101">
        <ele>298.824</ele>
        <time>2013-06-29T07:51:42Z</time>
      </trkpt>
      <trkpt lat="44.38417" lon="1.7406">
        <ele>298.053</ele>
        <time>2013-06-29T07:52:12Z</time>
      </trkpt>
      <trkpt lat="44.38407" lon="1.74026">
        <ele>297.121</ele>
        <time>2013-06-29T07:52:36Z</time>
      </trkpt>
      <trkpt lat="44.38398" lon="1.73993">
        <ele>296.177</ele>
        <time>2013-06-29T07:53:01Z</time>
      </trkpt>
      <trkpt lat="44.3839" lon="1.73964">
        <ele>294.234</ele>
        <time>2013-06-29T07:53:21Z</time>
      </trkpt>
      <trkpt lat="44.38379" lon="1.73931">
        <ele>293.169</ele>
        <time>2013-06-29T07:53:43Z</time>
      </trkpt>
      <trkpt lat="44.38366" lon="1.7389">
        <ele>292.529</ele>
        <time>2013-06-29T07:54:11Z</time>
      </trkpt>
      <trkpt lat="44.3836" lon="1.73872">
        <ele>292.912</ele>
        <time>2013-06-29T07:54:28Z</time>
      </trkpt>
      <trkpt lat="44.38353" lon="1.7385">
        <ele>292.346</ele>
        <time>2013-06-29T07:54:45Z</time>
      </trkpt>
      <trkpt lat="44.38345" lon="1.73818">
        <ele>292.021</ele>
        <time>2013-06-29T07:55:07Z</time>
      </trkpt>
      <trkpt lat="44.38334" lon="1.73785">
        <ele>291.653</ele>
        <time>2013-06-29T07:55:30Z</time>
      </trkpt>
      <trkpt lat="44.38324" lon="1.73749">
        <ele>290.672</ele>
        <time>2013-06-29T07:55:55Z</time>
      </trkpt>
      <trkpt lat="44.38316" lon="1.73727">
        <ele>289.504</ele>
        <time>2013-06-29T07:56:18Z</time>
      </trkpt>
      <trkpt lat="44.38313" lon="1.73726">
        <ele>289.769</ele>
        <time>2013-06-29T07:57:40Z</time>
      </trkpt>
      <trkpt lat="44.38309" lon="1.73724">
        <ele>289.777</ele>
        <time>2013-06-29T07:57:44Z</time>
      </trkpt>
      <trkpt lat="44.38284" lon="1.73707">
        <ele>287.44</ele>
        <time>2013-06-29T07:58:09Z</time>
      </trkpt>
      <trkpt lat="44.38257" lon="1.73694">
        <ele>286.73</ele>
        <time>2013-06-29T07:58:35Z</time>
      </trkpt>
      <trkpt lat="44.38231" lon="1.73692">
        <ele>283.542</ele>
        <time>2013-06-29T07:58:58Z</time>
      </trkpt>
      <trkpt lat="44.38202" lon="1.73696">
        <ele>280.749</ele>
        <time>2013-06-29T07:59:25Z</time>
      </trkpt>
      <trkpt lat="44.38176" lon="1.73703">
        <ele>278.389</ele>
        <time>2013-06-29T07:59:50Z</time>
      </trkpt>
      <trkpt lat="44.38155" lon="1.7371">
        <ele>277.544</ele>
        <time>2013-06-29T08:00:09Z</time>
      </trkpt>
      <trkpt lat="44.3813" lon="1.73716">
        <ele>276.53</ele>
        <time>2013-06-29T08:00:30Z</time>
      </trkpt>
      <trkpt lat="44.38108" lon="1.73715">
        <ele>274.633</ele>
        <time>2013-06-29T08:00:52Z</time>
      </trkpt>
      <trkpt lat="44.38106" lon="1.73709">
        <ele>273.357</ele>
        <time>2013-06-29T08:01:10Z</time>
      </trkpt>
      <trkpt lat="44.38106" lon="1.73707">
        <ele>273.581</ele>
        <time>2013-06-29T08:01:12Z</time>
      </trkpt>
      <trkpt lat="44.38103" lon="1.73696">
        <ele>273.228</ele>
        <time>2013-06-29T08:01:19Z</time>
      </trkpt>
      <trkpt lat="44.38098" lon="1.73672">
        <ele>274.458</ele>
        <time>2013-06-29T08:01:39Z</time>
      </trkpt>
      <trkpt lat="44.38089" lon="1.73656">
        <ele>275.929</ele>
        <time>2013-06-29T08:01:55Z</time>
      </trkpt>
      <trkpt lat="44.3808" lon="1.73638">
        <ele>277.03</ele>
        <time>2013-06-29T08:02:10Z</time>
      </trkpt>
      <trkpt lat="44.38078" lon="1.73626">
        <ele>276.9</ele>
        <time>2013-06-29T08:02:26Z</time>
      </trkpt>
      <trkpt lat="44.38077" lon="1.73627">
        <ele>277.202</ele>
        <time>2013-06-29T08:02:28Z</time>
      </trkpt>
      <trkpt lat="44.38067" lon="1.73604">
        <ele>277.337</ele>
        <time>2013-06-29T08:02:47Z</time>
      </trkpt>
      <trkpt lat="44.38059" lon="1.73586">
        <ele>277.874</ele>
        <time>2013-06-29T08:03:02Z</time>
      </trkpt>
      <trkpt lat="44.3805" lon="1.73571">
        <ele>278.548</ele>
        <time>2013-06-29T08:03:16Z</time>
      </trkpt>
      <trkpt lat="44.38041" lon="1.73553">
        <ele>279.215</ele>
        <time>2013-06-29T08:03:31Z</time>
      </trkpt>
      <trkpt lat="44.38033" lon="1.73537">
        <ele>279.943</ele>
        <time>2013-06-29T08:03:46Z</time>
      </trkpt>
      <trkpt lat="44.38023" lon="1.73515">
        <ele>280.694</ele>
        <time>2013-06-29T08:04:04Z</time>
      </trkpt>
      <trkpt lat="44.38014" lon="1.73493">
        <ele>281.643</ele>
        <time>2013-06-29T08:04:22Z</time>
      </trkpt>
      <trkpt lat="44.38008" lon="1.73471">
        <ele>282.476</ele>
        <time>2013-06-29T08:04:39Z</time>
      </trkpt>
      <trkpt lat="44.38005" lon="1.7345">
        <ele>283.555</ele>
        <time>2013-06-29T08:04:55Z</time>
      </trkpt>
      <trkpt lat="44.38" lon="1.7343">
        <ele>284.751</ele>
        <time>2013-06-29T08:05:11Z</time>
      </trkpt>
      <trkpt lat="44.37999" lon="1.73421">
        <ele>284.987</ele>
        <time>2013-06-29T08:05:17Z</time>
      </trkpt>
      <trkpt lat="44.37998" lon="1.73395">
        <ele>284.786</ele>
        <time>2013-06-29T08:05:34Z</time>
      </trkpt>
      <trkpt lat="44.37995" lon="1.7337">
        <ele>284.265</ele>
        <time>2013-06-29T08:05:51Z</time>
      </trkpt>
      <trkpt lat="44.37994" lon="1.73345">
        <ele>284.052</ele>
        <time>2013-06-29T08:06:07Z</time>
      </trkpt>
      <trkpt lat="44.37993" lon="1.73326">
        <ele>283.697</ele>
        <time>2013-06-29T08:06:21Z</time>
      </trkpt>
      <trkpt lat="44.37993" lon="1.73305">
        <ele>283.154</ele>
        <time>2013-06-29T08:06:36Z</time>
      </trkpt>
      <trkpt lat="44.37993" lon="1.73277">
        <ele>282.107</ele>
        <time>2013-06-29T08:06:53Z</time>
      </trkpt>
      <trkpt lat="44.37992" lon="1.73255">
        <ele>281.059</ele>
        <time>2013-06-29T08:07:08Z</time>
      </trkpt>
      <trkpt lat="44.37973" lon="1.73243">
        <ele>280.326</ele>
        <time>2013-06-29T08:07:28Z</time>
      </trkpt>
      <trkpt lat="44.37955" lon="1.73232">
        <ele>280.137</ele>
        <time>2013-06-29T08:07:48Z</time>
      </trkpt>
      <trkpt lat="44.37946" lon="1.73227">
        <ele>280.395</ele>
        <time>2013-06-29T08:07:57Z</time>
      </trkpt>
      <trkpt lat="44.37931" lon="1.73221">
        <ele>280.27</ele>
        <time>2013-06-29T08:08:12Z</time>
      </trkpt>
      <trkpt lat="44.37913" lon="1.7321">
        <ele>280.027</ele>
        <time>2013-06-29T08:08:29Z</time>
      </trkpt>
      <trkpt lat="44.37895" lon="1.73199">
        <ele>281.219</ele>
        <time>2013-06-29T08:08:47Z</time>
      </trkpt>
      <trkpt lat="44.37877" lon="1.73189">
        <ele>281.514</ele>
        <time>2013-06-29T08:09:05Z</time>
      </trkpt>
      <trkpt lat="44.37865" lon="1.73183">
        <ele>281.986</ele>
        <time>2013-06-29T08:09:18Z</time>
      </trkpt>
      <trkpt lat="44.37843" lon="1.73172">
        <ele>282.329</ele>
        <time>2013-06-29T08:09:38Z</time>
      </trkpt>
      <trkpt lat="44.37825" lon="1.73164">
        <ele>282.557</ele>
        <time>2013-06-29T08:09:55Z</time>
      </trkpt>
      <trkpt lat="44.37821" lon="1.73163">
        <ele>282.557</ele>
        <time>2013-06-29T08:09:58Z</time>
      </trkpt>
      <trkpt lat="44.37806" lon="1.7316">
        <ele>282.788</ele>
        <time>2013-06-29T08:10:11Z</time>
      </trkpt>
      <trkpt lat="44.37787" lon="1.73153">
        <ele>282.433</ele>
        <time>2013-06-29T08:10:31Z</time>
      </trkpt>
      <trkpt lat="44.37779" lon="1.73141">
        <ele>282.575</ele>
        <time>2013-06-29T08:10:42Z</time>
      </trkpt>
      <trkpt lat="44.37767" lon="1.73111">
        <ele>282.918</ele>
        <time>2013-06-29T08:11:05Z</time>
      </trkpt>
      <trkpt lat="44.37755" lon="1.73089">
        <ele>283.866</ele>
        <time>2013-06-29T08:11:27Z</time>
      </trkpt>
      <trkpt lat="44.37753" lon="1.73092">
        <ele>283.89</ele>
        <time>2013-06-29T08:11:43Z</time>
      </trkpt>
      <trkpt lat="44.37751" lon="1.73079">
        <ele>283.97</ele>
        <time>2013-06-29T08:12:17Z</time>
      </trkpt>
      <trkpt lat="44.37739" lon="1.73065">
        <ele>284.78</ele>
        <time>2013-06-29T08:12:33Z</time>
      </trkpt>
      <trkpt lat="44.37721" lon="1.73048">
        <ele>285.857</ele>
        <time>2013-06-29T08:12:54Z</time>
      </trkpt>
      <trkpt lat="44.37706" lon="1.73031">
        <ele>286.397</ele>
        <time>2013-06-29T08:13:11Z</time>
      </trkpt>
      <trkpt lat="44.37696" lon="1.73009">
        <ele>286.448</ele>
        <time>2013-06-29T08:13:28Z</time>
      </trkpt>
      <trkpt lat="44.37685" lon="1.72988">
        <ele>286.539</ele>
        <time>2013-06-29T08:13:47Z</time>
      </trkpt>
      <trkpt lat="44.37696" lon="1.72973">
        <ele>286.218</ele>
        <time>2013-06-29T08:14:04Z</time>
      </trkpt>
      <trkpt lat="44.37706" lon="1.72967">
        <ele>285.844</ele>
        <time>2013-06-29T08:14:13Z</time>
      </trkpt>
      <trkpt lat="44.3773" lon="1.72953">
        <ele>285.362</ele>
        <time>2013-06-29T08:14:35Z</time>
      </trkpt>
      <trkpt lat="44.37755" lon="1.72937">
        <ele>284.903</ele>
        <time>2013-06-29T08:14:58Z</time>
      </trkpt>
      <trkpt lat="44.37786" lon="1.7292">
        <ele>283.554</ele>
        <time>2013-06-29T08:15:28Z</time>
      </trkpt>
      <trkpt lat="44.37816" lon="1.72906">
        <ele>282.368</ele>
        <time>2013-06-29T08:15:59Z</time>
      </trkpt>
      <trkpt lat="44.37843" lon="1.72894">
        <ele>280.368</ele>
        <time>2013-06-29T08:16:24Z</time>
      </trkpt>
      <trkpt lat="44.37873" lon="1.72885">
        <ele>279.575</ele>
        <time>2013-06-29T08:16:51Z</time>
      </trkpt>
      <trkpt lat="44.37905" lon="1.72876">
        <ele>279.3</ele>
        <time>2013-06-29T08:17:19Z</time>
      </trkpt>
      <trkpt lat="44.37939" lon="1.7287">
        <ele>279.235</ele>
        <time>2013-06-29T08:17:49Z</time>
      </trkpt>
      <trkpt lat="44.37973" lon="1.72864">
        <ele>280.882</ele>
        <time>2013-06-29T08:18:20Z</time>
      </trkpt>
      <trkpt lat="44.38001" lon="1.72862">
        <ele>281.262</ele>
        <time>2013-06-29T08:18:47Z</time>
      </trkpt>
      <trkpt lat="44.38001" lon="1.72861">
        <ele>281.593</ele>
        <time>2013-06-29T08:18:48Z</time>
      </trkpt>
      <trkpt lat="44.38001" lon="1.72854">
        <ele>281.622</ele>
        <time>2013-06-29T08:18:54Z</time>
      </trkpt>
      <trkpt lat="44.37993" lon="1.72823">
        <ele>281.923</ele>
        <time>2013-06-29T08:19:17Z</time>
      </trkpt>
      <trkpt lat="44.37985" lon="1.72786">
        <ele>282.202</ele>
        <time>2013-06-29T08:19:42Z</time>
      </trkpt>
      <trkpt lat="44.37979" lon="1.72758">
        <ele>283.687</ele>
        <time>2013-06-29T08:20:02Z</time>
      </trkpt>
      <trkpt lat="44.37975" lon="1.72741">
        <ele>284.446</ele>
        <time>2013-06-29T08:20:16Z</time>
      </trkpt>
      <trkpt lat="44.37971" lon="1.7272">
        <ele>285.148</ele>
        <time>2013-06-29T08:20:31Z</time>
      </trkpt>
      <trkpt lat="44.37962" lon="1.72699">
        <ele>286.178</ele>
        <time>2013-06-29T08:20:47Z</time>
      </trkpt>
      <trkpt lat="44.37953" lon="1.72679">
        <ele>286.629</ele>
        <time>2013-06-29T08:21:04Z</time>
      </trkpt>
      <trkpt lat="44.37945" lon="1.72651">
        <ele>286.804</ele>
        <time>2013-06-29T08:21:23Z</time>
      </trkpt>
      <trkpt lat="44.37937" lon="1.72627">
        <ele>287.987</ele>
        <time>2013-06-29T08:21:41Z</time>
      </trkpt>
      <trkpt lat="44.37925" lon="1.72599">
        <ele>289.086</ele>
        <time>2013-06-29T08:22:04Z</time>
      </trkpt>
      <trkpt lat="44.3792" lon="1.72592">
        <ele>288.774</ele>
        <time>2013-06-29T08:22:17Z</time>
      </trkpt>
      <trkpt lat="44.37914" lon="1.72576">
        <ele>288.857</ele>
        <time>2013-06-29T08:22:32Z</time>
      </trkpt>
      <trkpt lat="44.37905" lon="1.72545">
        <ele>288.008</ele>
        <time>2013-06-29T08:22:54Z</time>
      </trkpt>
      <trkpt lat="44.37894" lon="1.72519">
        <ele>286.346</ele>
        <time>2013-06-29T08:23:14Z</time>
      </trkpt>
      <trkpt lat="44.37885" lon="1.72491">
        <ele>285.365</ele>
        <time>2013-06-29T08:23:35Z</time>
      </trkpt>
      <trkpt lat="44.3788" lon="1.72473">
        <ele>283.139</ele>
        <time>2013-06-29T08:23:50Z</time>
      </trkpt>
      <trkpt lat="44.37883" lon="1.72444">
        <ele>281.385</ele>
        <time>2013-06-29T08:24:08Z</time>
      </trkpt>
      <trkpt lat="44.37888" lon="1.72412">
        <ele>280.712</ele>
        <time>2013-06-29T08:24:28Z</time>
      </trkpt>
      <trkpt lat="44.37893" lon="1.72375">
        <ele>278.85</ele>
        <time>2013-06-29T08:24:52Z</time>
      </trkpt>
      <trkpt lat="44.37898" lon="1.72338">
        <ele>276.717</ele>
        <time>2013-06-29T08:25:18Z</time>
      </trkpt>
      <trkpt lat="44.37903" lon="1.72309">
        <ele>275.982</ele>
        <time>2013-06-29T08:25:38Z</time>
      </trkpt>
      <trkpt lat="44.37908" lon="1.72278">
        <ele>274.308</ele>
        <time>2013-06-29T08:25:59Z</time>
      </trkpt>
      <trkpt lat="44.37915" lon="1.72251">
        <ele>272.923</ele>
        <time>2013-06-29T08:26:19Z</time>
      </trkpt>
      <trkpt lat="44.37918" lon="1.72224">
        <ele>271.737</ele>
        <time>2013-06-29T08:26:38Z</time>
      </trkpt>
      <trkpt lat="44.37922" lon="1.72201">
        <ele>270.6</ele>
        <time>2013-06-29T08:26:53Z</time>
      </trkpt>
      <trkpt lat="44.37923" lon="1.722">
        <ele>270.141</ele>
        <time>2013-06-29T08:27:12Z</time>
      </trkpt>
      <trkpt lat="44.37924" lon="1.72202">
        <ele>270.336</ele>
        <time>2013-06-29T08:27:34Z</time>
      </trkpt>
      <trkpt lat="44.37924" lon="1.72197">
        <ele>270.293</ele>
        <time>2013-06-29T08:28:21Z</time>
      </trkpt>
      <trkpt lat="44.37931" lon="1.72181">
        <ele>269.476</ele>
        <time>2013-06-29T08:28:56Z</time>
      </trkpt>
      <trkpt lat="44.37942" lon="1.72163">
        <ele>268.658</ele>
        <time>2013-06-29T08:29:20Z</time>
      </trkpt>
      <trkpt lat="44.37952" lon="1.72147">
        <ele>268.382</ele>
        <time>2013-06-29T08:29:38Z</time>
      </trkpt>
      <trkpt lat="44.37968" lon="1.72116">
        <ele>269.02</ele>
        <time>2013-06-29T08:30:03Z</time>
      </trkpt>
      <trkpt lat="44.37979" lon="1.72082">
        <ele>268.458</ele>
        <time>2013-06-29T08:30:29Z</time>
      </trkpt>
      <trkpt lat="44.37978" lon="1.7206">
        <ele>267.08</ele>
        <time>2013-06-29T08:30:45Z</time>
      </trkpt>
      <trkpt lat="44.37978" lon="1.72044">
        <ele>267.148</ele>
        <time>2013-06-29T08:30:55Z</time>
      </trkpt>
      <trkpt lat="44.37974" lon="1.72011">
        <ele>265.908</ele>
        <time>2013-06-29T08:31:18Z</time>
      </trkpt>
      <trkpt lat="44.37975" lon="1.71981">
        <ele>265.076</ele>
        <time>2013-06-29T08:31:38Z</time>
      </trkpt>
      <trkpt lat="44.37975" lon="1.71977">
        <ele>265.463</ele>
        <time>2013-06-29T08:31:40Z</time>
      </trkpt>
      <trkpt lat="44.37981" lon="1.71941">
        <ele>265.252</ele>
        <time>2013-06-29T08:32:04Z</time>
      </trkpt>
      <trkpt lat="44.37983" lon="1.71931">
        <ele>265.455</ele>
        <time>2013-06-29T08:32:23Z</time>
      </trkpt>
      <trkpt lat="44.37985" lon="1.71925">
        <ele>265.404</ele>
        <time>2013-06-29T08:32:39Z</time>
      </trkpt>
      <trkpt lat="44.37988" lon="1.71923">
        <ele>265.295</ele>
        <time>2013-06-29T08:32:58Z</time>
      </trkpt>
      <trkpt lat="44.37988" lon="1.71926">
        <ele>264.459</ele>
        <time>2013-06-29T08:33:10Z</time>
      </trkpt>
      <trkpt lat="44.37987" lon="1.71929">
        <ele>265.14</ele>
        <time>2013-06-29T08:33:36Z</time>
      </trkpt>
      <trkpt lat="44.37988" lon="1.71928">
        <ele>264.07</ele>
        <time>2013-06-29T08:34:29Z</time>
      </trkpt>
      <trkpt lat="44.37991" lon="1.71923">
        <ele>264.826</ele>
        <time>2013-06-29T08:37:33Z</time>
      </trkpt>
      <trkpt lat="44.37989" lon="1.71928">
        <ele>265.097</ele>
        <time>2013-06-29T08:38:18Z</time>
      </trkpt>
      <trkpt lat="44.37989" lon="1.71928">
        <ele>265.538</ele>
        <time>2013-06-29T08:39:46Z</time>
      </trkpt>
      <trkpt lat="44.37989" lon="1.71927">
        <ele>265.457</ele>
        <time>2013-06-29T08:40:26Z</time>
      </trkpt>
      <trkpt lat="44.37989" lon="1.71926">
        <ele>266.46</ele>
        <time>2013-06-29T08:42:10Z</time>
      </trkpt>
      <trkpt lat="44.3799" lon="1.71926">
        <ele>266.52</ele>
        <time>2013-06-29T08:42:21Z</time>
      </trkpt>
      <trkpt lat="44.37992" lon="1.71926">
        <ele>266.627</ele>
        <time>2013-06-29T08:42:48Z</time>
      </trkpt>
      <trkpt lat="44.3799" lon="1.71923">
        <ele>266.761</ele>
        <time>2013-06-29T08:42:54Z</time>
      </trkpt>
      <trkpt lat="44.37999" lon="1.71887">
        <ele>266.323</ele>
        <time>2013-06-29T08:43:17Z</time>
      </trkpt>
      <trkpt lat="44.3801" lon="1.71839">
        <ele>266.107</ele>
        <time>2013-06-29T08:43:48Z</time>
      </trkpt>
      <trkpt lat="44.38009" lon="1.718">
        <ele>265.879</ele>
        <time>2013-06-29T08:44:14Z</time>
      </trkpt>
      <trkpt lat="44.38002" lon="1.71766">
        <ele>267.046</ele>
        <time>2013-06-29T08:44:41Z</time>
      </trkpt>
      <trkpt lat="44.37999" lon="1.71749">
        <ele>268.602</ele>
        <time>2013-06-29T08:44:57Z</time>
      </trkpt>
      <trkpt lat="44.37994" lon="1.71725">
        <ele>271.739</ele>
        <time>2013-06-29T08:45:18Z</time>
      </trkpt>
      <trkpt lat="44.37986" lon="1.71696">
        <ele>273.549</ele>
        <time>2013-06-29T08:45:40Z</time>
      </trkpt>
      <trkpt lat="44.37976" lon="1.71672">
        <ele>274.237</ele>
        <time>2013-06-29T08:45:59Z</time>
      </trkpt>
      <trkpt lat="44.37966" lon="1.71648">
        <ele>274.595</ele>
        <time>2013-06-29T08:46:19Z</time>
      </trkpt>
      <trkpt lat="44.37959" lon="1.71635">
        <ele>274.639</ele>
        <time>2013-06-29T08:46:29Z</time>
      </trkpt>
      <trkpt lat="44.37951" lon="1.71603">
        <ele>274.98</ele>
        <time>2013-06-29T08:46:50Z</time>
      </trkpt>
      <trkpt lat="44.37945" lon="1.71577">
        <ele>276.046</ele>
        <time>2013-06-29T08:47:09Z</time>
      </trkpt>
      <trkpt lat="44.37937" lon="1.71547">
        <ele>276.343</ele>
        <time>2013-06-29T08:47:31Z</time>
      </trkpt>
      <trkpt lat="44.37935" lon="1.71546">
        <ele>276.078</ele>
        <time>2013-06-29T08:47:33Z</time>
      </trkpt>
      <trkpt lat="44.37917" lon="1.71554">
        <ele>276.5</ele>
        <time>2013-06-29T08:47:55Z</time>
      </trkpt>
      <trkpt lat="44.37905" lon="1.71563">
        <ele>277.26</ele>
        <time>2013-06-29T08:48:13Z</time>
      </trkpt>
      <trkpt lat="44.37888" lon="1.71575">
        <ele>279.173</ele>
        <time>2013-06-29T08:48:33Z</time>
      </trkpt>
      <trkpt lat="44.3787" lon="1.71586">
        <ele>279.673</ele>
        <time>2013-06-29T08:48:53Z</time>
      </trkpt>
      <trkpt lat="44.37854" lon="1.71594">
        <ele>280.456</ele>
        <time>2013-06-29T08:49:10Z</time>
      </trkpt>
      <trkpt lat="44.37836" lon="1.71603">
        <ele>281.016</ele>
        <time>2013-06-29T08:49:28Z</time>
      </trkpt>
      <trkpt lat="44.37823" lon="1.71615">
        <ele>281.777</ele>
        <time>2013-06-29T08:49:45Z</time>
      </trkpt>
      <trkpt lat="44.37808" lon="1.71621">
        <ele>282.092</ele>
        <time>2013-06-29T08:49:59Z</time>
      </trkpt>
      <trkpt lat="44.37786" lon="1.71632">
        <ele>282.054</ele>
        <time>2013-06-29T08:50:19Z</time>
      </trkpt>
      <trkpt lat="44.37768" lon="1.71643">
        <ele>282.604</ele>
        <time>2013-06-29T08:50:37Z</time>
      </trkpt>
      <trkpt lat="44.37744" lon="1.71656">
        <ele>282.823</ele>
        <time>2013-06-29T08:50:59Z</time>
      </trkpt>
      <trkpt lat="44.37721" lon="1.71666">
        <ele>282.541</ele>
        <time>2013-06-29T08:51:22Z</time>
      </trkpt>
      <trkpt lat="44.37701" lon="1.71677">
        <ele>282.541</ele>
        <time>2013-06-29T08:51:41Z</time>
      </trkpt>
      <trkpt lat="44.37684" lon="1.71687">
        <ele>282.436</ele>
        <time>2013-06-29T08:51:58Z</time>
      </trkpt>
      <trkpt lat="44.37665" lon="1.71697">
        <ele>283.251</ele>
        <time>2013-06-29T08:52:17Z</time>
      </trkpt>
      <trkpt lat="44.37652" lon="1.71703">
        <ele>283.541</ele>
        <time>2013-06-29T08:52:32Z</time>
      </trkpt>
      <trkpt lat="44.37635" lon="1.7171">
        <ele>283.987</ele>
        <time>2013-06-29T08:52:48Z</time>
      </trkpt>
      <trkpt lat="44.37621" lon="1.71715">
        <ele>284.844</ele>
        <time>2013-06-29T08:53:03Z</time>
      </trkpt>
      <trkpt lat="44.37604" lon="1.71723">
        <ele>284.947</ele>
        <time>2013-06-29T08:53:20Z</time>
      </trkpt>
      <trkpt lat="44.37588" lon="1.71731">
        <ele>284.635</ele>
        <time>2013-06-29T08:53:36Z</time>
      </trkpt>
      <trkpt lat="44.37574" lon="1.71741">
        <ele>285.011</ele>
        <time>2013-06-29T08:53:51Z</time>
      </trkpt>
      <trkpt lat="44.37559" lon="1.71752">
        <ele>284.842</ele>
        <time>2013-06-29T08:54:07Z</time>
      </trkpt>
      <trkpt lat="44.37547" lon="1.71764">
        <ele>284.796</ele>
        <time>2013-06-29T08:54:24Z</time>
      </trkpt>
      <trkpt lat="44.37533" lon="1.71771">
        <ele>285.255</ele>
        <time>2013-06-29T08:54:36Z</time>
      </trkpt>
      <trkpt lat="44.37511" lon="1.7178">
        <ele>285.247</ele>
        <time>2013-06-29T08:54:53Z</time>
      </trkpt>
      <trkpt lat="44.37493" lon="1.71788">
        <ele>286.671</ele>
        <time>2013-06-29T08:55:09Z</time>
      </trkpt>
      <trkpt lat="44.3747" lon="1.71798">
        <ele>285.852</ele>
        <time>2013-06-29T08:55:29Z</time>
      </trkpt>
      <trkpt lat="44.37445" lon="1.7181">
        <ele>285.301</ele>
        <time>2013-06-29T08:55:51Z</time>
      </trkpt>
      <trkpt lat="44.37422" lon="1.71824">
        <ele>285.266</ele>
        <time>2013-06-29T08:56:14Z</time>
      </trkpt>
      <trkpt lat="44.37409" lon="1.7183">
        <ele>285.819</ele>
        <time>2013-06-29T08:56:30Z</time>
      </trkpt>
      <trkpt lat="44.37388" lon="1.71839">
        <ele>287.838</ele>
        <time>2013-06-29T08:56:51Z</time>
      </trkpt>
      <trkpt lat="44.37371" lon="1.71851">
        <ele>288.864</ele>
        <time>2013-06-29T08:57:10Z</time>
      </trkpt>
      <trkpt lat="44.37362" lon="1.71864">
        <ele>289.385</ele>
        <time>2013-06-29T08:57:26Z</time>
      </trkpt>
      <trkpt lat="44.37346" lon="1.7188">
        <ele>290.393</ele>
        <time>2013-06-29T08:57:43Z</time>
      </trkpt>
      <trkpt lat="44.37329" lon="1.71898">
        <ele>291.242</ele>
        <time>2013-06-29T08:58:02Z</time>
      </trkpt>
      <trkpt lat="44.37307" lon="1.71914">
        <ele>291.943</ele>
        <time>2013-06-29T08:58:21Z</time>
      </trkpt>
      <trkpt lat="44.37288" lon="1.71934">
        <ele>292.563</ele>
        <time>2013-06-29T08:58:41Z</time>
      </trkpt>
      <trkpt lat="44.37272" lon="1.71955">
        <ele>293.455</ele>
        <time>2013-06-29T08:59:01Z</time>
      </trkpt>
      <trkpt lat="44.37255" lon="1.71976">
        <ele>293.338</ele>
        <time>2013-06-29T08:59:22Z</time>
      </trkpt>
      <trkpt lat="44.37237" lon="1.71995">
        <ele>294.208</ele>
        <time>2013-06-29T08:59:42Z</time>
      </trkpt>
      <trkpt lat="44.37218" lon="1.72015">
        <ele>294.967</ele>
        <time>2013-06-29T09:00:04Z</time>
      </trkpt>
      <trkpt lat="44.37201" lon="1.72027">
        <ele>295.562</ele>
        <time>2013-06-29T09:00:21Z</time>
      </trkpt>
      <trkpt lat="44.37194" lon="1.72032">
        <ele>296.014</ele>
        <time>2013-06-29T09:00:31Z</time>
      </trkpt>
      <trkpt lat="44.37169" lon="1.72048">
        <ele>296.186</ele>
        <time>2013-06-29T09:00:55Z</time>
      </trkpt>
      <trkpt lat="44.37139" lon="1.7206">
        <ele>297.127</ele>
        <time>2013-06-29T09:01:22Z</time>
      </trkpt>
      <trkpt lat="44.37114" lon="1.72065">
        <ele>298.167</ele>
        <time>2013-06-29T09:01:46Z</time>
      </trkpt>
      <trkpt lat="44.37087" lon="1.72072">
        <ele>296.897</ele>
        <time>2013-06-29T09:02:13Z</time>
      </trkpt>
      <trkpt lat="44.37081" lon="1.72071">
        <ele>297.323</ele>
        <time>2013-06-29T09:02:35Z</time>
      </trkpt>
      <trkpt lat="44.37067" lon="1.72077">
        <ele>296.886</ele>
        <time>2013-06-29T09:03:02Z</time>
      </trkpt>
      <trkpt lat="44.37039" lon="1.72099">
        <ele>296.581</ele>
        <time>2013-06-29T09:03:32Z</time>
      </trkpt>
      <trkpt lat="44.37026" lon="1.72109">
        <ele>297.309</ele>
        <time>2013-06-29T09:03:50Z</time>
      </trkpt>
      <trkpt lat="44.37011" lon="1.7212">
        <ele>297.18</ele>
        <time>2013-06-29T09:04:07Z</time>
      </trkpt>
      <trkpt lat="44.37001" lon="1.72128">
        <ele>297.493</ele>
        <time>2013-06-29T09:04:21Z</time>
      </trkpt>
      <trkpt lat="44.36976" lon="1.72146">
        <ele>297.652</ele>
        <time>2013-06-29T09:04:47Z</time>
      </trkpt>
      <trkpt lat="44.36959" lon="1.7216">
        <ele>297.748</ele>
        <time>2013-06-29T09:05:06Z</time>
      </trkpt>
      <trkpt lat="44.3694" lon="1.7217">
        <ele>298.717</ele>
        <time>2013-06-29T09:05:25Z</time>
      </trkpt>
      <trkpt lat="44.36911" lon="1.72185">
        <ele>299.263</ele>
        <time>2013-06-29T09:05:51Z</time>
      </trkpt>
      <trkpt lat="44.36888" lon="1.72196">
        <ele>299.447</ele>
        <time>2013-06-29T09:06:14Z</time>
      </trkpt>
      <trkpt lat="44.36871" lon="1.72209">
        <ele>299.807</ele>
        <time>2013-06-29T09:06:33Z</time>
      </trkpt>
      <trkpt lat="44.36843" lon="1.7223">
        <ele>300.533</ele>
        <time>2013-06-29T09:07:00Z</time>
      </trkpt>
      <trkpt lat="44.36835" lon="1.72237">
        <ele>300.996</ele>
        <time>2013-06-29T09:07:09Z</time>
      </trkpt>
      <trkpt lat="44.3683" lon="1.7224">
        <ele>300.602</ele>
        <time>2013-06-29T09:07:13Z</time>
      </trkpt>
      <trkpt lat="44.36808" lon="1.72254">
        <ele>300.762</ele>
        <time>2013-06-29T09:07:35Z</time>
      </trkpt>
      <trkpt lat="44.36789" lon="1.72265">
        <ele>301.027</ele>
        <time>2013-06-29T09:07:54Z</time>
      </trkpt>
      <trkpt lat="44.36766" lon="1.72278">
        <ele>301.536</ele>
        <time>2013-06-29T09:08:17Z</time>
      </trkpt>
      <trkpt lat="44.36744" lon="1.72292">
        <ele>302.308</ele>
        <time>2013-06-29T09:08:40Z</time>
      </trkpt>
      <trkpt lat="44.36725" lon="1.72304">
        <ele>302.549</ele>
        <time>2013-06-29T09:09:01Z</time>
      </trkpt>
      <trkpt lat="44.36701" lon="1.72319">
        <ele>302.597</ele>
        <time>2013-06-29T09:09:23Z</time>
      </trkpt>
      <trkpt lat="44.3668" lon="1.72332">
        <ele>302.684</ele>
        <time>2013-06-29T09:09:44Z</time>
      </trkpt>
      <trkpt lat="44.36661" lon="1.72346">
        <ele>302.5</ele>
        <time>2013-06-29T09:10:04Z</time>
      </trkpt>
      <trkpt lat="44.3664" lon="1.72353">
        <ele>302.291</ele>
        <time>2013-06-29T09:10:24Z</time>
      </trkpt>
      <trkpt lat="44.36617" lon="1.7235">
        <ele>302.666</ele>
        <time>2013-06-29T09:10:46Z</time>
      </trkpt>
      <trkpt lat="44.36594" lon="1.72342">
        <ele>303.202</ele>
        <time>2013-06-29T09:11:08Z</time>
      </trkpt>
      <trkpt lat="44.36573" lon="1.72332">
        <ele>302.961</ele>
        <time>2013-06-29T09:11:29Z</time>
      </trkpt>
      <trkpt lat="44.3656" lon="1.72323">
        <ele>303.392</ele>
        <time>2013-06-29T09:11:48Z</time>
      </trkpt>
      <trkpt lat="44.36556" lon="1.72322">
        <ele>303.597</ele>
        <time>2013-06-29T09:11:56Z</time>
      </trkpt>
      <trkpt lat="44.36539" lon="1.72315">
        <ele>303.375</ele>
        <time>2013-06-29T09:12:13Z</time>
      </trkpt>
      <trkpt lat="44.36512" lon="1.72303">
        <ele>303.711</ele>
        <time>2013-06-29T09:12:38Z</time>
      </trkpt>
      <trkpt lat="44.36478" lon="1.72285">
        <ele>303.495</ele>
        <time>2013-06-29T09:13:11Z</time>
      </trkpt>
      <trkpt lat="44.36444" lon="1.72266">
        <ele>302.98</ele>
        <time>2013-06-29T09:13:43Z</time>
      </trkpt>
      <trkpt lat="44.36411" lon="1.72239">
        <ele>302.373</ele>
        <time>2013-06-29T09:14:17Z</time>
      </trkpt>
      <trkpt lat="44.36402" lon="1.72234">
        <ele>302.145</ele>
        <time>2013-06-29T09:14:26Z</time>
      </trkpt>
      <trkpt lat="44.36383" lon="1.72239">
        <ele>302.407</ele>
        <time>2013-06-29T09:14:46Z</time>
      </trkpt>
      <trkpt lat="44.36363" lon="1.72264">
        <ele>303.496</ele>
        <time>2013-06-29T09:15:14Z</time>
      </trkpt>
      <trkpt lat="44.36346" lon="1.72272">
        <ele>303.89</ele>
        <time>2013-06-29T09:15:32Z</time>
      </trkpt>
      <trkpt lat="44.36323" lon="1.72278">
        <ele>306.257</ele>
        <time>2013-06-29T09:15:55Z</time>
      </trkpt>
      <trkpt lat="44.36317" lon="1.72278">
        <ele>306.415</ele>
        <time>2013-06-29T09:16:13Z</time>
      </trkpt>
      <trkpt lat="44.36318" lon="1.72274">
        <ele>307.024</ele>
        <time>2013-06-29T09:18:05Z</time>
      </trkpt>
      <trkpt lat="44.36326" lon="1.72268">
        <ele>306.136</ele>
        <time>2013-06-29T09:18:25Z</time>
      </trkpt>
      <trkpt lat="44.36327" lon="1.72269">
        <ele>306.698</ele>
        <time>2013-06-29T09:19:35Z</time>
      </trkpt>
      <trkpt lat="44.36327" lon="1.72272">
        <ele>307.332</ele>
        <time>2013-06-29T09:19:56Z</time>
      </trkpt>
      <trkpt lat="44.36323" lon="1.72279">
        <ele>307.003</ele>
        <time>2013-06-29T09:20:12Z</time>
      </trkpt>
      <trkpt lat="44.36297" lon="1.72278">
        <ele>308.313</ele>
        <time>2013-06-29T09:20:39Z</time>
      </trkpt>
      <trkpt lat="44.36271" lon="1.72273">
        <ele>308.876</ele>
        <time>2013-06-29T09:21:05Z</time>
      </trkpt>
      <trkpt lat="44.36244" lon="1.72265">
        <ele>310.165</ele>
        <time>2013-06-29T09:21:31Z</time>
      </trkpt>
      <trkpt lat="44.36211" lon="1.72258">
        <ele>312.673</ele>
        <time>2013-06-29T09:22:02Z</time>
      </trkpt>
      <trkpt lat="44.36181" lon="1.7226">
        <ele>314.767</ele>
        <time>2013-06-29T09:22:30Z</time>
      </trkpt>
      <trkpt lat="44.36157" lon="1.72264">
        <ele>315.268</ele>
        <time>2013-06-29T09:22:54Z</time>
      </trkpt>
      <trkpt lat="44.36138" lon="1.72269">
        <ele>315.926</ele>
        <time>2013-06-29T09:23:14Z</time>
      </trkpt>
      <trkpt lat="44.36107" lon="1.72273">
        <ele>316.576</ele>
        <time>2013-06-29T09:23:41Z</time>
      </trkpt>
      <trkpt lat="44.36086" lon="1.72261">
        <ele>318.285</ele>
        <time>2013-06-29T09:24:03Z</time>
      </trkpt>
      <trkpt lat="44.36087" lon="1.72239">
        <ele>319.557</ele>
        <time>2013-06-29T09:24:24Z</time>
      </trkpt>
      <trkpt lat="44.36087" lon="1.72234">
        <ele>319.52</ele>
        <time>2013-06-29T09:24:39Z</time>
      </trkpt>
      <trkpt lat="44.3609" lon="1.72217">
        <ele>320.618</ele>
        <time>2013-06-29T09:25:07Z</time>
      </trkpt>
      <trkpt lat="44.36092" lon="1.72177">
        <ele>323.03</ele>
        <time>2013-06-29T09:25:35Z</time>
      </trkpt>
      <trkpt lat="44.36094" lon="1.72138">
        <ele>323.641</ele>
        <time>2013-06-29T09:26:01Z</time>
      </trkpt>
      <trkpt lat="44.36096" lon="1.72103">
        <ele>324.086</ele>
        <time>2013-06-29T09:26:25Z</time>
      </trkpt>
      <trkpt lat="44.36096" lon="1.72085">
        <ele>322.95</ele>
        <time>2013-06-29T09:26:38Z</time>
      </trkpt>
      <trkpt lat="44.36094" lon="1.72057">
        <ele>321.536</ele>
        <time>2013-06-29T09:27:00Z</time>
      </trkpt>
      <trkpt lat="44.36093" lon="1.72052">
        <ele>321.705</ele>
        <time>2013-06-29T09:27:03Z</time>
      </trkpt>
      <trkpt lat="44.36074" lon="1.72016">
        <ele>319.598</ele>
        <time>2013-06-29T09:27:31Z</time>
      </trkpt>
      <trkpt lat="44.36052" lon="1.7199">
        <ele>319.126</ele>
        <time>2013-06-29T09:27:58Z</time>
      </trkpt>
      <trkpt lat="44.36033" lon="1.71961">
        <ele>319.351</ele>
        <time>2013-06-29T09:28:22Z</time>
      </trkpt>
      <trkpt lat="44.36019" lon="1.71917">
        <ele>320.233</ele>
        <time>2013-06-29T09:28:52Z</time>
      </trkpt>
      <trkpt lat="44.36018" lon="1.71881">
        <ele>321.785</ele>
        <time>2013-06-29T09:29:16Z</time>
      </trkpt>
      <trkpt lat="44.36022" lon="1.71849">
        <ele>323.271</ele>
        <time>2013-06-29T09:29:41Z</time>
      </trkpt>
      <trkpt lat="44.36026" lon="1.71844">
        <ele>323.113</ele>
        <time>2013-06-29T09:29:55Z</time>
      </trkpt>
      <trkpt lat="44.36026" lon="1.71844">
        <ele>323.009</ele>
        <time>2013-06-29T09:30:11Z</time>
      </trkpt>
      <trkpt lat="44.36031" lon="1.71842">
        <ele>323.743</ele>
        <time>2013-06-29T09:30:57Z</time>
      </trkpt>
      <trkpt lat="44.36052" lon="1.7182">
        <ele>323.151</ele>
        <time>2013-06-29T09:31:23Z</time>
      </trkpt>
      <trkpt lat="44.36067" lon="1.71799">
        <ele>322.833</ele>
        <time>2013-06-29T09:31:42Z</time>
      </trkpt>
      <trkpt lat="44.36086" lon="1.71772">
        <ele>321.395</ele>
        <time>2013-06-29T09:32:07Z</time>
      </trkpt>
      <trkpt lat="44.36103" lon="1.71748">
        <ele>320.078</ele>
        <time>2013-06-29T09:32:30Z</time>
      </trkpt>
      <trkpt lat="44.36121" lon="1.71723">
        <ele>319.581</ele>
        <time>2013-06-29T09:32:52Z</time>
      </trkpt>
      <trkpt lat="44.36134" lon="1.71705">
        <ele>319.165</ele>
        <time>2013-06-29T09:33:09Z</time>
      </trkpt>
      <trkpt lat="44.36162" lon="1.71672">
        <ele>318.155</ele>
        <time>2013-06-29T09:33:38Z</time>
      </trkpt>
      <trkpt lat="44.36187" lon="1.71647">
        <ele>318.789</ele>
        <time>2013-06-29T09:34:05Z</time>
      </trkpt>
      <trkpt lat="44.36199" lon="1.71632">
        <ele>318.143</ele>
        <time>2013-06-29T09:34:21Z</time>
      </trkpt>
      <trkpt lat="44.36207" lon="1.71596">
        <ele>319.438</ele>
        <time>2013-06-29T09:34:48Z</time>
      </trkpt>
      <trkpt lat="44.36213" lon="1.71569">
        <ele>320.719</ele>
        <time>2013-06-29T09:35:10Z</time>
      </trkpt>
      <trkpt lat="44.36219" lon="1.71546">
        <ele>323.313</ele>
        <time>2013-06-29T09:35:31Z</time>
      </trkpt>
      <trkpt lat="44.36225" lon="1.71521">
        <ele>325.633</ele>
        <time>2013-06-29T09:35:53Z</time>
      </trkpt>
      <trkpt lat="44.36237" lon="1.71495">
        <ele>328.214</ele>
        <time>2013-06-29T09:36:17Z</time>
      </trkpt>
      <trkpt lat="44.36248" lon="1.71464">
        <ele>329.854</ele>
        <time>2013-06-29T09:36:43Z</time>
      </trkpt>
      <trkpt lat="44.3626" lon="1.71437">
        <ele>331.226</ele>
        <time>2013-06-29T09:37:07Z</time>
      </trkpt>
      <trkpt lat="44.36268" lon="1.71423">
        <ele>331.36</ele>
        <time>2013-06-29T09:37:18Z</time>
      </trkpt>
      <trkpt lat="44.36275" lon="1.71401">
        <ele>331.624</ele>
        <time>2013-06-29T09:37:37Z</time>
      </trkpt>
      <trkpt lat="44.36278" lon="1.7137">
        <ele>331.534</ele>
        <time>2013-06-29T09:38:02Z</time>
      </trkpt>
      <trkpt lat="44.36279" lon="1.71365">
        <ele>331.761</ele>
        <time>2013-06-29T09:38:21Z</time>
      </trkpt>
      <trkpt lat="44.36279" lon="1.71359">
        <ele>331.81</ele>
        <time>2013-06-29T09:39:44Z</time>
      </trkpt>
      <trkpt lat="44.36281" lon="1.71329">
        <ele>331.31</ele>
        <time>2013-06-29T09:40:04Z</time>
      </trkpt>
      <trkpt lat="44.36285" lon="1.71301">
        <ele>330.784</ele>
        <time>2013-06-29T09:40:22Z</time>
      </trkpt>
      <trkpt lat="44.36289" lon="1.71275">
        <ele>328.82</ele>
        <time>2013-06-29T09:40:40Z</time>
      </trkpt>
      <trkpt lat="44.36292" lon="1.7124">
        <ele>328.792</ele>
        <time>2013-06-29T09:41:02Z</time>
      </trkpt>
      <trkpt lat="44.36299" lon="1.71201">
        <ele>327.92</ele>
        <time>2013-06-29T09:41:28Z</time>
      </trkpt>
      <trkpt lat="44.36304" lon="1.71176">
        <ele>327.168</ele>
        <time>2013-06-29T09:41:45Z</time>
      </trkpt>
      <trkpt lat="44.36309" lon="1.71138">
        <ele>327.265</ele>
        <time>2013-06-29T09:42:09Z</time>
      </trkpt>
      <trkpt lat="44.36312" lon="1.71096">
        <ele>327.288</ele>
        <time>2013-06-29T09:42:36Z</time>
      </trkpt>
      <trkpt lat="44.36315" lon="1.71067">
        <ele>327.917</ele>
        <time>2013-06-29T09:42:54Z</time>
      </trkpt>
      <trkpt lat="44.36324" lon="1.71032">
        <ele>328.363</ele>
        <time>2013-06-29T09:43:18Z</time>
      </trkpt>
      <trkpt lat="44.36337" lon="1.70998">
        <ele>327.701</ele>
        <time>2013-06-29T09:43:43Z</time>
      </trkpt>
      <trkpt lat="44.36347" lon="1.70973">
        <ele>327.131</ele>
        <time>2013-06-29T09:44:02Z</time>
      </trkpt>
      <trkpt lat="44.36353" lon="1.70935">
        <ele>326.767</ele>
        <time>2013-06-29T09:44:28Z</time>
      </trkpt>
      <trkpt lat="44.36352" lon="1.70904">
        <ele>325.873</ele>
        <time>2013-06-29T09:44:49Z</time>
      </trkpt>
      <trkpt lat="44.36347" lon="1.70874">
        <ele>324.238</ele>
        <time>2013-06-29T09:45:10Z</time>
      </trkpt>
      <trkpt lat="44.36343" lon="1.70841">
        <ele>323.146</ele>
        <time>2013-06-29T09:45:32Z</time>
      </trkpt>
      <trkpt lat="44.36336" lon="1.70801">
        <ele>322.83</ele>
        <time>2013-06-29T09:45:58Z</time>
      </trkpt>
      <trkpt lat="44.36331" lon="1.70762">
        <ele>323.143</ele>
        <time>2013-06-29T09:46:24Z</time>
      </trkpt>
      <trkpt lat="44.36333" lon="1.70733">
        <ele>322.88</ele>
        <time>2013-06-29T09:46:43Z</time>
      </trkpt>
      <trkpt lat="44.36337" lon="1.70703">
        <ele>322.692</ele>
        <time>2013-06-29T09:47:03Z</time>
      </trkpt>
      <trkpt lat="44.36338" lon="1.70694">
        <ele>323.284</ele>
        <time>2013-06-29T09:47:09Z</time>
      </trkpt>
      <trkpt lat="44.36339" lon="1.70661">
        <ele>322.94</ele>
        <time>2013-06-29T09:47:29Z</time>
      </trkpt>
      <trkpt lat="44.36346" lon="1.70631">
        <ele>322.879</ele>
        <time>2013-06-29T09:47:49Z</time>
      </trkpt>
      <trkpt lat="44.3636" lon="1.70601">
        <ele>322.519</ele>
        <time>2013-06-29T09:48:11Z</time>
      </trkpt>
      <trkpt lat="44.36365" lon="1.7059">
        <ele>321.74</ele>
        <time>2013-06-29T09:48:24Z</time>
      </trkpt>
      <trkpt lat="44.36377" lon="1.70564">
        <ele>320.996</ele>
        <time>2013-06-29T09:48:45Z</time>
      </trkpt>
      <trkpt lat="44.3639" lon="1.70543">
        <ele>320.741</ele>
        <time>2013-06-29T09:49:03Z</time>
      </trkpt>
      <trkpt lat="44.36392" lon="1.70538">
        <ele>319.501</ele>
        <time>2013-06-29T09:49:21Z</time>
      </trkpt>
      <trkpt lat="44.36392" lon="1.70543">
        <ele>319.142</ele>
        <time>2013-06-29T09:49:48Z</time>
      </trkpt>
      <trkpt lat="44.3639" lon="1.70539">
        <ele>318.802</ele>
        <time>2013-06-29T09:50:21Z</time>
      </trkpt>
      <trkpt lat="44.36395" lon="1.70543">
        <ele>318.609</ele>
        <time>2013-06-29T09:51:23Z</time>
      </trkpt>
      <trkpt lat="44.36396" lon="1.70543">
        <ele>318.276</ele>
        <time>2013-06-29T09:52:03Z</time>
      </trkpt>
      <trkpt lat="44.36394" lon="1.70543">
        <ele>318.164</ele>
        <time>2013-06-29T09:52:36Z</time>
      </trkpt>
      <trkpt lat="44.3639" lon="1.70546">
        <ele>317.722</ele>
        <time>2013-06-29T09:53:54Z</time>
      </trkpt>
      <trkpt lat="44.36395" lon="1.70549">
        <ele>317.11</ele>
        <time>2013-06-29T09:54:29Z</time>
      </trkpt>
      <trkpt lat="44.36394" lon="1.70547">
        <ele>317.764</ele>
        <time>2013-06-29T09:55:30Z</time>
      </trkpt>
      <trkpt lat="44.36395" lon="1.70548">
        <ele>317.413</ele>
        <time>2013-06-29T09:55:43Z</time>
      </trkpt>
      <trkpt lat="44.36393" lon="1.70545">
        <ele>318.77</ele>
        <time>2013-06-29T09:55:45Z</time>
      </trkpt>
      <trkpt lat="44.36393" lon="1.70543">
        <ele>318.572</ele>
        <time>2013-06-29T09:56:00Z</time>
      </trkpt>
      <trkpt lat="44.36393" lon="1.70544">
        <ele>317.127</ele>
        <time>2013-06-29T09:56:03Z</time>
      </trkpt>
      <trkpt lat="44.36392" lon="1.70541">
        <ele>318.561</ele>
        <time>2013-06-29T09:56:15Z</time>
      </trkpt>
      <trkpt lat="44.36392" lon="1.70539">
        <ele>318.992</ele>
        <time>2013-06-29T09:56:39Z</time>
      </trkpt>
      <trkpt lat="44.36394" lon="1.70531">
        <ele>318.624</ele>
        <time>2013-06-29T09:57:04Z</time>
      </trkpt>
      <trkpt lat="44.36395" lon="1.70529">
        <ele>318.581</ele>
        <time>2013-06-29T09:57:06Z</time>
      </trkpt>
      <trkpt lat="44.36404" lon="1.70506">
        <ele>316.946</ele>
        <time>2013-06-29T09:57:25Z</time>
      </trkpt>
      <trkpt lat="44.36409" lon="1.70494">
        <ele>316.09</ele>
        <time>2013-06-29T09:57:42Z</time>
      </trkpt>
      <trkpt lat="44.36412" lon="1.70492">
        <ele>316.435</ele>
        <time>2013-06-29T09:59:14Z</time>
      </trkpt>
      <trkpt lat="44.36418" lon="1.70481">
        <ele>315.683</ele>
        <time>2013-06-29T10:00:25Z</time>
      </trkpt>
      <trkpt lat="44.36432" lon="1.70453">
        <ele>314.072</ele>
        <time>2013-06-29T10:00:48Z</time>
      </trkpt>
      <trkpt lat="44.36452" lon="1.70424">
        <ele>312.705</ele>
        <time>2013-06-29T10:01:12Z</time>
      </trkpt>
      <trkpt lat="44.36466" lon="1.70398">
        <ele>311.397</ele>
        <time>2013-06-29T10:01:33Z</time>
      </trkpt>
      <trkpt lat="44.36481" lon="1.70365">
        <ele>309.507</ele>
        <time>2013-06-29T10:01:58Z</time>
      </trkpt>
      <trkpt lat="44.36491" lon="1.70336">
        <ele>307.466</ele>
        <time>2013-06-29T10:02:20Z</time>
      </trkpt>
      <trkpt lat="44.36497" lon="1.70319">
        <ele>306.066</ele>
        <time>2013-06-29T10:02:34Z</time>
      </trkpt>
      <trkpt lat="44.36509" lon="1.70294">
        <ele>305.058</ele>
        <time>2013-06-29T10:02:51Z</time>
      </trkpt>
      <trkpt lat="44.36523" lon="1.70259">
        <ele>304.343</ele>
        <time>2013-06-29T10:03:16Z</time>
      </trkpt>
      <trkpt lat="44.3653" lon="1.7021">
        <ele>304.732</ele>
        <time>2013-06-29T10:03:47Z</time>
      </trkpt>
      <trkpt lat="44.36534" lon="1.70174">
        <ele>304.983</ele>
        <time>2013-06-29T10:04:10Z</time>
      </trkpt>
      <trkpt lat="44.3653" lon="1.70142">
        <ele>305.074</ele>
        <time>2013-06-29T10:04:32Z</time>
      </trkpt>
      <trkpt lat="44.36528" lon="1.70113">
        <ele>305.393</ele>
        <time>2013-06-29T10:04:51Z</time>
      </trkpt>
      <trkpt lat="44.36525" lon="1.70079">
        <ele>305.904</ele>
        <time>2013-06-29T10:05:12Z</time>
      </trkpt>
      <trkpt lat="44.36524" lon="1.70078">
        <ele>305.905</ele>
        <time>2013-06-29T10:05:13Z</time>
      </trkpt>
      <trkpt lat="44.36524" lon="1.70065">
        <ele>306.187</ele>
        <time>2013-06-29T10:05:22Z</time>
      </trkpt>
      <trkpt lat="44.36524" lon="1.70029">
        <ele>305.885</ele>
        <time>2013-06-29T10:05:44Z</time>
      </trkpt>
      <trkpt lat="44.36525" lon="1.69991">
        <ele>305.245</ele>
        <time>2013-06-29T10:06:08Z</time>
      </trkpt>
      <trkpt lat="44.36527" lon="1.69948">
        <ele>303.921</ele>
        <time>2013-06-29T10:06:35Z</time>
      </trkpt>
      <trkpt lat="44.36526" lon="1.69913">
        <ele>301.974</ele>
        <time>2013-06-29T10:06:58Z</time>
      </trkpt>
      <trkpt lat="44.36523" lon="1.69884">
        <ele>300.262</ele>
        <time>2013-06-29T10:07:18Z</time>
      </trkpt>
      <trkpt lat="44.36525" lon="1.69859">
        <ele>298.503</ele>
        <time>2013-06-29T10:07:37Z</time>
      </trkpt>
      <trkpt lat="44.36526" lon="1.69851">
        <ele>297.748</ele>
        <time>2013-06-29T10:07:42Z</time>
      </trkpt>
      <trkpt lat="44.36529" lon="1.69825">
        <ele>297.391</ele>
        <time>2013-06-29T10:07:58Z</time>
      </trkpt>
      <trkpt lat="44.36532" lon="1.69782">
        <ele>297.879</ele>
        <time>2013-06-29T10:08:25Z</time>
      </trkpt>
      <trkpt lat="44.36532" lon="1.6978">
        <ele>297.951</ele>
        <time>2013-06-29T10:08:26Z</time>
      </trkpt>
      <trkpt lat="44.36533" lon="1.69751">
        <ele>298.371</ele>
        <time>2013-06-29T10:08:45Z</time>
      </trkpt>
      <trkpt lat="44.36531" lon="1.69719">
        <ele>298.877</ele>
        <time>2013-06-29T10:09:06Z</time>
      </trkpt>
      <trkpt lat="44.36529" lon="1.69682">
        <ele>298.598</ele>
        <time>2013-06-29T10:09:30Z</time>
      </trkpt>
      <trkpt lat="44.36528" lon="1.69653">
        <ele>297.387</ele>
        <time>2013-06-29T10:09:49Z</time>
      </trkpt>
      <trkpt lat="44.36528" lon="1.69638">
        <ele>298.459</ele>
        <time>2013-06-29T10:09:59Z</time>
      </trkpt>
      <trkpt lat="44.3653" lon="1.69619">
        <ele>297.709</ele>
        <time>2013-06-29T10:10:13Z</time>
      </trkpt>
      <trkpt lat="44.36536" lon="1.69582">
        <ele>297.734</ele>
        <time>2013-06-29T10:10:36Z</time>
      </trkpt>
      <trkpt lat="44.36538" lon="1.69555">
        <ele>297.738</ele>
        <time>2013-06-29T10:10:54Z</time>
      </trkpt>
      <trkpt lat="44.36538" lon="1.69522">
        <ele>296.992</ele>
        <time>2013-06-29T10:11:15Z</time>
      </trkpt>
      <trkpt lat="44.36531" lon="1.69482">
        <ele>298.602</ele>
        <time>2013-06-29T10:11:43Z</time>
      </trkpt>
      <trkpt lat="44.3652" lon="1.69446">
        <ele>300.807</ele>
        <time>2013-06-29T10:12:12Z</time>
      </trkpt>
      <trkpt lat="44.3651" lon="1.6942">
        <ele>301.8</ele>
        <time>2013-06-29T10:12:35Z</time>
      </trkpt>
      <trkpt lat="44.36503" lon="1.69403">
        <ele>303.303</ele>
        <time>2013-06-29T10:12:53Z</time>
      </trkpt>
      <trkpt lat="44.36495" lon="1.69385">
        <ele>304.973</ele>
        <time>2013-06-29T10:13:12Z</time>
      </trkpt>
      <trkpt lat="44.36488" lon="1.69365">
        <ele>305.126</ele>
        <time>2013-06-29T10:13:30Z</time>
      </trkpt>
      <trkpt lat="44.36489" lon="1.69359">
        <ele>304.709</ele>
        <time>2013-06-29T10:14:00Z</time>
      </trkpt>
      <trkpt lat="44.36489" lon="1.69357">
        <ele>304.919</ele>
        <time>2013-06-29T10:14:18Z</time>
      </trkpt>
      <trkpt lat="44.36492" lon="1.69357">
        <ele>304.318</ele>
        <time>2013-06-29T10:15:07Z</time>
      </trkpt>
      <trkpt lat="44.36491" lon="1.69356">
        <ele>305.511</ele>
        <time>2013-06-29T10:15:39Z</time>
      </trkpt>
      <trkpt lat="44.36492" lon="1.69354">
        <ele>305.42</ele>
        <time>2013-06-29T10:16:25Z</time>
      </trkpt>
      <trkpt lat="44.3649" lon="1.69353">
        <ele>304.925</ele>
        <time>2013-06-29T10:16:42Z</time>
      </trkpt>
      <trkpt lat="44.3649" lon="1.69349">
        <ele>304.855</ele>
        <time>2013-06-29T10:17:17Z</time>
      </trkpt>
      <trkpt lat="44.36491" lon="1.69343">
        <ele>305.151</ele>
        <time>2013-06-29T10:17:41Z</time>
      </trkpt>
      <trkpt lat="44.36482" lon="1.69329">
        <ele>305.119</ele>
        <time>2013-06-29T10:17:59Z</time>
      </trkpt>
      <trkpt lat="44.36475" lon="1.69308">
        <ele>304.365</ele>
        <time>2013-06-29T10:18:16Z</time>
      </trkpt>
      <trkpt lat="44.36472" lon="1.69286">
        <ele>302.813</ele>
        <time>2013-06-29T10:18:33Z</time>
      </trkpt>
      <trkpt lat="44.36476" lon="1.69261">
        <ele>302.485</ele>
        <time>2013-06-29T10:18:49Z</time>
      </trkpt>
      <trkpt lat="44.36479" lon="1.69255">
        <ele>301.556</ele>
        <time>2013-06-29T10:18:54Z</time>
      </trkpt>
      <trkpt lat="44.36491" lon="1.69228">
        <ele>301.365</ele>
        <time>2013-06-29T10:19:13Z</time>
      </trkpt>
      <trkpt lat="44.36498" lon="1.69211">
        <ele>301.032</ele>
        <time>2013-06-29T10:19:29Z</time>
      </trkpt>
      <trkpt lat="44.36512" lon="1.69185">
        <ele>300.464</ele>
        <time>2013-06-29T10:19:46Z</time>
      </trkpt>
      <trkpt lat="44.36514" lon="1.69174">
        <ele>299.444</ele>
        <time>2013-06-29T10:19:55Z</time>
      </trkpt>
      <trkpt lat="44.36499" lon="1.69152">
        <ele>298.312</ele>
        <time>2013-06-29T10:20:15Z</time>
      </trkpt>
      <trkpt lat="44.36482" lon="1.69124">
        <ele>298.497</ele>
        <time>2013-06-29T10:20:39Z</time>
      </trkpt>
      <trkpt lat="44.36472" lon="1.69107">
        <ele>298.572</ele>
        <time>2013-06-29T10:20:57Z</time>
      </trkpt>
      <trkpt lat="44.3646" lon="1.69087">
        <ele>299.202</ele>
        <time>2013-06-29T10:21:14Z</time>
      </trkpt>
      <trkpt lat="44.36447" lon="1.69066">
        <ele>300.771</ele>
        <time>2013-06-29T10:21:33Z</time>
      </trkpt>
      <trkpt lat="44.36442" lon="1.69045">
        <ele>300.44</ele>
        <time>2013-06-29T10:21:49Z</time>
      </trkpt>
      <trkpt lat="44.36439" lon="1.69024">
        <ele>300.417</ele>
        <time>2013-06-29T10:22:05Z</time>
      </trkpt>
      <trkpt lat="44.36435" lon="1.69006">
        <ele>299.519</ele>
        <time>2013-06-29T10:22:19Z</time>
      </trkpt>
      <trkpt lat="44.36432" lon="1.68993">
        <ele>299.016</ele>
        <time>2013-06-29T10:22:29Z</time>
      </trkpt>
      <trkpt lat="44.36429" lon="1.68968">
        <ele>298.922</ele>
        <time>2013-06-29T10:22:48Z</time>
      </trkpt>
      <trkpt lat="44.36426" lon="1.68948">
        <ele>297.373</ele>
        <time>2013-06-29T10:23:04Z</time>
      </trkpt>
      <trkpt lat="44.36424" lon="1.68928">
        <ele>295.744</ele>
        <time>2013-06-29T10:23:22Z</time>
      </trkpt>
      <trkpt lat="44.36422" lon="1.68907">
        <ele>293.764</ele>
        <time>2013-06-29T10:23:39Z</time>
      </trkpt>
      <trkpt lat="44.36428" lon="1.6888">
        <ele>293.386</ele>
        <time>2013-06-29T10:23:57Z</time>
      </trkpt>
      <trkpt lat="44.36428" lon="1.68855">
        <ele>294.307</ele>
        <time>2013-06-29T10:24:14Z</time>
      </trkpt>
      <trkpt lat="44.36429" lon="1.6883">
        <ele>297.154</ele>
        <time>2013-06-29T10:24:32Z</time>
      </trkpt>
      <trkpt lat="44.36432" lon="1.68809">
        <ele>298.626</ele>
        <time>2013-06-29T10:24:48Z</time>
      </trkpt>
      <trkpt lat="44.36439" lon="1.68786">
        <ele>299.452</ele>
        <time>2013-06-29T10:25:06Z</time>
      </trkpt>
      <trkpt lat="44.36441" lon="1.68763">
        <ele>298.842</ele>
        <time>2013-06-29T10:25:23Z</time>
      </trkpt>
      <trkpt lat="44.36447" lon="1.68742">
        <ele>298.336</ele>
        <time>2013-06-29T10:25:42Z</time>
      </trkpt>
      <trkpt lat="44.36457" lon="1.68719">
        <ele>298.175</ele>
        <time>2013-06-29T10:25:59Z</time>
      </trkpt>
      <trkpt lat="44.36468" lon="1.68696">
        <ele>297.061</ele>
        <time>2013-06-29T10:26:17Z</time>
      </trkpt>
      <trkpt lat="44.36469" lon="1.68695">
        <ele>296.89</ele>
        <time>2013-06-29T10:26:18Z</time>
      </trkpt>
      <trkpt lat="44.36479" lon="1.68673">
        <ele>295.788</ele>
        <time>2013-06-29T10:26:36Z</time>
      </trkpt>
      <trkpt lat="44.3649" lon="1.68651">
        <ele>295.588</ele>
        <time>2013-06-29T10:26:55Z</time>
      </trkpt>
      <trkpt lat="44.36501" lon="1.68627">
        <ele>294.532</ele>
        <time>2013-06-29T10:27:14Z</time>
      </trkpt>
      <trkpt lat="44.36491" lon="1.68612">
        <ele>294.723</ele>
        <time>2013-06-29T10:27:31Z</time>
      </trkpt>
      <trkpt lat="44.36474" lon="1.68592">
        <ele>295.485</ele>
        <time>2013-06-29T10:27:54Z</time>
      </trkpt>
      <trkpt lat="44.36454" lon="1.68567">
        <ele>297.227</ele>
        <time>2013-06-29T10:28:21Z</time>
      </trkpt>
      <trkpt lat="44.36438" lon="1.68549">
        <ele>298.74</ele>
        <time>2013-06-29T10:28:42Z</time>
      </trkpt>
      <trkpt lat="44.36419" lon="1.68526">
        <ele>299.84</ele>
        <time>2013-06-29T10:29:08Z</time>
      </trkpt>
      <trkpt lat="44.36402" lon="1.68505">
        <ele>301.733</ele>
        <time>2013-06-29T10:29:33Z</time>
      </trkpt>
      <trkpt lat="44.36387" lon="1.68486">
        <ele>302.871</ele>
        <time>2013-06-29T10:29:55Z</time>
      </trkpt>
      <trkpt lat="44.36371" lon="1.68468">
        <ele>303.764</ele>
        <time>2013-06-29T10:30:17Z</time>
      </trkpt>
      <trkpt lat="44.36365" lon="1.6846">
        <ele>304.299</ele>
        <time>2013-06-29T10:30:26Z</time>
      </trkpt>
      <trkpt lat="44.36352" lon="1.68445">
        <ele>305.986</ele>
        <time>2013-06-29T10:30:44Z</time>
      </trkpt>
      <trkpt lat="44.3634" lon="1.68432">
        <ele>308.075</ele>
        <time>2013-06-29T10:31:02Z</time>
      </trkpt>
      <trkpt lat="44.36324" lon="1.68416">
        <ele>309.209</ele>
        <time>2013-06-29T10:31:24Z</time>
      </trkpt>
      <trkpt lat="44.36311" lon="1.68402">
        <ele>311.91</ele>
        <time>2013-06-29T10:31:44Z</time>
      </trkpt>
      <trkpt lat="44.363" lon="1.68386">
        <ele>312.973</ele>
        <time>2013-06-29T10:32:04Z</time>
      </trkpt>
      <trkpt lat="44.36299" lon="1.68381">
        <ele>312.364</ele>
        <time>2013-06-29T10:32:25Z</time>
      </trkpt>
      <trkpt lat="44.36299" lon="1.68381">
        <ele>312.153</ele>
        <time>2013-06-29T10:32:59Z</time>
      </trkpt>
      <trkpt lat="44.36296" lon="1.68388">
        <ele>311.931</ele>
        <time>2013-06-29T10:33:26Z</time>
      </trkpt>
      <trkpt lat="44.3629" lon="1.68391">
        <ele>311.799</ele>
        <time>2013-06-29T10:33:59Z</time>
      </trkpt>
      <trkpt lat="44.36295" lon="1.68391">
        <ele>312.007</ele>
        <time>2013-06-29T10:35:02Z</time>
      </trkpt>
      <trkpt lat="44.36298" lon="1.68381">
        <ele>313.235</ele>
        <time>2013-06-29T10:35:34Z</time>
      </trkpt>
      <trkpt lat="44.36301" lon="1.68377">
        <ele>313.67</ele>
        <time>2013-06-29T10:36:05Z</time>
      </trkpt>
      <trkpt lat="44.363" lon="1.68375">
        <ele>313.527</ele>
        <time>2013-06-29T10:36:19Z</time>
      </trkpt>
      <trkpt lat="44.36294" lon="1.68369">
        <ele>313.654</ele>
        <time>2013-06-29T10:36:34Z</time>
      </trkpt>
      <trkpt lat="44.36281" lon="1.68352">
        <ele>313.316</ele>
        <time>2013-06-29T10:36:52Z</time>
      </trkpt>
      <trkpt lat="44.36267" lon="1.68326">
        <ele>312.278</ele>
        <time>2013-06-29T10:37:14Z</time>
      </trkpt>
      <trkpt lat="44.36251" lon="1.68304">
        <ele>310.973</ele>
        <time>2013-06-29T10:37:36Z</time>
      </trkpt>
      <trkpt lat="44.36229" lon="1.68278">
        <ele>308.816</ele>
        <time>2013-06-29T10:38:02Z</time>
      </trkpt>
      <trkpt lat="44.36212" lon="1.68257">
        <ele>307.897</ele>
        <time>2013-06-29T10:38:23Z</time>
      </trkpt>
      <trkpt lat="44.36193" lon="1.68235">
        <ele>307.297</ele>
        <time>2013-06-29T10:38:46Z</time>
      </trkpt>
      <trkpt lat="44.36174" lon="1.68214">
        <ele>305.827</ele>
        <time>2013-06-29T10:39:08Z</time>
      </trkpt>
      <trkpt lat="44.36163" lon="1.68201">
        <ele>305.58</ele>
        <time>2013-06-29T10:39:24Z</time>
      </trkpt>
      <trkpt lat="44.36141" lon="1.6818">
        <ele>304.612</ele>
        <time>2013-06-29T10:39:47Z</time>
      </trkpt>
      <trkpt lat="44.36119" lon="1.68161">
        <ele>304.032</ele>
        <time>2013-06-29T10:40:11Z</time>
      </trkpt>
      <trkpt lat="44.36097" lon="1.6814">
        <ele>303.411</ele>
        <time>2013-06-29T10:40:35Z</time>
      </trkpt>
      <trkpt lat="44.3608" lon="1.68123">
        <ele>302.83</ele>
        <time>2013-06-29T10:40:56Z</time>
      </trkpt>
      <trkpt lat="44.36055" lon="1.681">
        <ele>302.452</ele>
        <time>2013-06-29T10:41:23Z</time>
      </trkpt>
      <trkpt lat="44.36032" lon="1.68074">
        <ele>302.706</ele>
        <time>2013-06-29T10:41:50Z</time>
      </trkpt>
      <trkpt lat="44.36014" lon="1.68055">
        <ele>302.645</ele>
        <time>2013-06-29T10:42:12Z</time>
      </trkpt>
      <trkpt lat="44.35997" lon="1.68034">
        <ele>302.458</ele>
        <time>2013-06-29T10:42:33Z</time>
      </trkpt>
      <trkpt lat="44.35978" lon="1.68013">
        <ele>303.552</ele>
        <time>2013-06-29T10:42:56Z</time>
      </trkpt>
      <trkpt lat="44.35956" lon="1.6799">
        <ele>305.325</ele>
        <time>2013-06-29T10:43:23Z</time>
      </trkpt>
      <trkpt lat="44.35935" lon="1.67967">
        <ele>306.079</ele>
        <time>2013-06-29T10:43:49Z</time>
      </trkpt>
      <trkpt lat="44.35917" lon="1.67949">
        <ele>307.58</ele>
        <time>2013-06-29T10:44:11Z</time>
      </trkpt>
      <trkpt lat="44.35896" lon="1.67926">
        <ele>309.137</ele>
        <time>2013-06-29T10:44:37Z</time>
      </trkpt>
      <trkpt lat="44.35875" lon="1.679">
        <ele>310.032</ele>
        <time>2013-06-29T10:45:04Z</time>
      </trkpt>
      <trkpt lat="44.35876" lon="1.67892">
        <ele>309.695</ele>
        <time>2013-06-29T10:45:19Z</time>
      </trkpt>
      <trkpt lat="44.35871" lon="1.67894">
        <ele>310.062</ele>
        <time>2013-06-29T10:45:35Z</time>
      </trkpt>
      <trkpt lat="44.35873" lon="1.67893">
        <ele>310.17</ele>
        <time>2013-06-29T10:46:53Z</time>
      </trkpt>
      <trkpt lat="44.35873" lon="1.67895">
        <ele>310.061</ele>
        <time>2013-06-29T10:47:12Z</time>
      </trkpt>
      <trkpt lat="44.35878" lon="1.67891">
        <ele>309.398</ele>
        <time>2013-06-29T10:47:33Z</time>
      </trkpt>
      <trkpt lat="44.35875" lon="1.67891">
        <ele>309.128</ele>
        <time>2013-06-29T10:48:25Z</time>
      </trkpt>
      <trkpt lat="44.35873" lon="1.67892">
        <ele>309.207</ele>
        <time>2013-06-29T10:48:52Z</time>
      </trkpt>
      <trkpt lat="44.35869" lon="1.67889">
        <ele>309.223</ele>
        <time>2013-06-29T10:49:14Z</time>
      </trkpt>
      <trkpt lat="44.35842" lon="1.67864">
        <ele>310.462</ele>
        <time>2013-06-29T10:49:44Z</time>
      </trkpt>
      <trkpt lat="44.35819" lon="1.67837">
        <ele>311.742</ele>
        <time>2013-06-29T10:50:11Z</time>
      </trkpt>
      <trkpt lat="44.35795" lon="1.67804">
        <ele>312.322</ele>
        <time>2013-06-29T10:50:41Z</time>
      </trkpt>
      <trkpt lat="44.35775" lon="1.6778">
        <ele>310.967</ele>
        <time>2013-06-29T10:51:09Z</time>
      </trkpt>
      <trkpt lat="44.35771" lon="1.67778">
        <ele>310.593</ele>
        <time>2013-06-29T10:51:15Z</time>
      </trkpt>
      <trkpt lat="44.35754" lon="1.67763">
        <ele>310.191</ele>
        <time>2013-06-29T10:51:34Z</time>
      </trkpt>
      <trkpt lat="44.35752" lon="1.67761">
        <ele>310.066</ele>
        <time>2013-06-29T10:51:36Z</time>
      </trkpt>
      <trkpt lat="44.35729" lon="1.6773">
        <ele>309.55</ele>
        <time>2013-06-29T10:52:04Z</time>
      </trkpt>
      <trkpt lat="44.35711" lon="1.67707">
        <ele>309.935</ele>
        <time>2013-06-29T10:52:25Z</time>
      </trkpt>
      <trkpt lat="44.35687" lon="1.67679">
        <ele>310.622</ele>
        <time>2013-06-29T10:52:52Z</time>
      </trkpt>
      <trkpt lat="44.35661" lon="1.67652">
        <ele>312.417</ele>
        <time>2013-06-29T10:53:21Z</time>
      </trkpt>
      <trkpt lat="44.35637" lon="1.67624">
        <ele>313.812</ele>
        <time>2013-06-29T10:53:49Z</time>
      </trkpt>
      <trkpt lat="44.35612" lon="1.676">
        <ele>314.857</ele>
        <time>2013-06-29T10:54:17Z</time>
      </trkpt>
      <trkpt lat="44.35595" lon="1.67586">
        <ele>315.174</ele>
        <time>2013-06-29T10:54:35Z</time>
      </trkpt>
      <trkpt lat="44.35583" lon="1.67572">
        <ele>315.502</ele>
        <time>2013-06-29T10:54:52Z</time>
      </trkpt>
      <trkpt lat="44.35562" lon="1.67551">
        <ele>314.401</ele>
        <time>2013-06-29T10:55:16Z</time>
      </trkpt>
      <trkpt lat="44.35541" lon="1.67535">
        <ele>312.813</ele>
        <time>2013-06-29T10:55:38Z</time>
      </trkpt>
      <trkpt lat="44.35515" lon="1.67526">
        <ele>310.745</ele>
        <time>2013-06-29T10:56:03Z</time>
      </trkpt>
      <trkpt lat="44.35492" lon="1.67522">
        <ele>311.569</ele>
        <time>2013-06-29T10:56:24Z</time>
      </trkpt>
      <trkpt lat="44.35461" lon="1.67494">
        <ele>311.326</ele>
        <time>2013-06-29T10:56:56Z</time>
      </trkpt>
      <trkpt lat="44.35428" lon="1.67463">
        <ele>313.121</ele>
        <time>2013-06-29T10:57:32Z</time>
      </trkpt>
      <trkpt lat="44.35402" lon="1.67439">
        <ele>314.377</ele>
        <time>2013-06-29T10:58:02Z</time>
      </trkpt>
      <trkpt lat="44.35376" lon="1.67409">
        <ele>316.028</ele>
        <time>2013-06-29T10:58:33Z</time>
      </trkpt>
      <trkpt lat="44.35358" lon="1.67383">
        <ele>316.367</ele>
        <time>2013-06-29T10:58:57Z</time>
      </trkpt>
      <trkpt lat="44.35342" lon="1.6735">
        <ele>317.148</ele>
        <time>2013-06-29T10:59:24Z</time>
      </trkpt>
      <trkpt lat="44.35327" lon="1.67325">
        <ele>317.323</ele>
        <time>2013-06-29T10:59:48Z</time>
      </trkpt>
      <trkpt lat="44.35317" lon="1.67317">
        <ele>317.384</ele>
        <time>2013-06-29T11:00:09Z</time>
      </trkpt>
      <trkpt lat="44.35292" lon="1.673">
        <ele>318.563</ele>
        <time>2013-06-29T11:00:35Z</time>
      </trkpt>
      <trkpt lat="44.35263" lon="1.67283">
        <ele>318.939</ele>
        <time>2013-06-29T11:01:05Z</time>
      </trkpt>
      <trkpt lat="44.35234" lon="1.67278">
        <ele>321.257</ele>
        <time>2013-06-29T11:01:32Z</time>
      </trkpt>
      <trkpt lat="44.3521" lon="1.6727">
        <ele>322.461</ele>
        <time>2013-06-29T11:01:56Z</time>
      </trkpt>
      <trkpt lat="44.35198" lon="1.67263">
        <ele>322.608</ele>
        <time>2013-06-29T11:02:10Z</time>
      </trkpt>
      <trkpt lat="44.35172" lon="1.67245">
        <ele>324.352</ele>
        <time>2013-06-29T11:02:37Z</time>
      </trkpt>
      <trkpt lat="44.35142" lon="1.67221">
        <ele>325.757</ele>
        <time>2013-06-29T11:03:09Z</time>
      </trkpt>
      <trkpt lat="44.35122" lon="1.67208">
        <ele>326.235</ele>
        <time>2013-06-29T11:03:30Z</time>
      </trkpt>
      <trkpt lat="44.35117" lon="1.67212">
        <ele>326.606</ele>
        <time>2013-06-29T11:03:37Z</time>
      </trkpt>
      <trkpt lat="44.35097" lon="1.67234">
        <ele>326.553</ele>
        <time>2013-06-29T11:04:04Z</time>
      </trkpt>
      <trkpt lat="44.35077" lon="1.6725">
        <ele>327.672</ele>
        <time>2013-06-29T11:04:29Z</time>
      </trkpt>
      <trkpt lat="44.35077" lon="1.67246">
        <ele>326.26</ele>
        <time>2013-06-29T11:04:58Z</time>
      </trkpt>
      <trkpt lat="44.35081" lon="1.6723">
        <ele>326.381</ele>
        <time>2013-06-29T11:05:55Z</time>
      </trkpt>
      <trkpt lat="44.3508" lon="1.67235">
        <ele>327.233</ele>
        <time>2013-06-29T11:06:21Z</time>
      </trkpt>
      <trkpt lat="44.35086" lon="1.67233">
        <ele>328.485</ele>
        <time>2013-06-29T11:07:32Z</time>
      </trkpt>
      <trkpt lat="44.35083" lon="1.67237">
        <ele>328.799</ele>
        <time>2013-06-29T11:07:58Z</time>
      </trkpt>
      <trkpt lat="44.35082" lon="1.6724">
        <ele>328.332</ele>
        <time>2013-06-29T11:08:38Z</time>
      </trkpt>
      <trkpt lat="44.35078" lon="1.67251">
        <ele>328.379</ele>
        <time>2013-06-29T11:08:59Z</time>
      </trkpt>
      <trkpt lat="44.3509" lon="1.67211">
        <ele>328.928</ele>
        <time>2013-06-29T11:09:40Z</time>
      </trkpt>
      <trkpt lat="44.35085" lon="1.67224">
        <ele>330.261</ele>
        <time>2013-06-29T11:10:31Z</time>
      </trkpt>
      <trkpt lat="44.35089" lon="1.67224">
        <ele>330.255</ele>
        <time>2013-06-29T11:10:57Z</time>
      </trkpt>
      <trkpt lat="44.35087" lon="1.67232">
        <ele>330.625</ele>
        <time>2013-06-29T11:11:24Z</time>
      </trkpt>
      <trkpt lat="44.35085" lon="1.67234">
        <ele>331.959</ele>
        <time>2013-06-29T11:12:41Z</time>
      </trkpt>
      <trkpt lat="44.35073" lon="1.67231">
        <ele>332.766</ele>
        <time>2013-06-29T11:12:57Z</time>
      </trkpt>
      <trkpt lat="44.35072" lon="1.67232">
        <ele>331.665</ele>
        <time>2013-06-29T11:13:13Z</time>
      </trkpt>
      <trkpt lat="44.35071" lon="1.67232">
        <ele>328.482</ele>
        <time>2013-06-29T11:13:15Z</time>
      </trkpt>
      <trkpt lat="44.35071" lon="1.67232">
        <ele>334.894</ele>
        <time>2013-06-29T11:13:16Z</time>
      </trkpt>
      <trkpt lat="44.35071" lon="1.67232">
        <ele>331.582</ele>
        <time>2013-06-29T11:13:18Z</time>
      </trkpt>
      <trkpt lat="44.35068" lon="1.67241">
        <ele>331.469</ele>
        <time>2013-06-29T11:14:28Z</time>
      </trkpt>
      <trkpt lat="44.35075" lon="1.67229">
        <ele>330.307</ele>
        <time>2013-06-29T11:15:47Z</time>
      </trkpt>
      <trkpt lat="44.35069" lon="1.67234">
        <ele>328.994</ele>
        <time>2013-06-29T11:20:40Z</time>
      </trkpt>
      <trkpt lat="44.3507" lon="1.67233">
        <ele>328.681</ele>
        <time>2013-06-29T11:21:04Z</time>
      </trkpt>
      <trkpt lat="44.35071" lon="1.67234">
        <ele>328.661</ele>
        <time>2013-06-29T11:22:21Z</time>
      </trkpt>
      <trkpt lat="44.35066" lon="1.67237">
        <ele>328.681</ele>
        <time>2013-06-29T11:22:57Z</time>
      </trkpt>
      <trkpt lat="44.35067" lon="1.67238">
        <ele>328.662</ele>
        <time>2013-06-29T11:23:45Z</time>
      </trkpt>
      <trkpt lat="44.35068" lon="1.67239">
        <ele>328.091</ele>
        <time>2013-06-29T11:25:57Z</time>
      </trkpt>
      <trkpt lat="44.35068" lon="1.67239">
        <ele>328.115</ele>
        <time>2013-06-29T11:26:22Z</time>
      </trkpt>
      <trkpt lat="44.35071" lon="1.67231">
        <ele>327.916</ele>
        <time>2013-06-29T11:27:11Z</time>
      </trkpt>
      <trkpt lat="44.3507" lon="1.67235">
        <ele>327.744</ele>
        <time>2013-06-29T11:27:41Z</time>
      </trkpt>
      <trkpt lat="44.35071" lon="1.67237">
        <ele>327.739</ele>
        <time>2013-06-29T11:28:36Z</time>
      </trkpt>
      <trkpt lat="44.35077" lon="1.67235">
        <ele>327.949</ele>
        <time>2013-06-29T11:29:14Z</time>
      </trkpt>
      <trkpt lat="44.35071" lon="1.67236">
        <ele>327.428</ele>
        <time>2013-06-29T11:29:54Z</time>
      </trkpt>
      <trkpt lat="44.35072" lon="1.67237">
        <ele>327.611</ele>
        <time>2013-06-29T11:30:29Z</time>
      </trkpt>
      <trkpt lat="44.3507" lon="1.67237">
        <ele>327.179</ele>
        <time>2013-06-29T11:30:55Z</time>
      </trkpt>
      <trkpt lat="44.35074" lon="1.67234">
        <ele>327.585</ele>
        <time>2013-06-29T11:31:36Z</time>
      </trkpt>
      <trkpt lat="44.35067" lon="1.67239">
        <ele>327.915</ele>
        <time>2013-06-29T11:32:16Z</time>
      </trkpt>
      <trkpt lat="44.35069" lon="1.67237">
        <ele>327.537</ele>
        <time>2013-06-29T11:32:49Z</time>
      </trkpt>
      <trkpt lat="44.35069" lon="1.67234">
        <ele>327.635</ele>
        <time>2013-06-29T11:33:47Z</time>
      </trkpt>
      <trkpt lat="44.35074" lon="1.67234">
        <ele>327.883</ele>
        <time>2013-06-29T11:35:56Z</time>
      </trkpt>
      <trkpt lat="44.35082" lon="1.67233">
        <ele>326.96</ele>
        <time>2013-06-29T11:36:40Z</time>
      </trkpt>
      <trkpt lat="44.35079" lon="1.67232">
        <ele>327.153</ele>
        <time>2013-06-29T11:37:11Z</time>
      </trkpt>
      <trkpt lat="44.35074" lon="1.67233">
        <ele>326.935</ele>
        <time>2013-06-29T11:37:39Z</time>
      </trkpt>
      <trkpt lat="44.35076" lon="1.67232">
        <ele>326.874</ele>
        <time>2013-06-29T11:38:12Z</time>
      </trkpt>
      <trkpt lat="44.35072" lon="1.67232">
        <ele>326.871</ele>
        <time>2013-06-29T11:38:41Z</time>
      </trkpt>
      <trkpt lat="44.35073" lon="1.67232">
        <ele>326.983</ele>
        <time>2013-06-29T11:39:16Z</time>
      </trkpt>
      <trkpt lat="44.35077" lon="1.67229">
        <ele>326.602</ele>
        <time>2013-06-29T11:39:45Z</time>
      </trkpt>
      <trkpt lat="44.35074" lon="1.67234">
        <ele>326.245</ele>
        <time>2013-06-29T11:40:07Z</time>
      </trkpt>
      <trkpt lat="44.35069" lon="1.67233">
        <ele>326.8</ele>
        <time>2013-06-29T11:40:30Z</time>
      </trkpt>
      <trkpt lat="44.3507" lon="1.67231">
        <ele>326.025</ele>
        <time>2013-06-29T11:41:04Z</time>
      </trkpt>
      <trkpt lat="44.3507" lon="1.67228">
        <ele>326.336</ele>
        <time>2013-06-29T11:42:31Z</time>
      </trkpt>
      <trkpt lat="44.35071" lon="1.67235">
        <ele>325.903</ele>
        <time>2013-06-29T11:44:07Z</time>
      </trkpt>
      <trkpt lat="44.35071" lon="1.67231">
        <ele>326.169</ele>
        <time>2013-06-29T11:44:37Z</time>
      </trkpt>
      <trkpt lat="44.35071" lon="1.67231">
        <ele>325.827</ele>
        <time>2013-06-29T11:45:11Z</time>
      </trkpt>
      <trkpt lat="44.3507" lon="1.67231">
        <ele>325.574</ele>
        <time>2013-06-29T11:45:39Z</time>
      </trkpt>
      <trkpt lat="44.35071" lon="1.67231">
        <ele>325.075</ele>
        <time>2013-06-29T11:46:59Z</time>
      </trkpt>
      <trkpt lat="44.35072" lon="1.67232">
        <ele>325.16</ele>
        <time>2013-06-29T11:47:24Z</time>
      </trkpt>
      <trkpt lat="44.35067" lon="1.67231">
        <ele>324.824</ele>
        <time>2013-06-29T11:47:57Z</time>
      </trkpt>
      <trkpt lat="44.35071" lon="1.67232">
        <ele>325.122</ele>
        <time>2013-06-29T11:48:27Z</time>
      </trkpt>
      <trkpt lat="44.35072" lon="1.67232">
        <ele>325.588</ele>
        <time>2013-06-29T11:49:17Z</time>
      </trkpt>
      <trkpt lat="44.3507" lon="1.67234">
        <ele>326.625</ele>
        <time>2013-06-29T11:49:29Z</time>
      </trkpt>
      <trkpt lat="44.35069" lon="1.67235">
        <ele>325.689</ele>
        <time>2013-06-29T11:50:00Z</time>
      </trkpt>
      <trkpt lat="44.35071" lon="1.67236">
        <ele>325.992</ele>
        <time>2013-06-29T11:50:27Z</time>
      </trkpt>
      <trkpt lat="44.35072" lon="1.67237">
        <ele>325.627</ele>
        <time>2013-06-29T11:50:52Z</time>
      </trkpt>
      <trkpt lat="44.35075" lon="1.67236">
        <ele>325.809</ele>
        <time>2013-06-29T11:51:53Z</time>
      </trkpt>
      <trkpt lat="44.35088" lon="1.67237">
        <ele>325.543</ele>
        <time>2013-06-29T11:52:10Z</time>
      </trkpt>
      <trkpt lat="44.35097" lon="1.67214">
        <ele>325.367</ele>
        <time>2013-06-29T11:52:30Z</time>
      </trkpt>
      <trkpt lat="44.35087" lon="1.67193">
        <ele>324.789</ele>
        <time>2013-06-29T11:52:50Z</time>
      </trkpt>
      <trkpt lat="44.35085" lon="1.6719">
        <ele>324.857</ele>
        <time>2013-06-29T11:52:53Z</time>
      </trkpt>
      <trkpt lat="44.35063" lon="1.67168">
        <ele>324.51</ele>
        <time>2013-06-29T11:53:20Z</time>
      </trkpt>
      <trkpt lat="44.35055" lon="1.67161">
        <ele>324.386</ele>
        <time>2013-06-29T11:53:34Z</time>
      </trkpt>
      <trkpt lat="44.35043" lon="1.6715">
        <ele>324.607</ele>
        <time>2013-06-29T11:54:12Z</time>
      </trkpt>
      <trkpt lat="44.35034" lon="1.67135">
        <ele>324.607</ele>
        <time>2013-06-29T11:54:31Z</time>
      </trkpt>
      <trkpt lat="44.35034" lon="1.67114">
        <ele>324.796</ele>
        <time>2013-06-29T11:54:49Z</time>
      </trkpt>
      <trkpt lat="44.35021" lon="1.67092">
        <ele>323.843</ele>
        <time>2013-06-29T11:55:12Z</time>
      </trkpt>
      <trkpt lat="44.35018" lon="1.67083">
        <ele>324.138</ele>
        <time>2013-06-29T11:55:27Z</time>
      </trkpt>
      <trkpt lat="44.35029" lon="1.67065">
        <ele>323.389</ele>
        <time>2013-06-29T11:55:47Z</time>
      </trkpt>
      <trkpt lat="44.35033" lon="1.6706">
        <ele>322.922</ele>
        <time>2013-06-29T11:56:03Z</time>
      </trkpt>
      <trkpt lat="44.35019" lon="1.67078">
        <ele>324.155</ele>
        <time>2013-06-29T11:56:24Z</time>
      </trkpt>
      <trkpt lat="44.35016" lon="1.67076">
        <ele>323.803</ele>
        <time>2013-06-29T11:56:40Z</time>
      </trkpt>
      <trkpt lat="44.35013" lon="1.67079">
        <ele>323.792</ele>
        <time>2013-06-29T11:57:00Z</time>
      </trkpt>
      <trkpt lat="44.35017" lon="1.67079">
        <ele>324.605</ele>
        <time>2013-06-29T11:57:24Z</time>
      </trkpt>
      <trkpt lat="44.35017" lon="1.67081">
        <ele>324.436</ele>
        <time>2013-06-29T11:57:37Z</time>
      </trkpt>
      <trkpt lat="44.35017" lon="1.67082">
        <ele>323.531</ele>
        <time>2013-06-29T11:57:51Z</time>
      </trkpt>
      <trkpt lat="44.3502" lon="1.67089">
        <ele>323.801</ele>
        <time>2013-06-29T11:58:25Z</time>
      </trkpt>
      <trkpt lat="44.35018" lon="1.67091">
        <ele>323.437</ele>
        <time>2013-06-29T11:59:06Z</time>
      </trkpt>
      <trkpt lat="44.35018" lon="1.67097">
        <ele>323.515</ele>
        <time>2013-06-29T11:59:33Z</time>
      </trkpt>
      <trkpt lat="44.35014" lon="1.67106">
        <ele>323.142</ele>
        <time>2013-06-29T11:59:57Z</time>
      </trkpt>
      <trkpt lat="44.35021" lon="1.67099">
        <ele>323.391</ele>
        <time>2013-06-29T12:00:13Z</time>
      </trkpt>
      <trkpt lat="44.35025" lon="1.67088">
        <ele>322.859</ele>
        <time>2013-06-29T12:00:31Z</time>
      </trkpt>
      <trkpt lat="44.35021" lon="1.67083">
        <ele>322.967</ele>
        <time>2013-06-29T12:00:53Z</time>
      </trkpt>
      <trkpt lat="44.3502" lon="1.67086">
        <ele>323.235</ele>
        <time>2013-06-29T12:01:15Z</time>
      </trkpt>
      <trkpt lat="44.35015" lon="1.67086">
        <ele>323.317</ele>
        <time>2013-06-29T12:01:45Z</time>
      </trkpt>
      <trkpt lat="44.35018" lon="1.67089">
        <ele>323.611</ele>
        <time>2013-06-29T12:02:09Z</time>
      </trkpt>
      <trkpt lat="44.35016" lon="1.67085">
        <ele>323.692</ele>
        <time>2013-06-29T12:02:28Z</time>
      </trkpt>
      <trkpt lat="44.35016" lon="1.67087">
        <ele>322.689</ele>
        <time>2013-06-29T12:02:56Z</time>
      </trkpt>
      <trkpt lat="44.35016" lon="1.67086">
        <ele>323.968</ele>
        <time>2013-06-29T12:03:18Z</time>
      </trkpt>
      <trkpt lat="44.35018" lon="1.67083">
        <ele>323.296</ele>
        <time>2013-06-29T12:03:39Z</time>
      </trkpt>
      <trkpt lat="44.35014" lon="1.67086">
        <ele>323.629</ele>
        <time>2013-06-29T12:04:07Z</time>
      </trkpt>
      <trkpt lat="44.35007" lon="1.67088">
        <ele>324.097</ele>
        <time>2013-06-29T12:04:25Z</time>
      </trkpt>
      <trkpt lat="44.35012" lon="1.67092">
        <ele>323.846</ele>
        <time>2013-06-29T12:04:51Z</time>
      </trkpt>
      <trkpt lat="44.35016" lon="1.67084">
        <ele>324.296</ele>
        <time>2013-06-29T12:05:24Z</time>
      </trkpt>
      <trkpt lat="44.35016" lon="1.67086">
        <ele>325.165</ele>
        <time>2013-06-29T12:05:41Z</time>
      </trkpt>
      <trkpt lat="44.3502" lon="1.67088">
        <ele>325.55</ele>
        <time>2013-06-29T12:06:13Z</time>
      </trkpt>
      <trkpt lat="44.3502" lon="1.67087">
        <ele>325.148</ele>
        <time>2013-06-29T12:06:32Z</time>
      </trkpt>
      <trkpt lat="44.35016" lon="1.67102">
        <ele>325.252</ele>
        <time>2013-06-29T12:06:50Z</time>
      </trkpt>
      <trkpt lat="44.35" lon="1.67107">
        <ele>325.535</ele>
        <time>2013-06-29T12:07:08Z</time>
      </trkpt>
      <trkpt lat="44.34998" lon="1.67105">
        <ele>325.622</ele>
        <time>2013-06-29T12:07:32Z</time>
      </trkpt>
      <trkpt lat="44.34995" lon="1.67103">
        <ele>325.945</ele>
        <time>2013-06-29T12:08:16Z</time>
      </trkpt>
      <trkpt lat="44.3497" lon="1.6708">
        <ele>325.916</ele>
        <time>2013-06-29T12:08:45Z</time>
      </trkpt>
      <trkpt lat="44.34947" lon="1.67057">
        <ele>325.581</ele>
        <time>2013-06-29T12:09:12Z</time>
      </trkpt>
      <trkpt lat="44.34926" lon="1.67037">
        <ele>325.759</ele>
        <time>2013-06-29T12:09:36Z</time>
      </trkpt>
      <trkpt lat="44.34902" lon="1.67016">
        <ele>325.338</ele>
        <time>2013-06-29T12:10:01Z</time>
      </trkpt>
      <trkpt lat="44.3488" lon="1.66995">
        <ele>325.512</ele>
        <time>2013-06-29T12:10:25Z</time>
      </trkpt>
      <trkpt lat="44.34857" lon="1.66972">
        <ele>325.088</ele>
        <time>2013-06-29T12:10:50Z</time>
      </trkpt>
      <trkpt lat="44.34834" lon="1.66945">
        <ele>324.992</ele>
        <time>2013-06-29T12:11:16Z</time>
      </trkpt>
      <trkpt lat="44.34815" lon="1.66914">
        <ele>324.364</ele>
        <time>2013-06-29T12:11:42Z</time>
      </trkpt>
      <trkpt lat="44.34802" lon="1.66889">
        <ele>323.205</ele>
        <time>2013-06-29T12:12:02Z</time>
      </trkpt>
      <trkpt lat="44.34788" lon="1.66864">
        <ele>323.097</ele>
        <time>2013-06-29T12:12:23Z</time>
      </trkpt>
      <trkpt lat="44.34769" lon="1.66834">
        <ele>322.561</ele>
        <time>2013-06-29T12:12:48Z</time>
      </trkpt>
      <trkpt lat="44.34747" lon="1.66797">
        <ele>322.567</ele>
        <time>2013-06-29T12:13:19Z</time>
      </trkpt>
      <trkpt lat="44.34742" lon="1.66787">
        <ele>322.161</ele>
        <time>2013-06-29T12:13:28Z</time>
      </trkpt>
      <trkpt lat="44.34729" lon="1.6675">
        <ele>322.288</ele>
        <time>2013-06-29T12:13:55Z</time>
      </trkpt>
      <trkpt lat="44.34718" lon="1.66714">
        <ele>322.333</ele>
        <time>2013-06-29T12:14:21Z</time>
      </trkpt>
      <trkpt lat="44.3471" lon="1.66684">
        <ele>323.037</ele>
        <time>2013-06-29T12:14:43Z</time>
      </trkpt>
      <trkpt lat="44.34714" lon="1.66656">
        <ele>322.73</ele>
        <time>2013-06-29T12:15:03Z</time>
      </trkpt>
      <trkpt lat="44.34719" lon="1.66619">
        <ele>321.647</ele>
        <time>2013-06-29T12:15:29Z</time>
      </trkpt>
      <trkpt lat="44.34726" lon="1.66573">
        <ele>321.758</ele>
        <time>2013-06-29T12:15:59Z</time>
      </trkpt>
      <trkpt lat="44.34721" lon="1.66531">
        <ele>322.43</ele>
        <time>2013-06-29T12:16:26Z</time>
      </trkpt>
      <trkpt lat="44.34712" lon="1.66486">
        <ele>322.659</ele>
        <time>2013-06-29T12:16:56Z</time>
      </trkpt>
      <trkpt lat="44.34703" lon="1.66443">
        <ele>322.167</ele>
        <time>2013-06-29T12:17:25Z</time>
      </trkpt>
      <trkpt lat="44.34694" lon="1.66399">
        <ele>321.976</ele>
        <time>2013-06-29T12:17:55Z</time>
      </trkpt>
      <trkpt lat="44.34685" lon="1.66353">
        <ele>321.176</ele>
        <time>2013-06-29T12:18:26Z</time>
      </trkpt>
      <trkpt lat="44.34677" lon="1.66309">
        <ele>320.808</ele>
        <time>2013-06-29T12:18:56Z</time>
      </trkpt>
      <trkpt lat="44.34671" lon="1.66267">
        <ele>320.726</ele>
        <time>2013-06-29T12:19:24Z</time>
      </trkpt>
      <trkpt lat="44.34665" lon="1.66228">
        <ele>319.287</ele>
        <time>2013-06-29T12:19:50Z</time>
      </trkpt>
      <trkpt lat="44.34656" lon="1.66182">
        <ele>320.171</ele>
        <time>2013-06-29T12:20:21Z</time>
      </trkpt>
      <trkpt lat="44.34648" lon="1.66141">
        <ele>320.106</ele>
        <time>2013-06-29T12:20:49Z</time>
      </trkpt>
      <trkpt lat="44.34643" lon="1.66099">
        <ele>320.306</ele>
        <time>2013-06-29T12:21:18Z</time>
      </trkpt>
      <trkpt lat="44.34631" lon="1.66053">
        <ele>320.444</ele>
        <time>2013-06-29T12:21:50Z</time>
      </trkpt>
      <trkpt lat="44.34624" lon="1.66007">
        <ele>318.842</ele>
        <time>2013-06-29T12:22:21Z</time>
      </trkpt>
      <trkpt lat="44.34617" lon="1.65961">
        <ele>319.708</ele>
        <time>2013-06-29T12:22:52Z</time>
      </trkpt>
      <trkpt lat="44.34608" lon="1.6592">
        <ele>318.126</ele>
        <time>2013-06-29T12:23:20Z</time>
      </trkpt>
      <trkpt lat="44.34595" lon="1.6588">
        <ele>318.397</ele>
        <time>2013-06-29T12:23:49Z</time>
      </trkpt>
      <trkpt lat="44.34591" lon="1.6587">
        <ele>318.535</ele>
        <time>2013-06-29T12:24:03Z</time>
      </trkpt>
      <trkpt lat="44.3459" lon="1.6587">
        <ele>319.294</ele>
        <time>2013-06-29T12:24:21Z</time>
      </trkpt>
      <trkpt lat="44.34589" lon="1.6587">
        <ele>319.712</ele>
        <time>2013-06-29T12:24:53Z</time>
      </trkpt>
      <trkpt lat="44.34589" lon="1.65869">
        <ele>318.38</ele>
        <time>2013-06-29T12:25:25Z</time>
      </trkpt>
      <trkpt lat="44.34579" lon="1.65845">
        <ele>318.771</ele>
        <time>2013-06-29T12:25:44Z</time>
      </trkpt>
      <trkpt lat="44.34566" lon="1.65816">
        <ele>318.173</ele>
        <time>2013-06-29T12:26:07Z</time>
      </trkpt>
      <trkpt lat="44.34551" lon="1.65783">
        <ele>317.529</ele>
        <time>2013-06-29T12:26:32Z</time>
      </trkpt>
      <trkpt lat="44.34536" lon="1.65747">
        <ele>316.833</ele>
        <time>2013-06-29T12:26:58Z</time>
      </trkpt>
      <trkpt lat="44.34517" lon="1.65705">
        <ele>316.337</ele>
        <time>2013-06-29T12:27:29Z</time>
      </trkpt>
      <trkpt lat="44.34503" lon="1.65672">
        <ele>316.885</ele>
        <time>2013-06-29T12:27:55Z</time>
      </trkpt>
      <trkpt lat="44.34502" lon="1.65668">
        <ele>316.689</ele>
        <time>2013-06-29T12:27:58Z</time>
      </trkpt>
      <trkpt lat="44.3451" lon="1.65628">
        <ele>317.254</ele>
        <time>2013-06-29T12:28:25Z</time>
      </trkpt>
      <trkpt lat="44.34519" lon="1.65598">
        <ele>317.608</ele>
        <time>2013-06-29T12:28:48Z</time>
      </trkpt>
      <trkpt lat="44.34522" lon="1.65576">
        <ele>317.611</ele>
        <time>2013-06-29T12:29:06Z</time>
      </trkpt>
      <trkpt lat="44.34529" lon="1.65557">
        <ele>317.888</ele>
        <time>2013-06-29T12:29:24Z</time>
      </trkpt>
      <trkpt lat="44.34534" lon="1.65536">
        <ele>317.457</ele>
        <time>2013-06-29T12:29:42Z</time>
      </trkpt>
      <trkpt lat="44.34543" lon="1.65506">
        <ele>316.5</ele>
        <time>2013-06-29T12:30:05Z</time>
      </trkpt>
      <trkpt lat="44.34549" lon="1.65482">
        <ele>316.179</ele>
        <time>2013-06-29T12:30:21Z</time>
      </trkpt>
      <trkpt lat="44.34556" lon="1.65453">
        <ele>315.92</ele>
        <time>2013-06-29T12:30:41Z</time>
      </trkpt>
      <trkpt lat="44.34565" lon="1.65428">
        <ele>315.565</ele>
        <time>2013-06-29T12:30:59Z</time>
      </trkpt>
      <trkpt lat="44.34572" lon="1.65405">
        <ele>314.618</ele>
        <time>2013-06-29T12:31:15Z</time>
      </trkpt>
      <trkpt lat="44.3458" lon="1.65377">
        <ele>314.187</ele>
        <time>2013-06-29T12:31:35Z</time>
      </trkpt>
      <trkpt lat="44.34585" lon="1.65353">
        <ele>313.595</ele>
        <time>2013-06-29T12:31:53Z</time>
      </trkpt>
      <trkpt lat="44.34586" lon="1.65346">
        <ele>313.986</ele>
        <time>2013-06-29T12:31:58Z</time>
      </trkpt>
      <trkpt lat="44.34594" lon="1.65324">
        <ele>313.383</ele>
        <time>2013-06-29T12:32:18Z</time>
      </trkpt>
      <trkpt lat="44.346" lon="1.65297">
        <ele>312.887</ele>
        <time>2013-06-29T12:32:36Z</time>
      </trkpt>
      <trkpt lat="44.3461" lon="1.65266">
        <ele>312.411</ele>
        <time>2013-06-29T12:32:57Z</time>
      </trkpt>
      <trkpt lat="44.34617" lon="1.65235">
        <ele>311.674</ele>
        <time>2013-06-29T12:33:19Z</time>
      </trkpt>
      <trkpt lat="44.34624" lon="1.6521">
        <ele>310.332</ele>
        <time>2013-06-29T12:33:36Z</time>
      </trkpt>
      <trkpt lat="44.3463" lon="1.65188">
        <ele>310.01</ele>
        <time>2013-06-29T12:33:51Z</time>
      </trkpt>
      <trkpt lat="44.34638" lon="1.65156">
        <ele>309.307</ele>
        <time>2013-06-29T12:34:12Z</time>
      </trkpt>
      <trkpt lat="44.34644" lon="1.65122">
        <ele>309.289</ele>
        <time>2013-06-29T12:34:34Z</time>
      </trkpt>
      <trkpt lat="44.34649" lon="1.65102">
        <ele>308.901</ele>
        <time>2013-06-29T12:34:49Z</time>
      </trkpt>
      <trkpt lat="44.34655" lon="1.65076">
        <ele>308.643</ele>
        <time>2013-06-29T12:35:07Z</time>
      </trkpt>
      <trkpt lat="44.34662" lon="1.6505">
        <ele>308.524</ele>
        <time>2013-06-29T12:35:24Z</time>
      </trkpt>
      <trkpt lat="44.34663" lon="1.65044">
        <ele>308.355</ele>
        <time>2013-06-29T12:35:28Z</time>
      </trkpt>
      <trkpt lat="44.34665" lon="1.65035">
        <ele>308.287</ele>
        <time>2013-06-29T12:35:33Z</time>
      </trkpt>
      <trkpt lat="44.34667" lon="1.6502">
        <ele>308.624</ele>
        <time>2013-06-29T12:35:43Z</time>
      </trkpt>
      <trkpt lat="44.34669" lon="1.65016">
        <ele>308.608</ele>
        <time>2013-06-29T12:35:46Z</time>
      </trkpt>
      <trkpt lat="44.34671" lon="1.65004">
        <ele>308.495</ele>
        <time>2013-06-29T12:35:54Z</time>
      </trkpt>
      <trkpt lat="44.34675" lon="1.64986">
        <ele>308.439</ele>
        <time>2013-06-29T12:36:09Z</time>
      </trkpt>
      <trkpt lat="44.34679" lon="1.64967">
        <ele>309.114</ele>
        <time>2013-06-29T12:36:23Z</time>
      </trkpt>
      <trkpt lat="44.34686" lon="1.64943">
        <ele>309.39</ele>
        <time>2013-06-29T12:36:41Z</time>
      </trkpt>
      <trkpt lat="44.34694" lon="1.64914">
        <ele>309.167</ele>
        <time>2013-06-29T12:37:00Z</time>
      </trkpt>
      <trkpt lat="44.34698" lon="1.64893">
        <ele>310.066</ele>
        <time>2013-06-29T12:37:16Z</time>
      </trkpt>
      <trkpt lat="44.34705" lon="1.64862">
        <ele>309.273</ele>
        <time>2013-06-29T12:37:37Z</time>
      </trkpt>
      <trkpt lat="44.3471" lon="1.64833">
        <ele>309.27</ele>
        <time>2013-06-29T12:37:56Z</time>
      </trkpt>
      <trkpt lat="44.34713" lon="1.64812">
        <ele>309.819</ele>
        <time>2013-06-29T12:38:12Z</time>
      </trkpt>
      <trkpt lat="44.34713" lon="1.64809">
        <ele>308.839</ele>
        <time>2013-06-29T12:38:14Z</time>
      </trkpt>
      <trkpt lat="44.34714" lon="1.64781">
        <ele>309.718</ele>
        <time>2013-06-29T12:38:32Z</time>
      </trkpt>
      <trkpt lat="44.34716" lon="1.64752">
        <ele>310.444</ele>
        <time>2013-06-29T12:38:52Z</time>
      </trkpt>
      <trkpt lat="44.34716" lon="1.64724">
        <ele>310.142</ele>
        <time>2013-06-29T12:39:11Z</time>
      </trkpt>
      <trkpt lat="44.34714" lon="1.64699">
        <ele>310.688</ele>
        <time>2013-06-29T12:39:29Z</time>
      </trkpt>
      <trkpt lat="44.34711" lon="1.64677">
        <ele>310.816</ele>
        <time>2013-06-29T12:39:44Z</time>
      </trkpt>
      <trkpt lat="44.34709" lon="1.64672">
        <ele>311.087</ele>
        <time>2013-06-29T12:39:48Z</time>
      </trkpt>
      <trkpt lat="44.34699" lon="1.64642">
        <ele>310.368</ele>
        <time>2013-06-29T12:40:10Z</time>
      </trkpt>
      <trkpt lat="44.3469" lon="1.64612">
        <ele>310.808</ele>
        <time>2013-06-29T12:40:30Z</time>
      </trkpt>
      <trkpt lat="44.3468" lon="1.64579">
        <ele>309.307</ele>
        <time>2013-06-29T12:40:53Z</time>
      </trkpt>
      <trkpt lat="44.34671" lon="1.64539">
        <ele>309.644</ele>
        <time>2013-06-29T12:41:20Z</time>
      </trkpt>
      <trkpt lat="44.34661" lon="1.645">
        <ele>309.652</ele>
        <time>2013-06-29T12:41:46Z</time>
      </trkpt>
      <trkpt lat="44.34652" lon="1.64463">
        <ele>309.669</ele>
        <time>2013-06-29T12:42:11Z</time>
      </trkpt>
      <trkpt lat="44.34643" lon="1.6442">
        <ele>309.737</ele>
        <time>2013-06-29T12:42:39Z</time>
      </trkpt>
      <trkpt lat="44.34637" lon="1.6439">
        <ele>309.894</ele>
        <time>2013-06-29T12:42:59Z</time>
      </trkpt>
      <trkpt lat="44.34629" lon="1.64352">
        <ele>310.008</ele>
        <time>2013-06-29T12:43:25Z</time>
      </trkpt>
      <trkpt lat="44.34621" lon="1.64316">
        <ele>310.289</ele>
        <time>2013-06-29T12:43:49Z</time>
      </trkpt>
      <trkpt lat="44.34616" lon="1.64291">
        <ele>310.55</ele>
        <time>2013-06-29T12:44:09Z</time>
      </trkpt>
      <trkpt lat="44.34604" lon="1.64256">
        <ele>311.104</ele>
        <time>2013-06-29T12:44:34Z</time>
      </trkpt>
      <trkpt lat="44.34589" lon="1.6422">
        <ele>312.366</ele>
        <time>2013-06-29T12:45:02Z</time>
      </trkpt>
      <trkpt lat="44.34576" lon="1.64192">
        <ele>312.823</ele>
        <time>2013-06-29T12:45:24Z</time>
      </trkpt>
      <trkpt lat="44.34558" lon="1.64158">
        <ele>313.671</ele>
        <time>2013-06-29T12:45:53Z</time>
      </trkpt>
      <trkpt lat="44.34541" lon="1.64128">
        <ele>314.36</ele>
        <time>2013-06-29T12:46:19Z</time>
      </trkpt>
      <trkpt lat="44.34529" lon="1.64102">
        <ele>316.219</ele>
        <time>2013-06-29T12:46:42Z</time>
      </trkpt>
      <trkpt lat="44.34516" lon="1.64078">
        <ele>315.923</ele>
        <time>2013-06-29T12:47:02Z</time>
      </trkpt>
      <trkpt lat="44.34508" lon="1.64058">
        <ele>317.114</ele>
        <time>2013-06-29T12:47:23Z</time>
      </trkpt>
      <trkpt lat="44.34507" lon="1.64058">
        <ele>316.429</ele>
        <time>2013-06-29T12:47:47Z</time>
      </trkpt>
      <trkpt lat="44.34515" lon="1.64059">
        <ele>316.401</ele>
        <time>2013-06-29T12:48:19Z</time>
      </trkpt>
      <trkpt lat="44.34512" lon="1.64057">
        <ele>316.214</ele>
        <time>2013-06-29T12:49:06Z</time>
      </trkpt>
      <trkpt lat="44.34512" lon="1.64054">
        <ele>316.679</ele>
        <time>2013-06-29T12:49:36Z</time>
      </trkpt>
      <trkpt lat="44.34508" lon="1.64062">
        <ele>317.13</ele>
        <time>2013-06-29T12:50:22Z</time>
      </trkpt>
      <trkpt lat="44.34505" lon="1.64063">
        <ele>316.642</ele>
        <time>2013-06-29T12:51:42Z</time>
      </trkpt>
      <trkpt lat="44.34512" lon="1.64071">
        <ele>317.14</ele>
        <time>2013-06-29T12:52:45Z</time>
      </trkpt>
      <trkpt lat="44.34512" lon="1.64065">
        <ele>316.958</ele>
        <time>2013-06-29T12:53:12Z</time>
      </trkpt>
      <trkpt lat="44.34514" lon="1.64056">
        <ele>316.523</ele>
        <time>2013-06-29T12:53:44Z</time>
      </trkpt>
      <trkpt lat="44.34512" lon="1.64055">
        <ele>316.795</ele>
        <time>2013-06-29T12:54:51Z</time>
      </trkpt>
      <trkpt lat="44.34517" lon="1.64061">
        <ele>317.057</ele>
        <time>2013-06-29T12:56:31Z</time>
      </trkpt>
      <trkpt lat="44.34512" lon="1.64059">
        <ele>316.894</ele>
        <time>2013-06-29T12:57:09Z</time>
      </trkpt>
      <trkpt lat="44.34521" lon="1.64062">
        <ele>316.734</ele>
        <time>2013-06-29T12:58:10Z</time>
      </trkpt>
      <trkpt lat="44.34521" lon="1.64057">
        <ele>315.573</ele>
        <time>2013-06-29T12:58:46Z</time>
      </trkpt>
      <trkpt lat="44.34512" lon="1.64062">
        <ele>315.866</ele>
        <time>2013-06-29T12:59:21Z</time>
      </trkpt>
      <trkpt lat="44.34509" lon="1.64063">
        <ele>317.846</ele>
        <time>2013-06-29T13:00:15Z</time>
      </trkpt>
      <trkpt lat="44.34508" lon="1.64059">
        <ele>318.119</ele>
        <time>2013-06-29T13:00:47Z</time>
      </trkpt>
      <trkpt lat="44.34506" lon="1.64059">
        <ele>317.354</ele>
        <time>2013-06-29T13:01:04Z</time>
      </trkpt>
      <trkpt lat="44.34505" lon="1.64042">
        <ele>318.48</ele>
        <time>2013-06-29T13:01:19Z</time>
      </trkpt>
      <trkpt lat="44.34504" lon="1.6402">
        <ele>319.775</ele>
        <time>2013-06-29T13:01:35Z</time>
      </trkpt>
      <trkpt lat="44.345" lon="1.63997">
        <ele>320.226</ele>
        <time>2013-06-29T13:01:51Z</time>
      </trkpt>
      <trkpt lat="44.34496" lon="1.63972">
        <ele>320.152</ele>
        <time>2013-06-29T13:02:08Z</time>
      </trkpt>
      <trkpt lat="44.34488" lon="1.63941">
        <ele>319.154</ele>
        <time>2013-06-29T13:02:27Z</time>
      </trkpt>
      <trkpt lat="44.34479" lon="1.63911">
        <ele>318.288</ele>
        <time>2013-06-29T13:02:48Z</time>
      </trkpt>
      <trkpt lat="44.34469" lon="1.6387">
        <ele>317.905</ele>
        <time>2013-06-29T13:03:14Z</time>
      </trkpt>
      <trkpt lat="44.34459" lon="1.6383">
        <ele>317.945</ele>
        <time>2013-06-29T13:03:40Z</time>
      </trkpt>
      <trkpt lat="44.34451" lon="1.63786">
        <ele>318.336</ele>
        <time>2013-06-29T13:04:08Z</time>
      </trkpt>
      <trkpt lat="44.34447" lon="1.63741">
        <ele>318.102</ele>
        <time>2013-06-29T13:04:36Z</time>
      </trkpt>
      <trkpt lat="44.34445" lon="1.63722">
        <ele>318.53</ele>
        <time>2013-06-29T13:04:50Z</time>
      </trkpt>
      <trkpt lat="44.34442" lon="1.63699">
        <ele>318.692</ele>
        <time>2013-06-29T13:05:04Z</time>
      </trkpt>
      <trkpt lat="44.34441" lon="1.63688">
        <ele>318.614</ele>
        <time>2013-06-29T13:05:11Z</time>
      </trkpt>
      <trkpt lat="44.34438" lon="1.63651">
        <ele>318.636</ele>
        <time>2013-06-29T13:05:34Z</time>
      </trkpt>
      <trkpt lat="44.34438" lon="1.63618">
        <ele>318.745</ele>
        <time>2013-06-29T13:05:54Z</time>
      </trkpt>
      <trkpt lat="44.3444" lon="1.63593">
        <ele>319.19</ele>
        <time>2013-06-29T13:06:09Z</time>
      </trkpt>
      <trkpt lat="44.3444" lon="1.63561">
        <ele>319.278</ele>
        <time>2013-06-29T13:06:30Z</time>
      </trkpt>
      <trkpt lat="44.34443" lon="1.63534">
        <ele>319.15</ele>
        <time>2013-06-29T13:06:49Z</time>
      </trkpt>
      <trkpt lat="44.34445" lon="1.63513">
        <ele>318.83</ele>
        <time>2013-06-29T13:07:03Z</time>
      </trkpt>
      <trkpt lat="44.34446" lon="1.63501">
        <ele>318.327</ele>
        <time>2013-06-29T13:07:11Z</time>
      </trkpt>
      <trkpt lat="44.34449" lon="1.63474">
        <ele>317.312</ele>
        <time>2013-06-29T13:07:28Z</time>
      </trkpt>
      <trkpt lat="44.34453" lon="1.63446">
        <ele>317.473</ele>
        <time>2013-06-29T13:07:46Z</time>
      </trkpt>
      <trkpt lat="44.34454" lon="1.6344">
        <ele>317.271</ele>
        <time>2013-06-29T13:07:50Z</time>
      </trkpt>
      <trkpt lat="44.34457" lon="1.63409">
        <ele>317.417</ele>
        <time>2013-06-29T13:08:08Z</time>
      </trkpt>
      <trkpt lat="44.34461" lon="1.63374">
        <ele>317.443</ele>
        <time>2013-06-29T13:08:29Z</time>
      </trkpt>
      <trkpt lat="44.34464" lon="1.63349">
        <ele>317.23</ele>
        <time>2013-06-29T13:08:46Z</time>
      </trkpt>
      <trkpt lat="44.34467" lon="1.63319">
        <ele>317.088</ele>
        <time>2013-06-29T13:09:05Z</time>
      </trkpt>
      <trkpt lat="44.34471" lon="1.63295">
        <ele>316.501</ele>
        <time>2013-06-29T13:09:21Z</time>
      </trkpt>
      <trkpt lat="44.34473" lon="1.63282">
        <ele>316.978</ele>
        <time>2013-06-29T13:09:30Z</time>
      </trkpt>
      <trkpt lat="44.3448" lon="1.63251">
        <ele>316.457</ele>
        <time>2013-06-29T13:09:48Z</time>
      </trkpt>
      <trkpt lat="44.34486" lon="1.63221">
        <ele>315.731</ele>
        <time>2013-06-29T13:10:07Z</time>
      </trkpt>
      <trkpt lat="44.34494" lon="1.63192">
        <ele>315.312</ele>
        <time>2013-06-29T13:10:26Z</time>
      </trkpt>
      <trkpt lat="44.34501" lon="1.63161">
        <ele>314.891</ele>
        <time>2013-06-29T13:10:46Z</time>
      </trkpt>
      <trkpt lat="44.34507" lon="1.63136">
        <ele>314.635</ele>
        <time>2013-06-29T13:11:03Z</time>
      </trkpt>
      <trkpt lat="44.34515" lon="1.63109">
        <ele>313.9</ele>
        <time>2013-06-29T13:11:20Z</time>
      </trkpt>
      <trkpt lat="44.34519" lon="1.63093">
        <ele>313.456</ele>
        <time>2013-06-29T13:11:32Z</time>
      </trkpt>
      <trkpt lat="44.34526" lon="1.63069">
        <ele>312.879</ele>
        <time>2013-06-29T13:11:48Z</time>
      </trkpt>
      <trkpt lat="44.34537" lon="1.63042">
        <ele>312.547</ele>
        <time>2013-06-29T13:12:07Z</time>
      </trkpt>
      <trkpt lat="44.34545" lon="1.63021">
        <ele>311.745</ele>
        <time>2013-06-29T13:12:20Z</time>
      </trkpt>
      <trkpt lat="44.34553" lon="1.62995">
        <ele>311.444</ele>
        <time>2013-06-29T13:12:38Z</time>
      </trkpt>
      <trkpt lat="44.3456" lon="1.62974">
        <ele>311.599</ele>
        <time>2013-06-29T13:12:55Z</time>
      </trkpt>
      <trkpt lat="44.3457" lon="1.62942">
        <ele>311.02</ele>
        <time>2013-06-29T13:13:15Z</time>
      </trkpt>
      <trkpt lat="44.34583" lon="1.6291">
        <ele>311.163</ele>
        <time>2013-06-29T13:13:36Z</time>
      </trkpt>
      <trkpt lat="44.34595" lon="1.62879">
        <ele>310.96</ele>
        <time>2013-06-29T13:13:57Z</time>
      </trkpt>
      <trkpt lat="44.34609" lon="1.62852">
        <ele>310.392</ele>
        <time>2013-06-29T13:14:18Z</time>
      </trkpt>
      <trkpt lat="44.34617" lon="1.62823">
        <ele>310.411</ele>
        <time>2013-06-29T13:14:40Z</time>
      </trkpt>
      <trkpt lat="44.34624" lon="1.62798">
        <ele>310.015</ele>
        <time>2013-06-29T13:14:59Z</time>
      </trkpt>
      <trkpt lat="44.34633" lon="1.62769">
        <ele>309.632</ele>
        <time>2013-06-29T13:15:18Z</time>
      </trkpt>
      <trkpt lat="44.34643" lon="1.62737">
        <ele>308.801</ele>
        <time>2013-06-29T13:15:39Z</time>
      </trkpt>
      <trkpt lat="44.34654" lon="1.62703">
        <ele>308.378</ele>
        <time>2013-06-29T13:16:02Z</time>
      </trkpt>
      <trkpt lat="44.34663" lon="1.62667">
        <ele>308.026</ele>
        <time>2013-06-29T13:16:26Z</time>
      </trkpt>
      <trkpt lat="44.34675" lon="1.62623">
        <ele>307.668</ele>
        <time>2013-06-29T13:16:55Z</time>
      </trkpt>
      <trkpt lat="44.34685" lon="1.62584">
        <ele>306.253</ele>
        <time>2013-06-29T13:17:21Z</time>
      </trkpt>
      <trkpt lat="44.34693" lon="1.62552">
        <ele>304.35</ele>
        <time>2013-06-29T13:17:44Z</time>
      </trkpt>
      <trkpt lat="44.34701" lon="1.62527">
        <ele>302.772</ele>
        <time>2013-06-29T13:18:05Z</time>
      </trkpt>
      <trkpt lat="44.34703" lon="1.62502">
        <ele>301.734</ele>
        <time>2013-06-29T13:18:22Z</time>
      </trkpt>
      <trkpt lat="44.34708" lon="1.62472">
        <ele>300.435</ele>
        <time>2013-06-29T13:18:41Z</time>
      </trkpt>
      <trkpt lat="44.34711" lon="1.62437">
        <ele>298.88</ele>
        <time>2013-06-29T13:19:04Z</time>
      </trkpt>
      <trkpt lat="44.34712" lon="1.6242">
        <ele>298.17</ele>
        <time>2013-06-29T13:19:15Z</time>
      </trkpt>
      <trkpt lat="44.3471" lon="1.6239">
        <ele>297.727</ele>
        <time>2013-06-29T13:19:35Z</time>
      </trkpt>
      <trkpt lat="44.34708" lon="1.62363">
        <ele>296.596</ele>
        <time>2013-06-29T13:19:53Z</time>
      </trkpt>
      <trkpt lat="44.34706" lon="1.62353">
        <ele>296.013</ele>
        <time>2013-06-29T13:20:00Z</time>
      </trkpt>
      <trkpt lat="44.34706" lon="1.62319">
        <ele>294.431</ele>
        <time>2013-06-29T13:20:23Z</time>
      </trkpt>
      <trkpt lat="44.34707" lon="1.62288">
        <ele>293.396</ele>
        <time>2013-06-29T13:20:45Z</time>
      </trkpt>
      <trkpt lat="44.34709" lon="1.62264">
        <ele>292.897</ele>
        <time>2013-06-29T13:21:02Z</time>
      </trkpt>
      <trkpt lat="44.3471" lon="1.62239">
        <ele>292.045</ele>
        <time>2013-06-29T13:21:19Z</time>
      </trkpt>
      <trkpt lat="44.34711" lon="1.62218">
        <ele>291.249</ele>
        <time>2013-06-29T13:21:33Z</time>
      </trkpt>
      <trkpt lat="44.34712" lon="1.62188">
        <ele>291.238</ele>
        <time>2013-06-29T13:21:53Z</time>
      </trkpt>
      <trkpt lat="44.34712" lon="1.62166">
        <ele>290.624</ele>
        <time>2013-06-29T13:22:07Z</time>
      </trkpt>
      <trkpt lat="44.34711" lon="1.62136">
        <ele>290.175</ele>
        <time>2013-06-29T13:22:26Z</time>
      </trkpt>
      <trkpt lat="44.34711" lon="1.62109">
        <ele>290.19</ele>
        <time>2013-06-29T13:22:43Z</time>
      </trkpt>
      <trkpt lat="44.3471" lon="1.62086">
        <ele>289.749</ele>
        <time>2013-06-29T13:23:00Z</time>
      </trkpt>
      <trkpt lat="44.34711" lon="1.6208">
        <ele>289.693</ele>
        <time>2013-06-29T13:23:14Z</time>
      </trkpt>
      <trkpt lat="44.34711" lon="1.62045">
        <ele>289.289</ele>
        <time>2013-06-29T13:23:37Z</time>
      </trkpt>
      <trkpt lat="44.34712" lon="1.62008">
        <ele>288.151</ele>
        <time>2013-06-29T13:24:01Z</time>
      </trkpt>
      <trkpt lat="44.34711" lon="1.61973">
        <ele>287.532</ele>
        <time>2013-06-29T13:24:24Z</time>
      </trkpt>
      <trkpt lat="44.34709" lon="1.61941">
        <ele>286.01</ele>
        <time>2013-06-29T13:24:47Z</time>
      </trkpt>
      <trkpt lat="44.3471" lon="1.61922">
        <ele>285.131</ele>
        <time>2013-06-29T13:25:10Z</time>
      </trkpt>
      <trkpt lat="44.34712" lon="1.6192">
        <ele>285.469</ele>
        <time>2013-06-29T13:25:31Z</time>
      </trkpt>
      <trkpt lat="44.34712" lon="1.61917">
        <ele>285.373</ele>
        <time>2013-06-29T13:26:26Z</time>
      </trkpt>
      <trkpt lat="44.3471" lon="1.61919">
        <ele>284.555</ele>
        <time>2013-06-29T13:27:00Z</time>
      </trkpt>
      <trkpt lat="44.3471" lon="1.61917">
        <ele>284.209</ele>
        <time>2013-06-29T13:28:08Z</time>
      </trkpt>
      <trkpt lat="44.3471" lon="1.61917">
        <ele>284.426</ele>
        <time>2013-06-29T13:28:44Z</time>
      </trkpt>
      <trkpt lat="44.34711" lon="1.61918">
        <ele>284.722</ele>
        <time>2013-06-29T13:29:08Z</time>
      </trkpt>
      <trkpt lat="44.34707" lon="1.61904">
        <ele>283.133</ele>
        <time>2013-06-29T13:29:26Z</time>
      </trkpt>
      <trkpt lat="44.34709" lon="1.61864">
        <ele>281.68</ele>
        <time>2013-06-29T13:29:55Z</time>
      </trkpt>
      <trkpt lat="44.3471" lon="1.61835">
        <ele>280.716</ele>
        <time>2013-06-29T13:30:15Z</time>
      </trkpt>
      <trkpt lat="44.34711" lon="1.61797">
        <ele>278.376</ele>
        <time>2013-06-29T13:30:40Z</time>
      </trkpt>
      <trkpt lat="44.3471" lon="1.61761">
        <ele>276.143</ele>
        <time>2013-06-29T13:31:04Z</time>
      </trkpt>
      <trkpt lat="44.3471" lon="1.61733">
        <ele>272.599</ele>
        <time>2013-06-29T13:31:23Z</time>
      </trkpt>
      <trkpt lat="44.34711" lon="1.61724">
        <ele>272.242</ele>
        <time>2013-06-29T13:31:30Z</time>
      </trkpt>
      <trkpt lat="44.34717" lon="1.61695">
        <ele>270.891</ele>
        <time>2013-06-29T13:31:52Z</time>
      </trkpt>
      <trkpt lat="44.34726" lon="1.61665">
        <ele>267.972</ele>
        <time>2013-06-29T13:32:15Z</time>
      </trkpt>
      <trkpt lat="44.34728" lon="1.61652">
        <ele>267.037</ele>
        <time>2013-06-29T13:32:33Z</time>
      </trkpt>
      <trkpt lat="44.3473" lon="1.61631">
        <ele>266.092</ele>
        <time>2013-06-29T13:32:48Z</time>
      </trkpt>
      <trkpt lat="44.3473" lon="1.616">
        <ele>265.355</ele>
        <time>2013-06-29T13:33:09Z</time>
      </trkpt>
      <trkpt lat="44.34732" lon="1.6158">
        <ele>265.457</ele>
        <time>2013-06-29T13:33:25Z</time>
      </trkpt>
      <trkpt lat="44.34743" lon="1.61553">
        <ele>265.881</ele>
        <time>2013-06-29T13:33:48Z</time>
      </trkpt>
      <trkpt lat="44.34746" lon="1.61548">
        <ele>266.377</ele>
        <time>2013-06-29T13:33:53Z</time>
      </trkpt>
      <trkpt lat="44.3476" lon="1.61527">
        <ele>266.979</ele>
        <time>2013-06-29T13:34:14Z</time>
      </trkpt>
      <trkpt lat="44.34774" lon="1.61503">
        <ele>268.103</ele>
        <time>2013-06-29T13:34:36Z</time>
      </trkpt>
      <trkpt lat="44.34786" lon="1.6148">
        <ele>267.995</ele>
        <time>2013-06-29T13:34:57Z</time>
      </trkpt>
      <trkpt lat="44.34795" lon="1.61457">
        <ele>267.029</ele>
        <time>2013-06-29T13:35:16Z</time>
      </trkpt>
      <trkpt lat="44.34806" lon="1.6143">
        <ele>267.634</ele>
        <time>2013-06-29T13:35:34Z</time>
      </trkpt>
      <trkpt lat="44.34811" lon="1.61398">
        <ele>268.277</ele>
        <time>2013-06-29T13:35:56Z</time>
      </trkpt>
      <trkpt lat="44.34812" lon="1.61375">
        <ele>271.282</ele>
        <time>2013-06-29T13:36:17Z</time>
      </trkpt>
      <trkpt lat="44.34814" lon="1.61357">
        <ele>272.396</ele>
        <time>2013-06-29T13:36:33Z</time>
      </trkpt>
      <trkpt lat="44.34817" lon="1.61335">
        <ele>274.341</ele>
        <time>2013-06-29T13:36:53Z</time>
      </trkpt>
      <trkpt lat="44.3482" lon="1.61312">
        <ele>275.719</ele>
        <time>2013-06-29T13:37:13Z</time>
      </trkpt>
      <trkpt lat="44.34823" lon="1.61295">
        <ele>277.407</ele>
        <time>2013-06-29T13:37:31Z</time>
      </trkpt>
      <trkpt lat="44.34825" lon="1.61272">
        <ele>278.655</ele>
        <time>2013-06-29T13:37:51Z</time>
      </trkpt>
      <trkpt lat="44.34826" lon="1.61263">
        <ele>277.752</ele>
        <time>2013-06-29T13:38:15Z</time>
      </trkpt>
      <trkpt lat="44.34826" lon="1.61253">
        <ele>278.816</ele>
        <time>2013-06-29T13:38:23Z</time>
      </trkpt>
      <trkpt lat="44.34828" lon="1.61212">
        <ele>279.656</ele>
        <time>2013-06-29T13:38:52Z</time>
      </trkpt>
      <trkpt lat="44.34828" lon="1.61183">
        <ele>280.262</ele>
        <time>2013-06-29T13:39:15Z</time>
      </trkpt>
      <trkpt lat="44.34827" lon="1.61155">
        <ele>281.246</ele>
        <time>2013-06-29T13:39:36Z</time>
      </trkpt>
      <trkpt lat="44.34825" lon="1.61129">
        <ele>281.241</ele>
        <time>2013-06-29T13:39:56Z</time>
      </trkpt>
      <trkpt lat="44.34824" lon="1.61106">
        <ele>282.911</ele>
        <time>2013-06-29T13:40:14Z</time>
      </trkpt>
      <trkpt lat="44.34818" lon="1.61081">
        <ele>283.085</ele>
        <time>2013-06-29T13:40:33Z</time>
      </trkpt>
      <trkpt lat="44.34812" lon="1.61049">
        <ele>283.842</ele>
        <time>2013-06-29T13:40:57Z</time>
      </trkpt>
      <trkpt lat="44.34807" lon="1.61014">
        <ele>285.138</ele>
        <time>2013-06-29T13:41:23Z</time>
      </trkpt>
      <trkpt lat="44.34803" lon="1.60982">
        <ele>285.672</ele>
        <time>2013-06-29T13:41:47Z</time>
      </trkpt>
      <trkpt lat="44.34803" lon="1.60976">
        <ele>285.952</ele>
        <time>2013-06-29T13:41:51Z</time>
      </trkpt>
      <trkpt lat="44.34799" lon="1.60941">
        <ele>285.876</ele>
        <time>2013-06-29T13:42:18Z</time>
      </trkpt>
      <trkpt lat="44.34799" lon="1.6094">
        <ele>286.172</ele>
        <time>2013-06-29T13:42:19Z</time>
      </trkpt>
      <trkpt lat="44.34798" lon="1.60904">
        <ele>286.121</ele>
        <time>2013-06-29T13:42:45Z</time>
      </trkpt>
      <trkpt lat="44.34798" lon="1.60882">
        <ele>286.199</ele>
        <time>2013-06-29T13:43:01Z</time>
      </trkpt>
      <trkpt lat="44.34797" lon="1.60855">
        <ele>286.188</ele>
        <time>2013-06-29T13:43:21Z</time>
      </trkpt>
      <trkpt lat="44.34796" lon="1.60818">
        <ele>286.168</ele>
        <time>2013-06-29T13:43:48Z</time>
      </trkpt>
      <trkpt lat="44.34794" lon="1.60801">
        <ele>286.036</ele>
        <time>2013-06-29T13:44:00Z</time>
      </trkpt>
      <trkpt lat="44.34795" lon="1.60758">
        <ele>286.173</ele>
        <time>2013-06-29T13:44:30Z</time>
      </trkpt>
      <trkpt lat="44.34794" lon="1.60721">
        <ele>287.255</ele>
        <time>2013-06-29T13:44:57Z</time>
      </trkpt>
      <trkpt lat="44.3479" lon="1.60687">
        <ele>287.345</ele>
        <time>2013-06-29T13:45:22Z</time>
      </trkpt>
      <trkpt lat="44.34788" lon="1.60656">
        <ele>287.101</ele>
        <time>2013-06-29T13:45:44Z</time>
      </trkpt>
      <trkpt lat="44.34787" lon="1.60628">
        <ele>287.271</ele>
        <time>2013-06-29T13:46:05Z</time>
      </trkpt>
      <trkpt lat="44.34787" lon="1.60595">
        <ele>287.709</ele>
        <time>2013-06-29T13:46:29Z</time>
      </trkpt>
      <trkpt lat="44.34789" lon="1.60559">
        <ele>286.706</ele>
        <time>2013-06-29T13:46:55Z</time>
      </trkpt>
      <trkpt lat="44.34791" lon="1.60538">
        <ele>286.926</ele>
        <time>2013-06-29T13:47:11Z</time>
      </trkpt>
      <trkpt lat="44.34797" lon="1.60507">
        <ele>285.534</ele>
        <time>2013-06-29T13:47:35Z</time>
      </trkpt>
      <trkpt lat="44.34803" lon="1.60478">
        <ele>284.298</ele>
        <time>2013-06-29T13:47:58Z</time>
      </trkpt>
      <trkpt lat="44.34809" lon="1.60454">
        <ele>283.249</ele>
        <time>2013-06-29T13:48:17Z</time>
      </trkpt>
      <trkpt lat="44.34815" lon="1.60419">
        <ele>281.677</ele>
        <time>2013-06-29T13:48:42Z</time>
      </trkpt>
      <trkpt lat="44.34821" lon="1.60389">
        <ele>280.834</ele>
        <time>2013-06-29T13:49:04Z</time>
      </trkpt>
      <trkpt lat="44.34829" lon="1.60355">
        <ele>279.867</ele>
        <time>2013-06-29T13:49:30Z</time>
      </trkpt>
      <trkpt lat="44.34834" lon="1.60328">
        <ele>278.799</ele>
        <time>2013-06-29T13:49:51Z</time>
      </trkpt>
      <trkpt lat="44.34839" lon="1.60296">
        <ele>278.055</ele>
        <time>2013-06-29T13:50:16Z</time>
      </trkpt>
      <trkpt lat="44.34847" lon="1.60274">
        <ele>276.968</ele>
        <time>2013-06-29T13:50:37Z</time>
      </trkpt>
      <trkpt lat="44.34852" lon="1.60263">
        <ele>275.652</ele>
        <time>2013-06-29T13:50:50Z</time>
      </trkpt>
      <trkpt lat="44.3486" lon="1.60243">
        <ele>273.703</ele>
        <time>2013-06-29T13:51:10Z</time>
      </trkpt>
      <trkpt lat="44.34867" lon="1.60223">
        <ele>272.842</ele>
        <time>2013-06-29T13:51:29Z</time>
      </trkpt>
      <trkpt lat="44.34873" lon="1.60205">
        <ele>272.214</ele>
        <time>2013-06-29T13:51:47Z</time>
      </trkpt>
      <trkpt lat="44.34877" lon="1.60185">
        <ele>271.144</ele>
        <time>2013-06-29T13:52:06Z</time>
      </trkpt>
      <trkpt lat="44.3488" lon="1.60165">
        <ele>269.943</ele>
        <time>2013-06-29T13:52:24Z</time>
      </trkpt>
      <trkpt lat="44.34885" lon="1.60145">
        <ele>269.665</ele>
        <time>2013-06-29T13:52:39Z</time>
      </trkpt>
      <trkpt lat="44.34894" lon="1.60127">
        <ele>270.334</ele>
        <time>2013-06-29T13:52:56Z</time>
      </trkpt>
      <trkpt lat="44.34906" lon="1.6011">
        <ele>271.522</ele>
        <time>2013-06-29T13:53:15Z</time>
      </trkpt>
      <trkpt lat="44.34918" lon="1.60088">
        <ele>272.682</ele>
        <time>2013-06-29T13:53:37Z</time>
      </trkpt>
      <trkpt lat="44.34928" lon="1.60067">
        <ele>273.908</ele>
        <time>2013-06-29T13:53:57Z</time>
      </trkpt>
      <trkpt lat="44.34933" lon="1.60059">
        <ele>273.921</ele>
        <time>2013-06-29T13:54:17Z</time>
      </trkpt>
      <trkpt lat="44.34932" lon="1.60057">
        <ele>272.981</ele>
        <time>2013-06-29T13:54:37Z</time>
      </trkpt>
      <trkpt lat="44.34931" lon="1.60057">
        <ele>272.845</ele>
        <time>2013-06-29T13:55:17Z</time>
      </trkpt>
      <trkpt lat="44.34931" lon="1.60054">
        <ele>271.63</ele>
        <time>2013-06-29T14:01:03Z</time>
      </trkpt>
      <trkpt lat="44.34932" lon="1.60058">
        <ele>272.531</ele>
        <time>2013-06-29T14:03:33Z</time>
      </trkpt>
      <trkpt lat="44.34932" lon="1.60054">
        <ele>273.07</ele>
        <time>2013-06-29T14:04:06Z</time>
      </trkpt>
      <trkpt lat="44.34933" lon="1.60052">
        <ele>272.672</ele>
        <time>2013-06-29T14:04:34Z</time>
      </trkpt>
      <trkpt lat="44.34934" lon="1.60045">
        <ele>272.921</ele>
        <time>2013-06-29T14:04:54Z</time>
      </trkpt>
      <trkpt lat="44.3494" lon="1.6003">
        <ele>273.369</ele>
        <time>2013-06-29T14:05:18Z</time>
      </trkpt>
      <trkpt lat="44.34946" lon="1.60008">
        <ele>273.542</ele>
        <time>2013-06-29T14:05:37Z</time>
      </trkpt>
      <trkpt lat="44.3495" lon="1.6">
        <ele>273.872</ele>
        <time>2013-06-29T14:05:45Z</time>
      </trkpt>
      <trkpt lat="44.34961" lon="1.59975">
        <ele>273.688</ele>
        <time>2013-06-29T14:06:07Z</time>
      </trkpt>
      <trkpt lat="44.34974" lon="1.59951">
        <ele>273.87</ele>
        <time>2013-06-29T14:06:27Z</time>
      </trkpt>
      <trkpt lat="44.3499" lon="1.59922">
        <ele>274.451</ele>
        <time>2013-06-29T14:06:50Z</time>
      </trkpt>
      <trkpt lat="44.35007" lon="1.59894">
        <ele>275.075</ele>
        <time>2013-06-29T14:07:14Z</time>
      </trkpt>
      <trkpt lat="44.35023" lon="1.59866">
        <ele>275.428</ele>
        <time>2013-06-29T14:07:39Z</time>
      </trkpt>
      <trkpt lat="44.3504" lon="1.59836">
        <ele>276.118</ele>
        <time>2013-06-29T14:08:05Z</time>
      </trkpt>
      <trkpt lat="44.35056" lon="1.59806">
        <ele>276.611</ele>
        <time>2013-06-29T14:08:31Z</time>
      </trkpt>
      <trkpt lat="44.35068" lon="1.59781">
        <ele>277.458</ele>
        <time>2013-06-29T14:08:53Z</time>
      </trkpt>
      <trkpt lat="44.35086" lon="1.59748">
        <ele>278.466</ele>
        <time>2013-06-29T14:09:21Z</time>
      </trkpt>
      <trkpt lat="44.351" lon="1.59722">
        <ele>279.896</ele>
        <time>2013-06-29T14:09:44Z</time>
      </trkpt>
      <trkpt lat="44.35113" lon="1.59702">
        <ele>280.782</ele>
        <time>2013-06-29T14:10:04Z</time>
      </trkpt>
      <trkpt lat="44.35128" lon="1.5968">
        <ele>281.671</ele>
        <time>2013-06-29T14:10:25Z</time>
      </trkpt>
      <trkpt lat="44.35141" lon="1.59661">
        <ele>281.123</ele>
        <time>2013-06-29T14:10:44Z</time>
      </trkpt>
      <trkpt lat="44.35155" lon="1.59637">
        <ele>280.522</ele>
        <time>2013-06-29T14:11:04Z</time>
      </trkpt>
      <trkpt lat="44.35165" lon="1.59618">
        <ele>279.073</ele>
        <time>2013-06-29T14:11:21Z</time>
      </trkpt>
      <trkpt lat="44.35174" lon="1.59597">
        <ele>277.554</ele>
        <time>2013-06-29T14:11:40Z</time>
      </trkpt>
      <trkpt lat="44.35183" lon="1.5958">
        <ele>277.284</ele>
        <time>2013-06-29T14:11:56Z</time>
      </trkpt>
      <trkpt lat="44.35195" lon="1.59559">
        <ele>277.138</ele>
        <time>2013-06-29T14:12:14Z</time>
      </trkpt>
      <trkpt lat="44.352" lon="1.59548">
        <ele>276.995</ele>
        <time>2013-06-29T14:12:24Z</time>
      </trkpt>
      <trkpt lat="44.35214" lon="1.59521">
        <ele>276.623</ele>
        <time>2013-06-29T14:12:44Z</time>
      </trkpt>
      <trkpt lat="44.35234" lon="1.59487">
        <ele>276.635</ele>
        <time>2013-06-29T14:13:11Z</time>
      </trkpt>
      <trkpt lat="44.3525" lon="1.59453">
        <ele>276.666</ele>
        <time>2013-06-29T14:13:36Z</time>
      </trkpt>
      <trkpt lat="44.35264" lon="1.59422">
        <ele>277.364</ele>
        <time>2013-06-29T14:14:01Z</time>
      </trkpt>
      <trkpt lat="44.35272" lon="1.59403">
        <ele>278.268</ele>
        <time>2013-06-29T14:14:21Z</time>
      </trkpt>
      <trkpt lat="44.35281" lon="1.59388">
        <ele>278.162</ele>
        <time>2013-06-29T14:14:40Z</time>
      </trkpt>
      <trkpt lat="44.35295" lon="1.59364">
        <ele>278.556</ele>
        <time>2013-06-29T14:15:00Z</time>
      </trkpt>
      <trkpt lat="44.35307" lon="1.59343">
        <ele>279.223</ele>
        <time>2013-06-29T14:15:20Z</time>
      </trkpt>
      <trkpt lat="44.35318" lon="1.59325">
        <ele>278.988</ele>
        <time>2013-06-29T14:15:37Z</time>
      </trkpt>
      <trkpt lat="44.35331" lon="1.59303">
        <ele>279.119</ele>
        <time>2013-06-29T14:15:55Z</time>
      </trkpt>
      <trkpt lat="44.35342" lon="1.59286">
        <ele>280.101</ele>
        <time>2013-06-29T14:16:17Z</time>
      </trkpt>
      <trkpt lat="44.35349" lon="1.59272">
        <ele>280.327</ele>
        <time>2013-06-29T14:16:36Z</time>
      </trkpt>
      <trkpt lat="44.35366" lon="1.59249">
        <ele>280.587</ele>
        <time>2013-06-29T14:16:57Z</time>
      </trkpt>
      <trkpt lat="44.35371" lon="1.59243">
        <ele>280.808</ele>
        <time>2013-06-29T14:17:17Z</time>
      </trkpt>
      <trkpt lat="44.35375" lon="1.59242">
        <ele>281.083</ele>
        <time>2013-06-29T14:17:54Z</time>
      </trkpt>
      <trkpt lat="44.35373" lon="1.59241">
        <ele>281.05</ele>
        <time>2013-06-29T14:19:35Z</time>
      </trkpt>
      <trkpt lat="44.3537" lon="1.59231">
        <ele>281.483</ele>
        <time>2013-06-29T14:19:51Z</time>
      </trkpt>
      <trkpt lat="44.3536" lon="1.5919">
        <ele>282.098</ele>
        <time>2013-06-29T14:20:19Z</time>
      </trkpt>
      <trkpt lat="44.35348" lon="1.59157">
        <ele>283.017</ele>
        <time>2013-06-29T14:20:45Z</time>
      </trkpt>
      <trkpt lat="44.35337" lon="1.59134">
        <ele>283.191</ele>
        <time>2013-06-29T14:21:04Z</time>
      </trkpt>
      <trkpt lat="44.35331" lon="1.5912">
        <ele>283.34</ele>
        <time>2013-06-29T14:21:20Z</time>
      </trkpt>
      <trkpt lat="44.35316" lon="1.59096">
        <ele>284.044</ele>
        <time>2013-06-29T14:21:41Z</time>
      </trkpt>
      <trkpt lat="44.35297" lon="1.59065">
        <ele>284.747</ele>
        <time>2013-06-29T14:22:08Z</time>
      </trkpt>
      <trkpt lat="44.35283" lon="1.59043">
        <ele>284.152</ele>
        <time>2013-06-29T14:22:28Z</time>
      </trkpt>
      <trkpt lat="44.35269" lon="1.59023">
        <ele>284.364</ele>
        <time>2013-06-29T14:22:47Z</time>
      </trkpt>
      <trkpt lat="44.35257" lon="1.58991">
        <ele>284.709</ele>
        <time>2013-06-29T14:23:09Z</time>
      </trkpt>
      <trkpt lat="44.35251" lon="1.58959">
        <ele>284.609</ele>
        <time>2013-06-29T14:23:31Z</time>
      </trkpt>
      <trkpt lat="44.35243" lon="1.58929">
        <ele>284.524</ele>
        <time>2013-06-29T14:23:51Z</time>
      </trkpt>
      <trkpt lat="44.35232" lon="1.58893">
        <ele>285.467</ele>
        <time>2013-06-29T14:24:16Z</time>
      </trkpt>
      <trkpt lat="44.35218" lon="1.58855">
        <ele>286.246</ele>
        <time>2013-06-29T14:24:44Z</time>
      </trkpt>
      <trkpt lat="44.35212" lon="1.5884">
        <ele>286.376</ele>
        <time>2013-06-29T14:24:56Z</time>
      </trkpt>
      <trkpt lat="44.3521" lon="1.58836">
        <ele>286.511</ele>
        <time>2013-06-29T14:24:59Z</time>
      </trkpt>
      <trkpt lat="44.35209" lon="1.58832">
        <ele>286.823</ele>
        <time>2013-06-29T14:25:02Z</time>
      </trkpt>
      <trkpt lat="44.35206" lon="1.58825">
        <ele>286.455</ele>
        <time>2013-06-29T14:25:07Z</time>
      </trkpt>
      <trkpt lat="44.35194" lon="1.58796">
        <ele>287.022</ele>
        <time>2013-06-29T14:25:30Z</time>
      </trkpt>
      <trkpt lat="44.35174" lon="1.58764">
        <ele>287.283</ele>
        <time>2013-06-29T14:25:58Z</time>
      </trkpt>
      <trkpt lat="44.35163" lon="1.58745">
        <ele>287.147</ele>
        <time>2013-06-29T14:26:16Z</time>
      </trkpt>
      <trkpt lat="44.35147" lon="1.58716">
        <ele>287.376</ele>
        <time>2013-06-29T14:26:41Z</time>
      </trkpt>
      <trkpt lat="44.35132" lon="1.58697">
        <ele>287.046</ele>
        <time>2013-06-29T14:27:00Z</time>
      </trkpt>
      <trkpt lat="44.35116" lon="1.58681">
        <ele>287.405</ele>
        <time>2013-06-29T14:27:17Z</time>
      </trkpt>
      <trkpt lat="44.35108" lon="1.58667">
        <ele>287.944</ele>
        <time>2013-06-29T14:27:31Z</time>
      </trkpt>
      <trkpt lat="44.35099" lon="1.58653">
        <ele>287.974</ele>
        <time>2013-06-29T14:27:45Z</time>
      </trkpt>
      <trkpt lat="44.35087" lon="1.58636">
        <ele>288.071</ele>
        <time>2013-06-29T14:28:00Z</time>
      </trkpt>
      <trkpt lat="44.35077" lon="1.5862">
        <ele>288.436</ele>
        <time>2013-06-29T14:28:12Z</time>
      </trkpt>
      <trkpt lat="44.35066" lon="1.58603">
        <ele>287.689</ele>
        <time>2013-06-29T14:28:25Z</time>
      </trkpt>
      <trkpt lat="44.35052" lon="1.58579">
        <ele>287.378</ele>
        <time>2013-06-29T14:28:44Z</time>
      </trkpt>
      <trkpt lat="44.35046" lon="1.58569">
        <ele>288.151</ele>
        <time>2013-06-29T14:28:53Z</time>
      </trkpt>
      <trkpt lat="44.35035" lon="1.58552">
        <ele>287.49</ele>
        <time>2013-06-29T14:29:06Z</time>
      </trkpt>
      <trkpt lat="44.35023" lon="1.58524">
        <ele>286.981</ele>
        <time>2013-06-29T14:29:27Z</time>
      </trkpt>
      <trkpt lat="44.35009" lon="1.58496">
        <ele>287.56</ele>
        <time>2013-06-29T14:29:47Z</time>
      </trkpt>
      <trkpt lat="44.34991" lon="1.5846">
        <ele>288.314</ele>
        <time>2013-06-29T14:30:14Z</time>
      </trkpt>
      <trkpt lat="44.34978" lon="1.5843">
        <ele>287.6</ele>
        <time>2013-06-29T14:30:36Z</time>
      </trkpt>
      <trkpt lat="44.34968" lon="1.58402">
        <ele>286.391</ele>
        <time>2013-06-29T14:30:57Z</time>
      </trkpt>
      <trkpt lat="44.34952" lon="1.58363">
        <ele>285.278</ele>
        <time>2013-06-29T14:31:23Z</time>
      </trkpt>
      <trkpt lat="44.34936" lon="1.58315">
        <ele>283.595</ele>
        <time>2013-06-29T14:31:56Z</time>
      </trkpt>
      <trkpt lat="44.3492" lon="1.58263">
        <ele>283.566</ele>
        <time>2013-06-29T14:32:31Z</time>
      </trkpt>
      <trkpt lat="44.34908" lon="1.58229">
        <ele>283.466</ele>
        <time>2013-06-29T14:32:55Z</time>
      </trkpt>
      <trkpt lat="44.34895" lon="1.58191">
        <ele>283.353</ele>
        <time>2013-06-29T14:33:21Z</time>
      </trkpt>
      <trkpt lat="44.34876" lon="1.58138">
        <ele>284.107</ele>
        <time>2013-06-29T14:33:56Z</time>
      </trkpt>
      <trkpt lat="44.3486" lon="1.58089">
        <ele>285.196</ele>
        <time>2013-06-29T14:34:29Z</time>
      </trkpt>
      <trkpt lat="44.34846" lon="1.58047">
        <ele>286.129</ele>
        <time>2013-06-29T14:34:58Z</time>
      </trkpt>
      <trkpt lat="44.34831" lon="1.58">
        <ele>287.634</ele>
        <time>2013-06-29T14:35:31Z</time>
      </trkpt>
      <trkpt lat="44.34821" lon="1.57974">
        <ele>288.135</ele>
        <time>2013-06-29T14:35:52Z</time>
      </trkpt>
      <trkpt lat="44.34806" lon="1.57936">
        <ele>289.193</ele>
        <time>2013-06-29T14:36:20Z</time>
      </trkpt>
      <trkpt lat="44.34785" lon="1.57898">
        <ele>289.338</ele>
        <time>2013-06-29T14:36:52Z</time>
      </trkpt>
      <trkpt lat="44.34768" lon="1.57871">
        <ele>289.491</ele>
        <time>2013-06-29T14:37:17Z</time>
      </trkpt>
      <trkpt lat="44.34748" lon="1.57835">
        <ele>289.253</ele>
        <time>2013-06-29T14:37:47Z</time>
      </trkpt>
      <trkpt lat="44.34725" lon="1.57798">
        <ele>288.784</ele>
        <time>2013-06-29T14:38:19Z</time>
      </trkpt>
      <trkpt lat="44.34699" lon="1.57755">
        <ele>288.121</ele>
        <time>2013-06-29T14:38:55Z</time>
      </trkpt>
      <trkpt lat="44.34684" lon="1.57718">
        <ele>286.654</ele>
        <time>2013-06-29T14:39:26Z</time>
      </trkpt>
      <trkpt lat="44.34683" lon="1.57716">
        <ele>286.71</ele>
        <time>2013-06-29T14:39:52Z</time>
      </trkpt>
      <trkpt lat="44.34683" lon="1.57714">
        <ele>286.463</ele>
        <time>2013-06-29T14:43:10Z</time>
      </trkpt>
      <trkpt lat="44.34682" lon="1.57715">
        <ele>286.817</ele>
        <time>2013-06-29T14:43:39Z</time>
      </trkpt>
      <trkpt lat="44.34684" lon="1.57711">
        <ele>287.012</ele>
        <time>2013-06-29T14:43:54Z</time>
      </trkpt>
      <trkpt lat="44.3468" lon="1.57671">
        <ele>286.605</ele>
        <time>2013-06-29T14:44:21Z</time>
      </trkpt>
      <trkpt lat="44.34676" lon="1.57623">
        <ele>284.712</ele>
        <time>2013-06-29T14:44:52Z</time>
      </trkpt>
      <trkpt lat="44.34671" lon="1.57568">
        <ele>283.671</ele>
        <time>2013-06-29T14:45:27Z</time>
      </trkpt>
      <trkpt lat="44.34664" lon="1.57516">
        <ele>283.147</ele>
        <time>2013-06-29T14:46:00Z</time>
      </trkpt>
      <trkpt lat="44.34655" lon="1.57464">
        <ele>280.874</ele>
        <time>2013-06-29T14:46:33Z</time>
      </trkpt>
      <trkpt lat="44.34652" lon="1.57416">
        <ele>278.909</ele>
        <time>2013-06-29T14:47:03Z</time>
      </trkpt>
      <trkpt lat="44.34654" lon="1.57397">
        <ele>278.705</ele>
        <time>2013-06-29T14:47:27Z</time>
      </trkpt>
      <trkpt lat="44.34654" lon="1.57374">
        <ele>277.66</ele>
        <time>2013-06-29T14:47:44Z</time>
      </trkpt>
      <trkpt lat="44.34656" lon="1.57323">
        <ele>275.712</ele>
        <time>2013-06-29T14:48:16Z</time>
      </trkpt>
      <trkpt lat="44.34658" lon="1.57274">
        <ele>273.842</ele>
        <time>2013-06-29T14:48:47Z</time>
      </trkpt>
      <trkpt lat="44.34656" lon="1.57228">
        <ele>272.78</ele>
        <time>2013-06-29T14:49:16Z</time>
      </trkpt>
      <trkpt lat="44.34646" lon="1.57183">
        <ele>271.077</ele>
        <time>2013-06-29T14:49:45Z</time>
      </trkpt>
      <trkpt lat="44.34637" lon="1.57142">
        <ele>268.066</ele>
        <time>2013-06-29T14:50:12Z</time>
      </trkpt>
      <trkpt lat="44.34628" lon="1.57104">
        <ele>268.071</ele>
        <time>2013-06-29T14:50:37Z</time>
      </trkpt>
      <trkpt lat="44.34622" lon="1.57054">
        <ele>267.763</ele>
        <time>2013-06-29T14:51:08Z</time>
      </trkpt>
      <trkpt lat="44.34619" lon="1.57005">
        <ele>267.038</ele>
        <time>2013-06-29T14:51:39Z</time>
      </trkpt>
      <trkpt lat="44.34616" lon="1.56967">
        <ele>266.436</ele>
        <time>2013-06-29T14:52:03Z</time>
      </trkpt>
      <trkpt lat="44.34611" lon="1.56926">
        <ele>265.314</ele>
        <time>2013-06-29T14:52:29Z</time>
      </trkpt>
      <trkpt lat="44.34605" lon="1.56884">
        <ele>265.105</ele>
        <time>2013-06-29T14:52:55Z</time>
      </trkpt>
      <trkpt lat="44.34599" lon="1.56828">
        <ele>265.039</ele>
        <time>2013-06-29T14:53:31Z</time>
      </trkpt>
      <trkpt lat="44.34598" lon="1.56819">
        <ele>265.314</ele>
        <time>2013-06-29T14:53:37Z</time>
      </trkpt>
      <trkpt lat="44.34595" lon="1.56792">
        <ele>266.071</ele>
        <time>2013-06-29T14:53:56Z</time>
      </trkpt>
      <trkpt lat="44.34593" lon="1.56785">
        <ele>266.225</ele>
        <time>2013-06-29T14:54:01Z</time>
      </trkpt>
      <trkpt lat="44.3459" lon="1.56763">
        <ele>266.297</ele>
        <time>2013-06-29T14:54:17Z</time>
      </trkpt>
      <trkpt lat="44.34583" lon="1.56726">
        <ele>267.281</ele>
        <time>2013-06-29T14:54:42Z</time>
      </trkpt>
      <trkpt lat="44.34581" lon="1.56684">
        <ele>270.434</ele>
        <time>2013-06-29T14:55:10Z</time>
      </trkpt>
      <trkpt lat="44.34582" lon="1.56646">
        <ele>272.585</ele>
        <time>2013-06-29T14:55:36Z</time>
      </trkpt>
      <trkpt lat="44.34582" lon="1.56616">
        <ele>273.495</ele>
        <time>2013-06-29T14:55:57Z</time>
      </trkpt>
      <trkpt lat="44.34581" lon="1.5658">
        <ele>274.612</ele>
        <time>2013-06-29T14:56:22Z</time>
      </trkpt>
      <trkpt lat="44.34577" lon="1.56541">
        <ele>274.479</ele>
        <time>2013-06-29T14:56:49Z</time>
      </trkpt>
      <trkpt lat="44.34573" lon="1.56504">
        <ele>274.185</ele>
        <time>2013-06-29T14:57:15Z</time>
      </trkpt>
      <trkpt lat="44.34571" lon="1.5648">
        <ele>274.58</ele>
        <time>2013-06-29T14:57:32Z</time>
      </trkpt>
      <trkpt lat="44.34566" lon="1.5644">
        <ele>274.717</ele>
        <time>2013-06-29T14:57:58Z</time>
      </trkpt>
      <trkpt lat="44.34562" lon="1.5641">
        <ele>275.298</ele>
        <time>2013-06-29T14:58:20Z</time>
      </trkpt>
      <trkpt lat="44.34551" lon="1.56371">
        <ele>274.899</ele>
        <time>2013-06-29T14:58:47Z</time>
      </trkpt>
      <trkpt lat="44.34535" lon="1.56335">
        <ele>273.386</ele>
        <time>2013-06-29T14:59:15Z</time>
      </trkpt>
      <trkpt lat="44.34517" lon="1.56303">
        <ele>271.77</ele>
        <time>2013-06-29T14:59:41Z</time>
      </trkpt>
      <trkpt lat="44.34505" lon="1.56264">
        <ele>271.217</ele>
        <time>2013-06-29T15:00:09Z</time>
      </trkpt>
      <trkpt lat="44.34498" lon="1.56225">
        <ele>271.023</ele>
        <time>2013-06-29T15:00:34Z</time>
      </trkpt>
      <trkpt lat="44.34493" lon="1.56194">
        <ele>270.499</ele>
        <time>2013-06-29T15:00:57Z</time>
      </trkpt>
      <trkpt lat="44.34491" lon="1.56183">
        <ele>271.256</ele>
        <time>2013-06-29T15:01:13Z</time>
      </trkpt>
      <trkpt lat="44.34487" lon="1.56165">
        <ele>271.427</ele>
        <time>2013-06-29T15:01:31Z</time>
      </trkpt>
      <trkpt lat="44.34483" lon="1.56148">
        <ele>271.153</ele>
        <time>2013-06-29T15:01:49Z</time>
      </trkpt>
      <trkpt lat="44.34475" lon="1.56094">
        <ele>272.209</ele>
        <time>2013-06-29T15:02:23Z</time>
      </trkpt>
      <trkpt lat="44.34464" lon="1.56038">
        <ele>274.111</ele>
        <time>2013-06-29T15:03:00Z</time>
      </trkpt>
      <trkpt lat="44.34455" lon="1.55996">
        <ele>275.418</ele>
        <time>2013-06-29T15:03:29Z</time>
      </trkpt>
      <trkpt lat="44.34447" lon="1.55955">
        <ele>276.807</ele>
        <time>2013-06-29T15:03:57Z</time>
      </trkpt>
      <trkpt lat="44.34441" lon="1.55918">
        <ele>277.66</ele>
        <time>2013-06-29T15:04:24Z</time>
      </trkpt>
      <trkpt lat="44.34445" lon="1.55916">
        <ele>277.937</ele>
        <time>2013-06-29T15:04:40Z</time>
      </trkpt>
      <trkpt lat="44.34446" lon="1.55916">
        <ele>277.964</ele>
        <time>2013-06-29T15:05:05Z</time>
      </trkpt>
      <trkpt lat="44.34445" lon="1.55913">
        <ele>277.512</ele>
        <time>2013-06-29T15:11:52Z</time>
      </trkpt>
      <trkpt lat="44.34445" lon="1.55912">
        <ele>277.464</ele>
        <time>2013-06-29T15:12:11Z</time>
      </trkpt>
      <trkpt lat="44.3444" lon="1.55908">
        <ele>277.49</ele>
        <time>2013-06-29T15:12:25Z</time>
      </trkpt>
      <trkpt lat="44.34433" lon="1.55885">
        <ele>278.83</ele>
        <time>2013-06-29T15:12:43Z</time>
      </trkpt>
      <trkpt lat="44.34421" lon="1.55852">
        <ele>279.275</ele>
        <time>2013-06-29T15:13:09Z</time>
      </trkpt>
      <trkpt lat="44.3441" lon="1.55813">
        <ele>280.316</ele>
        <time>2013-06-29T15:13:36Z</time>
      </trkpt>
      <trkpt lat="44.34397" lon="1.55769">
        <ele>281.512</ele>
        <time>2013-06-29T15:14:06Z</time>
      </trkpt>
      <trkpt lat="44.34385" lon="1.55725">
        <ele>281.122</ele>
        <time>2013-06-29T15:14:35Z</time>
      </trkpt>
      <trkpt lat="44.34376" lon="1.55681">
        <ele>281.933</ele>
        <time>2013-06-29T15:15:04Z</time>
      </trkpt>
      <trkpt lat="44.34364" lon="1.55645">
        <ele>282.444</ele>
        <time>2013-06-29T15:15:29Z</time>
      </trkpt>
      <trkpt lat="44.3435" lon="1.55605">
        <ele>283.019</ele>
        <time>2013-06-29T15:15:56Z</time>
      </trkpt>
      <trkpt lat="44.34337" lon="1.55566">
        <ele>283.491</ele>
        <time>2013-06-29T15:16:24Z</time>
      </trkpt>
      <trkpt lat="44.34325" lon="1.55533">
        <ele>284.465</ele>
        <time>2013-06-29T15:16:47Z</time>
      </trkpt>
      <trkpt lat="44.34315" lon="1.55505">
        <ele>284.243</ele>
        <time>2013-06-29T15:17:07Z</time>
      </trkpt>
      <trkpt lat="44.34302" lon="1.5547">
        <ele>284.536</ele>
        <time>2013-06-29T15:17:32Z</time>
      </trkpt>
      <trkpt lat="44.34289" lon="1.55436">
        <ele>284.329</ele>
        <time>2013-06-29T15:17:56Z</time>
      </trkpt>
      <trkpt lat="44.34277" lon="1.55406">
        <ele>284.244</ele>
        <time>2013-06-29T15:18:18Z</time>
      </trkpt>
      <trkpt lat="44.34266" lon="1.55375">
        <ele>284.542</ele>
        <time>2013-06-29T15:18:40Z</time>
      </trkpt>
      <trkpt lat="44.34262" lon="1.55352">
        <ele>284.287</ele>
        <time>2013-06-29T15:19:04Z</time>
      </trkpt>
      <trkpt lat="44.34261" lon="1.5535">
        <ele>284.166</ele>
        <time>2013-06-29T15:19:39Z</time>
      </trkpt>
      <trkpt lat="44.34283" lon="1.55324">
        <ele>284.204</ele>
        <time>2013-06-29T15:20:04Z</time>
      </trkpt>
      <trkpt lat="44.34307" lon="1.55304">
        <ele>283.942</ele>
        <time>2013-06-29T15:20:29Z</time>
      </trkpt>
      <trkpt lat="44.34311" lon="1.55293">
        <ele>284.35</ele>
        <time>2013-06-29T15:20:49Z</time>
      </trkpt>
      <trkpt lat="44.34315" lon="1.55293">
        <ele>284.256</ele>
        <time>2013-06-29T15:21:10Z</time>
      </trkpt>
      <trkpt lat="44.34317" lon="1.55292">
        <ele>283.776</ele>
        <time>2013-06-29T15:21:29Z</time>
      </trkpt>
      <trkpt lat="44.34316" lon="1.55289">
        <ele>284.096</ele>
        <time>2013-06-29T15:21:54Z</time>
      </trkpt>
      <trkpt lat="44.34317" lon="1.55283">
        <ele>284.744</ele>
        <time>2013-06-29T15:22:04Z</time>
      </trkpt>
      <trkpt lat="44.34317" lon="1.55244">
        <ele>284.899</ele>
        <time>2013-06-29T15:22:32Z</time>
      </trkpt>
      <trkpt lat="44.34316" lon="1.55206">
        <ele>285.03</ele>
        <time>2013-06-29T15:22:59Z</time>
      </trkpt>
      <trkpt lat="44.34317" lon="1.55168">
        <ele>284.93</ele>
        <time>2013-06-29T15:23:25Z</time>
      </trkpt>
      <trkpt lat="44.34318" lon="1.55128">
        <ele>286.122</ele>
        <time>2013-06-29T15:23:51Z</time>
      </trkpt>
      <trkpt lat="44.34319" lon="1.55102">
        <ele>285.268</ele>
        <time>2013-06-29T15:24:08Z</time>
      </trkpt>
      <trkpt lat="44.34321" lon="1.55066">
        <ele>286.194</ele>
        <time>2013-06-29T15:24:31Z</time>
      </trkpt>
      <trkpt lat="44.34321" lon="1.55033">
        <ele>286.484</ele>
        <time>2013-06-29T15:24:53Z</time>
      </trkpt>
      <trkpt lat="44.34323" lon="1.54994">
        <ele>286.137</ele>
        <time>2013-06-29T15:25:17Z</time>
      </trkpt>
      <trkpt lat="44.34323" lon="1.54958">
        <ele>286.537</ele>
        <time>2013-06-29T15:25:40Z</time>
      </trkpt>
      <trkpt lat="44.34324" lon="1.54915">
        <ele>286.247</ele>
        <time>2013-06-29T15:26:07Z</time>
      </trkpt>
      <trkpt lat="44.34323" lon="1.54887">
        <ele>286.516</ele>
        <time>2013-06-29T15:26:28Z</time>
      </trkpt>
      <trkpt lat="44.34323" lon="1.54851">
        <ele>285.841</ele>
        <time>2013-06-29T15:26:51Z</time>
      </trkpt>
      <trkpt lat="44.34322" lon="1.54808">
        <ele>284.8</ele>
        <time>2013-06-29T15:27:18Z</time>
      </trkpt>
      <trkpt lat="44.3432" lon="1.54761">
        <ele>282.427</ele>
        <time>2013-06-29T15:27:47Z</time>
      </trkpt>
      <trkpt lat="44.34314" lon="1.54716">
        <ele>282.072</ele>
        <time>2013-06-29T15:28:16Z</time>
      </trkpt>
      <trkpt lat="44.34306" lon="1.54687">
        <ele>280.346</ele>
        <time>2013-06-29T15:28:37Z</time>
      </trkpt>
      <trkpt lat="44.34301" lon="1.5466">
        <ele>278.809</ele>
        <time>2013-06-29T15:28:56Z</time>
      </trkpt>
      <trkpt lat="44.34294" lon="1.54634">
        <ele>278.32</ele>
        <time>2013-06-29T15:29:13Z</time>
      </trkpt>
      <trkpt lat="44.34287" lon="1.54608">
        <ele>277.717</ele>
        <time>2013-06-29T15:29:33Z</time>
      </trkpt>
      <trkpt lat="44.34286" lon="1.54601">
        <ele>277.163</ele>
        <time>2013-06-29T15:29:52Z</time>
      </trkpt>
      <trkpt lat="44.3428" lon="1.54579">
        <ele>276.767</ele>
        <time>2013-06-29T15:30:19Z</time>
      </trkpt>
      <trkpt lat="44.34268" lon="1.54536">
        <ele>275.871</ele>
        <time>2013-06-29T15:30:48Z</time>
      </trkpt>
      <trkpt lat="44.34256" lon="1.54511">
        <ele>276.235</ele>
        <time>2013-06-29T15:31:11Z</time>
      </trkpt>
      <trkpt lat="44.34245" lon="1.54487">
        <ele>276.795</ele>
        <time>2013-06-29T15:31:33Z</time>
      </trkpt>
      <trkpt lat="44.34231" lon="1.54465">
        <ele>277.286</ele>
        <time>2013-06-29T15:31:57Z</time>
      </trkpt>
      <trkpt lat="44.34214" lon="1.54442">
        <ele>277.592</ele>
        <time>2013-06-29T15:32:22Z</time>
      </trkpt>
      <trkpt lat="44.34196" lon="1.54417">
        <ele>278.337</ele>
        <time>2013-06-29T15:32:48Z</time>
      </trkpt>
      <trkpt lat="44.34188" lon="1.54395">
        <ele>278.752</ele>
        <time>2013-06-29T15:33:13Z</time>
      </trkpt>
      <trkpt lat="44.34181" lon="1.54384">
        <ele>278.985</ele>
        <time>2013-06-29T15:33:29Z</time>
      </trkpt>
      <trkpt lat="44.3417" lon="1.54376">
        <ele>279.135</ele>
        <time>2013-06-29T15:33:49Z</time>
      </trkpt>
      <trkpt lat="44.34172" lon="1.54373">
        <ele>279.348</ele>
        <time>2013-06-29T15:34:15Z</time>
      </trkpt>
      <trkpt lat="44.34169" lon="1.54372">
        <ele>280.571</ele>
        <time>2013-06-29T15:34:19Z</time>
      </trkpt>
      <trkpt lat="44.34161" lon="1.54368">
        <ele>280.27</ele>
        <time>2013-06-29T15:34:40Z</time>
      </trkpt>
      <trkpt lat="44.34163" lon="1.54364">
        <ele>279.891</ele>
        <time>2013-06-29T15:35:40Z</time>
      </trkpt>
      <trkpt lat="44.34154" lon="1.5436">
        <ele>279.835</ele>
        <time>2013-06-29T15:35:55Z</time>
      </trkpt>
      <trkpt lat="44.34139" lon="1.54361">
        <ele>280.286</ele>
        <time>2013-06-29T15:36:13Z</time>
      </trkpt>
      <trkpt lat="44.34129" lon="1.54365">
        <ele>280.645</ele>
        <time>2013-06-29T15:36:25Z</time>
      </trkpt>
      <trkpt lat="44.34121" lon="1.54363">
        <ele>280.204</ele>
        <time>2013-06-29T15:36:33Z</time>
      </trkpt>
      <trkpt lat="44.34098" lon="1.5438">
        <ele>280.053</ele>
        <time>2013-06-29T15:36:57Z</time>
      </trkpt>
      <trkpt lat="44.34097" lon="1.54381">
        <ele>280.844</ele>
        <time>2013-06-29T15:37:13Z</time>
      </trkpt>
      <trkpt lat="44.34082" lon="1.5439">
        <ele>280.313</ele>
        <time>2013-06-29T15:37:31Z</time>
      </trkpt>
      <trkpt lat="44.34068" lon="1.54399">
        <ele>279.995</ele>
        <time>2013-06-29T15:37:49Z</time>
      </trkpt>
      <trkpt lat="44.34049" lon="1.5441">
        <ele>280.504</ele>
        <time>2013-06-29T15:38:12Z</time>
      </trkpt>
      <trkpt lat="44.3403" lon="1.54418">
        <ele>279.941</ele>
        <time>2013-06-29T15:38:34Z</time>
      </trkpt>
      <trkpt lat="44.34003" lon="1.5443">
        <ele>279.623</ele>
        <time>2013-06-29T15:39:01Z</time>
      </trkpt>
      <trkpt lat="44.33981" lon="1.54441">
        <ele>279.883</ele>
        <time>2013-06-29T15:39:22Z</time>
      </trkpt>
      <trkpt lat="44.33959" lon="1.54455">
        <ele>279.753</ele>
        <time>2013-06-29T15:39:43Z</time>
      </trkpt>
      <trkpt lat="44.33935" lon="1.54462">
        <ele>279.047</ele>
        <time>2013-06-29T15:40:08Z</time>
      </trkpt>
      <trkpt lat="44.33916" lon="1.54476">
        <ele>278.899</ele>
        <time>2013-06-29T15:40:30Z</time>
      </trkpt>
      <trkpt lat="44.33911" lon="1.54479">
        <ele>279.21</ele>
        <time>2013-06-29T15:40:35Z</time>
      </trkpt>
      <trkpt lat="44.33909" lon="1.54482">
        <ele>279.107</ele>
        <time>2013-06-29T15:40:38Z</time>
      </trkpt>
      <trkpt lat="44.33886" lon="1.54492">
        <ele>278.58</ele>
        <time>2013-06-29T15:40:58Z</time>
      </trkpt>
      <trkpt lat="44.33861" lon="1.54511">
        <ele>278.854</ele>
        <time>2013-06-29T15:41:19Z</time>
      </trkpt>
      <trkpt lat="44.33851" lon="1.54523">
        <ele>278.766</ele>
        <time>2013-06-29T15:41:55Z</time>
      </trkpt>
      <trkpt lat="44.33835" lon="1.54528">
        <ele>278.921</ele>
        <time>2013-06-29T15:42:13Z</time>
      </trkpt>
      <trkpt lat="44.33824" lon="1.5453">
        <ele>278.854</ele>
        <time>2013-06-29T15:42:27Z</time>
      </trkpt>
      <trkpt lat="44.33815" lon="1.54535">
        <ele>279.683</ele>
        <time>2013-06-29T15:43:04Z</time>
      </trkpt>
      <trkpt lat="44.33816" lon="1.54532">
        <ele>279.712</ele>
        <time>2013-06-29T15:43:24Z</time>
      </trkpt>
      <trkpt lat="44.33831" lon="1.54539">
        <ele>279.445</ele>
        <time>2013-06-29T15:43:51Z</time>
      </trkpt>
      <trkpt lat="44.33832" lon="1.5456">
        <ele>278.683</ele>
        <time>2013-06-29T15:44:07Z</time>
      </trkpt>
      <trkpt lat="44.33826" lon="1.54576">
        <ele>277.786</ele>
        <time>2013-06-29T15:44:23Z</time>
      </trkpt>
      <trkpt lat="44.33829" lon="1.54592">
        <ele>277.528</ele>
        <time>2013-06-29T15:44:37Z</time>
      </trkpt>
      <trkpt lat="44.33828" lon="1.54591">
        <ele>276.799</ele>
        <time>2013-06-29T15:44:40Z</time>
      </trkpt>
      <trkpt lat="44.33797" lon="1.54624">
        <ele>277.134</ele>
        <time>2013-06-29T15:45:03Z</time>
      </trkpt>
    </trkseg>
  </trk>
  <trk>
    <name><![CDATA[ACTIVE LOG174514]]></name>
    <trkseg>
      <trkpt lat="44.33784" lon="1.5464">
        <ele>277.279</ele>
        <time>2013-06-29T15:45:14Z</time>
      </trkpt>
    </trkseg>
  </trk>
  <trk>
    <name><![CDATA[ACTIVE LOG174628]]></name>
    <trkseg>
      <trkpt lat="44.33816" lon="1.5458">
        <ele>277.456</ele>
        <time>2013-06-29T15:46:28Z</time>
      </trkpt>
    </trkseg>
  </trk>
  <trk>
    <name><![CDATA[ACTIVE LOG174701]]></name>
    <trkseg>
      <trkpt lat="44.3377" lon="1.54557">
        <ele>277.348</ele>
        <time>2013-06-29T15:47:01Z</time>
      </trkpt>
      <trkpt lat="44.3377" lon="1.54557">
        <ele>277.287</ele>
        <time>2013-06-29T15:47:27Z</time>
      </trkpt>
      <trkpt lat="44.33823" lon="1.54587">
        <ele>277.751</ele>
        <time>2013-06-29T15:47:38Z</time>
      </trkpt>
    </trkseg>
  </trk>
  <trk>
    <name><![CDATA[ACTIVE LOG174813]]></name>
    <trkseg>
      <trkpt lat="44.33835" lon="1.54605">
        <ele>276.218</ele>
        <time>2013-06-29T15:48:13Z</time>
      </trkpt>
    </trkseg>
  </trk>
  <trk>
    <name><![CDATA[ACTIVE LOG174931]]></name>
    <trkseg>
      <trkpt lat="44.33849" lon="1.54543">
        <ele>277.455</ele>
        <time>2013-06-29T15:49:31Z</time>
      </trkpt>
      <trkpt lat="44.33833" lon="1.54569">
        <ele>276.919</ele>
        <time>2013-06-29T15:49:41Z</time>
      </trkpt>
    </trkseg>
  </trk>
  <trk>
    <name><![CDATA[ACTIVE LOG175005]]></name>
    <trkseg>
      <trkpt lat="44.33801" lon="1.54606">
        <ele>276.765</ele>
        <time>2013-06-29T15:50:05Z</time>
      </trkpt>
    </trkseg>
  </trk>
  <trk>
    <name><![CDATA[ACTIVE LOG175033]]></name>
    <trkseg>
      <trkpt lat="44.33832" lon="1.54573">
        <ele>277.41</ele>
        <time>2013-06-29T15:50:33Z</time>
      </trkpt>
      <trkpt lat="44.33823" lon="1.54565">
        <ele>276.476</ele>
        <time>2013-06-29T15:51:10Z</time>
      </trkpt>
      <trkpt lat="44.33823" lon="1.54572">
        <ele>277.935</ele>
        <time>2013-06-29T15:51:13Z</time>
      </trkpt>
      <trkpt lat="44.33829" lon="1.54572">
        <ele>277.728</ele>
        <time>2013-06-29T15:51:15Z</time>
      </trkpt>
      <trkpt lat="44.33827" lon="1.54579">
        <ele>277.622</ele>
        <time>2013-06-29T15:51:17Z</time>
      </trkpt>
      <trkpt lat="44.33829" lon="1.54596">
        <ele>277.091</ele>
        <time>2013-06-29T15:51:25Z</time>
      </trkpt>
      <trkpt lat="44.33833" lon="1.54597">
        <ele>277.484</ele>
        <time>2013-06-29T15:51:34Z</time>
      </trkpt>
      <trkpt lat="44.33834" lon="1.54581">
        <ele>278.44</ele>
        <time>2013-06-29T15:51:48Z</time>
      </trkpt>
      <trkpt lat="44.33833" lon="1.5458">
        <ele>279.021</ele>
        <time>2013-06-29T15:51:49Z</time>
      </trkpt>
      <trkpt lat="44.33833" lon="1.54562">
        <ele>279.749</ele>
        <time>2013-06-29T15:52:04Z</time>
      </trkpt>
      <trkpt lat="44.33831" lon="1.54545">
        <ele>280.696</ele>
        <time>2013-06-29T15:52:14Z</time>
      </trkpt>
      <trkpt lat="44.33829" lon="1.54537">
        <ele>281.068</ele>
        <time>2013-06-29T15:52:27Z</time>
      </trkpt>
      <trkpt lat="44.33825" lon="1.54532">
        <ele>278.046</ele>
        <time>2013-06-29T15:52:47Z</time>
      </trkpt>
      <trkpt lat="44.33827" lon="1.54527">
        <ele>278.349</ele>
        <time>2013-06-29T15:53:04Z</time>
      </trkpt>
    </trkseg>
  </trk>
</gpx>